PWSweather.com
Personal Weather Stations
Station Observations
HVALPSUND
Hvalpsund, FarsoeDK 9640

HvalpsundFarsoeDK 9640

Lat: 56.705311, Lon: 9.203638

Elevation: 5

Station Type: Vantage Pro2

http://hvalpsundvejr.dk

Latest ConditionsUpdated 10:27:00 PM GMT+01:01 Thursday, Sep 21, 2017
Currently Today's Max Today's Min Today's Average
Temperature 55.1°F12.8°C 63.2°F17.3°C 52.7°F11.5°C 57.2°F14.0°C
Dew Point 51.0°F10.6°C 55.5°F13.1°C 51.0°F10.6°C 53.0°F11.7°C
Winds 11.3 mph SE18.2 kmh SE 14.0 mph ESE22.5 kmh ESE - 5.7 mph 9.2 kmh
Wind Gusts 16.0 mph25.7 kmh 18.0 mph29.0 kmh - -
Humidity 86% 95% 71% 86%
Pressure 30.15 in1021.0 mb 30.16 in1021.3 mb 30.01 in1016.3 mb -
Precipitation - 0.01 in0.3 mm - -
Hour Temp Dew Point Humidity Winds Wind Gusts Pressure Precip Precip Rate Daily Precip Total
10:27 PM 55.1°F12.8°C 51.0°F10.6°C 86% 11.3 mph SE18.2 kmh SE 16.0 mph25.7 kmh 30.15 in1021.0 mb 0.00 in0.0 mm 0.00 in0.0 mm 0.01 in0.3 mm
10:26 PM 55.2°F12.9°C 51.1°F10.6°C 86% 10.3 mph ESE16.6 kmh ESE 14.0 mph22.5 kmh 30.16 in1021.3 mb 0.00 in0.0 mm 0.00 in0.0 mm 0.01 in0.3 mm
10:24 PM 55.2°F12.9°C 51.1°F10.6°C 86% 8.8 mph SE14.2 kmh SE 12.0 mph19.3 kmh 30.16 in1021.3 mb 0.00 in0.0 mm 0.00 in0.0 mm 0.01 in0.3 mm
10:23 PM 55.2°F12.9°C 51.1°F10.6°C 86% 8.0 mph SE12.9 kmh SE 13.0 mph20.9 kmh 30.15 in1021.0 mb 0.00 in0.0 mm 0.00 in0.0 mm 0.01 in0.3 mm
10:22 PM 55.3°F12.9°C 51.2°F10.7°C 86% 9.4 mph ESE15.1 kmh ESE 13.0 mph20.9 kmh 30.15 in1021.0 mb 0.00 in0.0 mm 0.00 in0.0 mm 0.01 in0.3 mm
10:21 PM 55.2°F12.9°C 51.1°F10.6°C 86% 8.9 mph SE14.3 kmh SE 13.0 mph20.9 kmh 30.15 in1021.0 mb 0.00 in0.0 mm 0.00 in0.0 mm 0.01 in0.3 mm
10:20 PM 55.2°F12.9°C 51.1°F10.6°C 86% 9.9 mph SE15.9 kmh SE 13.0 mph20.9 kmh 30.15 in1021.0 mb 0.00 in0.0 mm 0.00 in0.0 mm 0.01 in0.3 mm
10:19 PM 55.3°F12.9°C 51.2°F10.7°C 86% 9.1 mph ESE14.6 kmh ESE 14.0 mph22.5 kmh 30.15 in1021.0 mb 0.00 in0.0 mm 0.00 in0.0 mm 0.01 in0.3 mm
10:18 PM 55.2°F12.9°C 51.1°F10.6°C 86% 9.8 mph SE15.8 kmh SE 14.0 mph22.5 kmh 30.15 in1021.0 mb 0.00 in0.0 mm 0.00 in0.0 mm 0.01 in0.3 mm
10:17 PM 55.2°F12.9°C 51.1°F10.6°C 86% 10.6 mph SE17.1 kmh SE 13.0 mph20.9 kmh 30.15 in1021.0 mb 0.00 in0.0 mm 0.00 in0.0 mm 0.01 in0.3 mm
10:16 PM 55.3°F12.9°C 51.2°F10.7°C 86% 10.2 mph SE16.4 kmh SE 13.0 mph20.9 kmh 30.15 in1021.0 mb 0.00 in0.0 mm 0.00 in0.0 mm 0.01 in0.3 mm
10:15 PM 55.3°F12.9°C 51.2°F10.7°C 86% 10.0 mph SE16.1 kmh SE 16.0 mph25.7 kmh 30.15 in1021.0 mb 0.00 in0.0 mm 0.00 in0.0 mm 0.01 in0.3 mm
10:14 PM 55.3°F12.9°C 51.2°F10.7°C 86% 11.2 mph SE18.0 kmh SE 16.0 mph25.7 kmh 30.15 in1021.0 mb 0.00 in0.0 mm 0.00 in0.0 mm 0.01 in0.3 mm
10:13 PM 55.3°F12.9°C 51.2°F10.7°C 86% 10.7 mph SE17.2 kmh SE 16.0 mph25.7 kmh 30.15 in1021.0 mb 0.00 in0.0 mm 0.00 in0.0 mm 0.01 in0.3 mm
10:12 PM 55.3°F12.9°C 51.2°F10.7°C 86% 11.6 mph ESE18.7 kmh ESE 16.0 mph25.7 kmh 30.15 in1021.0 mb 0.00 in0.0 mm 0.00 in0.0 mm 0.01 in0.3 mm
10:11 PM 55.3°F12.9°C 51.2°F10.7°C 86% 9.4 mph SE15.1 kmh SE 12.0 mph19.3 kmh 30.15 in1021.0 mb 0.00 in0.0 mm 0.00 in0.0 mm 0.01 in0.3 mm
10:10 PM 55.3°F12.9°C 51.2°F10.7°C 86% 9.4 mph SE15.1 kmh SE 13.0 mph20.9 kmh 30.15 in1021.0 mb 0.00 in0.0 mm 0.00 in0.0 mm 0.01 in0.3 mm
10:09 PM 55.3°F12.9°C 51.2°F10.7°C 86% 9.3 mph SE15.0 kmh SE 13.0 mph20.9 kmh 30.15 in1021.0 mb 0.00 in0.0 mm 0.00 in0.0 mm 0.01 in0.3 mm
10:08 PM 55.4°F13.0°C 51.3°F10.7°C 86% 9.5 mph SE15.3 kmh SE 13.0 mph20.9 kmh 30.15 in1021.0 mb 0.00 in0.0 mm 0.00 in0.0 mm 0.01 in0.3 mm
10:07 PM 55.3°F12.9°C 51.2°F10.7°C 86% 9.7 mph SE15.6 kmh SE 13.0 mph20.9 kmh 30.15 in1021.0 mb 0.00 in0.0 mm 0.00 in0.0 mm 0.01 in0.3 mm
10:06 PM 55.4°F13.0°C 51.3°F10.7°C 86% 9.0 mph SE14.5 kmh SE 13.0 mph20.9 kmh 30.15 in1021.0 mb 0.00 in0.0 mm 0.00 in0.0 mm 0.01 in0.3 mm
10:05 PM 55.3°F12.9°C 51.2°F10.7°C 86% 9.9 mph SE15.9 kmh SE 13.0 mph20.9 kmh 30.15 in1021.0 mb 0.00 in0.0 mm 0.00 in0.0 mm 0.01 in0.3 mm
10:04 PM 55.4°F13.0°C 51.3°F10.7°C 86% 8.5 mph ESE13.7 kmh ESE 16.0 mph25.7 kmh 30.15 in1021.0 mb 0.00 in0.0 mm 0.00 in0.0 mm 0.01 in0.3 mm
10:03 PM 55.4°F13.0°C 51.3°F10.7°C 86% 10.5 mph SE16.9 kmh SE 16.0 mph25.7 kmh 30.15 in1021.0 mb 0.00 in0.0 mm 0.00 in0.0 mm 0.01 in0.3 mm
10:02 PM 55.4°F13.0°C 51.3°F10.7°C 86% 12.0 mph SE19.3 kmh SE 16.0 mph25.7 kmh 30.15 in1021.0 mb 0.00 in0.0 mm 0.00 in0.0 mm 0.01 in0.3 mm
10:01 PM 55.3°F12.9°C 51.2°F10.7°C 86% 8.9 mph SE14.3 kmh SE 11.0 mph17.7 kmh 30.15 in1021.0 mb 0.00 in0.0 mm 0.00 in0.0 mm 0.01 in0.3 mm
10:00 PM 55.3°F12.9°C 51.2°F10.7°C 86% 8.5 mph SE13.7 kmh SE 12.0 mph19.3 kmh 30.15 in1021.0 mb 0.00 in0.0 mm 0.00 in0.0 mm 0.01 in0.3 mm
09:59 PM 55.4°F13.0°C 51.3°F10.7°C 86% 9.8 mph SE15.8 kmh SE 16.0 mph25.7 kmh 30.15 in1021.0 mb 0.00 in0.0 mm 0.00 in0.0 mm 0.01 in0.3 mm
09:58 PM 55.4°F13.0°C 51.3°F10.7°C 86% 11.1 mph ESE17.9 kmh ESE 16.0 mph25.7 kmh 30.15 in1021.0 mb 0.00 in0.0 mm 0.00 in0.0 mm 0.01 in0.3 mm
09:57 PM 55.4°F13.0°C 51.3°F10.7°C 86% 10.1 mph SE16.3 kmh SE 15.0 mph24.1 kmh 30.15 in1021.0 mb 0.00 in0.0 mm 0.00 in0.0 mm 0.01 in0.3 mm
09:56 PM 55.4°F13.0°C 51.3°F10.7°C 86% 10.4 mph SE16.7 kmh SE 15.0 mph24.1 kmh 30.15 in1021.0 mb 0.00 in0.0 mm 0.00 in0.0 mm 0.01 in0.3 mm
09:55 PM 55.4°F13.0°C 51.3°F10.7°C 86% 7.2 mph SE11.6 kmh SE 11.0 mph17.7 kmh 30.15 in1021.0 mb 0.00 in0.0 mm 0.00 in0.0 mm 0.01 in0.3 mm
09:54 PM 55.5°F13.1°C 51.4°F10.8°C 86% 8.6 mph SE13.8 kmh SE 12.0 mph19.3 kmh 30.15 in1021.0 mb 0.00 in0.0 mm 0.00 in0.0 mm 0.01 in0.3 mm
09:53 PM 55.5°F13.1°C 51.4°F10.8°C 86% 9.5 mph SE15.3 kmh SE 13.0 mph20.9 kmh 30.15 in1021.0 mb 0.00 in0.0 mm 0.00 in0.0 mm 0.01 in0.3 mm
09:52 PM 55.5°F13.1°C 51.4°F10.8°C 86% 11.4 mph ESE18.3 kmh ESE 14.0 mph22.5 kmh 30.15 in1021.0 mb 0.00 in0.0 mm 0.00 in0.0 mm 0.01 in0.3 mm
09:51 PM 55.5°F13.1°C 51.4°F10.8°C 86% 10.5 mph SE16.9 kmh SE 13.0 mph20.9 kmh 30.15 in1021.0 mb 0.00 in0.0 mm 0.00 in0.0 mm 0.01 in0.3 mm
09:50 PM 55.5°F13.1°C 51.4°F10.8°C 86% 9.0 mph SE14.5 kmh SE 12.0 mph19.3 kmh 30.15 in1021.0 mb 0.00 in0.0 mm 0.00 in0.0 mm 0.01 in0.3 mm
09:49 PM 55.5°F13.1°C 51.4°F10.8°C 86% 12.0 mph ESE19.3 kmh ESE 14.0 mph22.5 kmh 30.15 in1021.0 mb 0.00 in0.0 mm 0.00 in0.0 mm 0.01 in0.3 mm
09:48 PM 55.6°F13.1°C 51.5°F10.8°C 86% 9.0 mph ESE14.5 kmh ESE 11.0 mph17.7 kmh 30.15 in1021.0 mb 0.00 in0.0 mm 0.00 in0.0 mm 0.01 in0.3 mm
09:47 PM 55.5°F13.1°C 51.4°F10.8°C 86% 9.2 mph SE14.8 kmh SE 13.0 mph20.9 kmh 30.15 in1021.0 mb 0.00 in0.0 mm 0.00 in0.0 mm 0.01 in0.3 mm
09:46 PM 55.6°F13.1°C 51.5°F10.8°C 86% 10.1 mph SE16.3 kmh SE 13.0 mph20.9 kmh 30.15 in1021.0 mb 0.00 in0.0 mm 0.00 in0.0 mm 0.01 in0.3 mm
09:45 PM 55.6°F13.1°C 51.5°F10.8°C 86% 10.7 mph ESE17.2 kmh ESE 14.0 mph22.5 kmh 30.15 in1021.0 mb 0.00 in0.0 mm 0.00 in0.0 mm 0.01 in0.3 mm
09:44 PM 55.6°F13.1°C 51.5°F10.8°C 86% 10.9 mph SE17.5 kmh SE 14.0 mph22.5 kmh 30.15 in1021.0 mb 0.00 in0.0 mm 0.00 in0.0 mm 0.01 in0.3 mm
09:43 PM 55.6°F13.1°C 51.5°F10.8°C 86% 10.1 mph SE16.3 kmh SE 14.0 mph22.5 kmh 30.15 in1021.0 mb 0.00 in0.0 mm 0.00 in0.0 mm 0.01 in0.3 mm
09:42 PM 55.7°F13.2°C 51.6°F10.9°C 86% 9.4 mph SE15.1 kmh SE 14.0 mph22.5 kmh 30.15 in1021.0 mb 0.00 in0.0 mm 0.00 in0.0 mm 0.01 in0.3 mm
09:41 PM 55.7°F13.2°C 51.6°F10.9°C 86% 7.2 mph SE11.6 kmh SE 11.0 mph17.7 kmh 30.15 in1021.0 mb 0.00 in0.0 mm 0.00 in0.0 mm 0.01 in0.3 mm
09:40 PM 55.7°F13.2°C 51.6°F10.9°C 86% 8.8 mph SE14.2 kmh SE 13.0 mph20.9 kmh 30.15 in1021.0 mb 0.00 in0.0 mm 0.00 in0.0 mm 0.01 in0.3 mm
09:39 PM 55.7°F13.2°C 51.6°F10.9°C 86% 11.0 mph SE17.7 kmh SE 14.0 mph22.5 kmh 30.15 in1021.0 mb 0.00 in0.0 mm 0.00 in0.0 mm 0.01 in0.3 mm
09:38 PM 55.7°F13.2°C 51.6°F10.9°C 86% 11.4 mph SE18.3 kmh SE 14.0 mph22.5 kmh 30.15 in1021.0 mb 0.00 in0.0 mm 0.00 in0.0 mm 0.01 in0.3 mm
09:37 PM 55.7°F13.2°C 51.6°F10.9°C 86% 9.4 mph SE15.1 kmh SE 12.0 mph19.3 kmh 30.15 in1021.0 mb 0.00 in0.0 mm 0.00 in0.0 mm 0.01 in0.3 mm
09:36 PM 55.7°F13.2°C 51.6°F10.9°C 86% 9.3 mph SE15.0 kmh SE 16.0 mph25.7 kmh 30.15 in1021.0 mb 0.00 in0.0 mm 0.00 in0.0 mm 0.01 in0.3 mm
09:35 PM 55.7°F13.2°C 51.6°F10.9°C 86% 10.8 mph ESE17.4 kmh ESE 16.0 mph25.7 kmh 30.15 in1021.0 mb 0.00 in0.0 mm 0.00 in0.0 mm 0.01 in0.3 mm
09:34 PM 55.7°F13.2°C 51.6°F10.9°C 86% 10.5 mph ESE16.9 kmh ESE 16.0 mph25.7 kmh 30.15 in1021.0 mb 0.00 in0.0 mm 0.00 in0.0 mm 0.01 in0.3 mm
09:33 PM 55.7°F13.2°C 51.6°F10.9°C 86% 10.5 mph SE16.9 kmh SE 16.0 mph25.7 kmh 30.15 in1021.0 mb 0.00 in0.0 mm 0.00 in0.0 mm 0.01 in0.3 mm
09:32 PM 55.7°F13.2°C 51.6°F10.9°C 86% 10.2 mph ESE16.4 kmh ESE 14.0 mph22.5 kmh 30.15 in1021.0 mb 0.00 in0.0 mm 0.00 in0.0 mm 0.01 in0.3 mm
09:31 PM 55.7°F13.2°C 51.6°F10.9°C 86% 10.3 mph SE16.6 kmh SE 13.0 mph20.9 kmh 30.15 in1021.0 mb 0.00 in0.0 mm 0.00 in0.0 mm 0.01 in0.3 mm
09:30 PM 55.8°F13.2°C 51.7°F10.9°C 86% 9.5 mph ESE15.3 kmh ESE 16.0 mph25.7 kmh 30.15 in1021.0 mb 0.00 in0.0 mm 0.00 in0.0 mm 0.01 in0.3 mm
09:29 PM 55.8°F13.2°C 51.7°F10.9°C 86% 11.0 mph ESE17.7 kmh ESE 16.0 mph25.7 kmh 30.15 in1021.0 mb 0.00 in0.0 mm 0.00 in0.0 mm 0.01 in0.3 mm
09:28 PM 55.8°F13.2°C 51.7°F10.9°C 86% 11.4 mph SE18.3 kmh SE 14.0 mph22.5 kmh 30.15 in1021.0 mb 0.00 in0.0 mm 0.00 in0.0 mm 0.01 in0.3 mm
09:27 PM 55.8°F13.2°C 51.7°F10.9°C 86% 9.0 mph SE14.5 kmh SE 17.0 mph27.4 kmh 30.15 in1021.0 mb 0.00 in0.0 mm 0.00 in0.0 mm 0.01 in0.3 mm
09:26 PM 55.8°F13.2°C 51.7°F10.9°C 86% 10.5 mph ESE16.9 kmh ESE 17.0 mph27.4 kmh 30.15 in1021.0 mb 0.00 in0.0 mm 0.00 in0.0 mm 0.01 in0.3 mm
09:25 PM 55.9°F13.3°C 51.8°F11.0°C 86% 11.7 mph SE18.8 kmh SE 15.0 mph24.1 kmh 30.15 in1021.0 mb 0.00 in0.0 mm 0.00 in0.0 mm 0.01 in0.3 mm
09:24 PM 55.9°F13.3°C 51.8°F11.0°C 86% 9.3 mph SE15.0 kmh SE 12.0 mph19.3 kmh 30.15 in1021.0 mb 0.00 in0.0 mm 0.00 in0.0 mm 0.01 in0.3 mm
09:23 PM 55.9°F13.3°C 51.8°F11.0°C 86% 8.4 mph SE13.5 kmh SE 16.0 mph25.7 kmh 30.15 in1021.0 mb 0.00 in0.0 mm 0.00 in0.0 mm 0.01 in0.3 mm
09:22 PM 55.9°F13.3°C 51.8°F11.0°C 86% 12.3 mph SE19.8 kmh SE 16.0 mph25.7 kmh 30.15 in1021.0 mb 0.00 in0.0 mm 0.00 in0.0 mm 0.01 in0.3 mm
09:21 PM 55.9°F13.3°C 52.1°F11.2°C 87% 6.6 mph SE10.6 kmh SE 10.0 mph16.1 kmh 30.15 in1021.0 mb 0.00 in0.0 mm 0.00 in0.0 mm 0.01 in0.3 mm
09:20 PM 55.9°F13.3°C 51.8°F11.0°C 86% 8.2 mph ESE13.2 kmh ESE 14.0 mph22.5 kmh 30.15 in1021.0 mb 0.00 in0.0 mm 0.00 in0.0 mm 0.01 in0.3 mm
09:19 PM 55.9°F13.3°C 51.8°F11.0°C 86% 10.8 mph SE17.4 kmh SE 14.0 mph22.5 kmh 30.15 in1021.0 mb 0.00 in0.0 mm 0.00 in0.0 mm 0.01 in0.3 mm
09:18 PM 55.9°F13.3°C 51.8°F11.0°C 86% 9.1 mph SE14.6 kmh SE 12.0 mph19.3 kmh 30.15 in1021.0 mb 0.00 in0.0 mm 0.00 in0.0 mm 0.01 in0.3 mm
09:17 PM 55.9°F13.3°C 51.8°F11.0°C 86% 10.2 mph ESE16.4 kmh ESE 12.0 mph19.3 kmh 30.15 in1021.0 mb 0.00 in0.0 mm 0.00 in0.0 mm 0.01 in0.3 mm
09:16 PM 56.0°F13.3°C 52.2°F11.2°C 87% 10.1 mph SE16.3 kmh SE 14.0 mph22.5 kmh 30.15 in1021.0 mb 0.00 in0.0 mm 0.00 in0.0 mm 0.01 in0.3 mm
09:15 PM 55.9°F13.3°C 52.1°F11.2°C 87% 9.7 mph ESE15.6 kmh ESE 14.0 mph22.5 kmh 30.15 in1021.0 mb 0.00 in0.0 mm 0.00 in0.0 mm 0.01 in0.3 mm
09:14 PM 56.0°F13.3°C 52.2°F11.2°C 87% 9.2 mph ESE14.8 kmh ESE 14.0 mph22.5 kmh 30.15 in1021.0 mb 0.00 in0.0 mm 0.00 in0.0 mm 0.01 in0.3 mm
09:13 PM 56.0°F13.3°C 52.2°F11.2°C 87% 10.2 mph ESE16.4 kmh ESE 14.0 mph22.5 kmh 30.15 in1021.0 mb 0.00 in0.0 mm 0.00 in0.0 mm 0.01 in0.3 mm
09:12 PM 56.0°F13.3°C 52.2°F11.2°C 87% 10.9 mph SE17.5 kmh SE 14.0 mph22.5 kmh 30.15 in1021.0 mb 0.00 in0.0 mm 0.00 in0.0 mm 0.01 in0.3 mm
09:11 PM 56.0°F13.3°C 52.2°F11.2°C 87% 10.5 mph ESE16.9 kmh ESE 14.0 mph22.5 kmh 30.15 in1021.0 mb 0.00 in0.0 mm 0.00 in0.0 mm 0.01 in0.3 mm
09:10 PM 56.0°F13.3°C 52.2°F11.2°C 87% 10.2 mph SE16.4 kmh SE 14.0 mph22.5 kmh 30.15 in1021.0 mb 0.00 in0.0 mm 0.00 in0.0 mm 0.01 in0.3 mm
09:09 PM 56.0°F13.3°C 52.2°F11.2°C 87% 10.7 mph ESE17.2 kmh ESE 14.0 mph22.5 kmh 30.15 in1021.0 mb 0.00 in0.0 mm 0.00 in0.0 mm 0.01 in0.3 mm
09:08 PM 56.0°F13.3°C 52.2°F11.2°C 87% 12.0 mph SE19.3 kmh SE 16.0 mph25.7 kmh 30.15 in1021.0 mb 0.00 in0.0 mm 0.00 in0.0 mm 0.01 in0.3 mm
09:07 PM 56.0°F13.3°C 52.2°F11.2°C 87% 12.5 mph ESE20.1 kmh ESE 16.0 mph25.7 kmh 30.15 in1021.0 mb 0.00 in0.0 mm 0.00 in0.0 mm 0.01 in0.3 mm
09:06 PM 56.0°F13.3°C 52.2°F11.2°C 87% 11.2 mph ESE18.0 kmh ESE 13.0 mph20.9 kmh 30.15 in1021.0 mb 0.00 in0.0 mm 0.00 in0.0 mm 0.01 in0.3 mm
09:05 PM 56.0°F13.3°C 52.2°F11.2°C 87% 8.3 mph ESE13.4 kmh ESE 13.0 mph20.9 kmh 30.15 in1021.0 mb 0.00 in0.0 mm 0.00 in0.0 mm 0.01 in0.3 mm
09:04 PM 56.0°F13.3°C 52.2°F11.2°C 87% 10.6 mph ESE17.1 kmh ESE 15.0 mph24.1 kmh 30.15 in1021.0 mb 0.00 in0.0 mm 0.00 in0.0 mm 0.01 in0.3 mm
09:03 PM 56.0°F13.3°C 52.2°F11.2°C 87% 10.1 mph ESE16.3 kmh ESE 15.0 mph24.1 kmh 30.15 in1021.0 mb 0.00 in0.0 mm 0.00 in0.0 mm 0.01 in0.3 mm
09:02 PM 56.1°F13.4°C 52.3°F11.3°C 87% 10.1 mph ESE16.3 kmh ESE 13.0 mph20.9 kmh 30.15 in1021.0 mb 0.00 in0.0 mm 0.00 in0.0 mm 0.01 in0.3 mm
09:01 PM 56.1°F13.4°C 52.3°F11.3°C 87% 10.8 mph ESE17.4 kmh ESE 13.0 mph20.9 kmh 30.15 in1021.0 mb 0.00 in0.0 mm 0.00 in0.0 mm 0.01 in0.3 mm
09:00 PM 56.1°F13.4°C 52.3°F11.3°C 87% 10.5 mph SE16.9 kmh SE 15.0 mph24.1 kmh 30.15 in1021.0 mb 0.00 in0.0 mm 0.00 in0.0 mm 0.01 in0.3 mm
08:59 PM 56.1°F13.4°C 52.3°F11.3°C 87% 11.2 mph ESE18.0 kmh ESE 15.0 mph24.1 kmh 30.15 in1021.0 mb 0.00 in0.0 mm 0.00 in0.0 mm 0.01 in0.3 mm
08:58 PM 56.1°F13.4°C 52.3°F11.3°C 87% 8.7 mph SE14.0 kmh SE 13.0 mph20.9 kmh 30.15 in1021.0 mb 0.00 in0.0 mm 0.00 in0.0 mm 0.01 in0.3 mm
08:57 PM 56.1°F13.4°C 52.3°F11.3°C 87% 8.7 mph SE14.0 kmh SE 12.0 mph19.3 kmh 30.15 in1021.0 mb 0.00 in0.0 mm 0.00 in0.0 mm 0.01 in0.3 mm
08:56 PM 56.1°F13.4°C 52.3°F11.3°C 87% 9.2 mph SE14.8 kmh SE 11.0 mph17.7 kmh 30.15 in1021.0 mb 0.00 in0.0 mm 0.00 in0.0 mm 0.01 in0.3 mm
08:55 PM 56.1°F13.4°C 52.3°F11.3°C 87% 9.5 mph SE15.3 kmh SE 10.0 mph16.1 kmh 30.15 in1021.0 mb 0.00 in0.0 mm 0.00 in0.0 mm 0.01 in0.3 mm
08:54 PM 56.1°F13.4°C 52.3°F11.3°C 87% 9.0 mph ESE14.5 kmh ESE 12.0 mph19.3 kmh 30.15 in1021.0 mb 0.00 in0.0 mm 0.00 in0.0 mm 0.01 in0.3 mm
08:53 PM 56.2°F13.4°C 52.4°F11.3°C 87% 8.0 mph ESE12.9 kmh ESE 10.0 mph16.1 kmh 30.15 in1021.0 mb 0.00 in0.0 mm 0.00 in0.0 mm 0.01 in0.3 mm
08:52 PM 56.1°F13.4°C 52.3°F11.3°C 87% 11.7 mph ESE18.8 kmh ESE 15.0 mph24.1 kmh 30.15 in1021.0 mb 0.00 in0.0 mm 0.00 in0.0 mm 0.01 in0.3 mm
08:51 PM 56.1°F13.4°C 52.3°F11.3°C 87% 10.0 mph ESE16.1 kmh ESE 15.0 mph24.1 kmh 30.15 in1021.0 mb 0.00 in0.0 mm 0.00 in0.0 mm 0.01 in0.3 mm
08:50 PM 56.1°F13.4°C 52.3°F11.3°C 87% 10.3 mph SE16.6 kmh SE 15.0 mph24.1 kmh 30.15 in1021.0 mb 0.00 in0.0 mm 0.00 in0.0 mm 0.01 in0.3 mm
08:49 PM 56.1°F13.4°C 52.3°F11.3°C 87% 9.4 mph SE15.1 kmh SE 14.0 mph22.5 kmh 30.15 in1021.0 mb 0.00 in0.0 mm 0.00 in0.0 mm 0.01 in0.3 mm
08:48 PM 56.1°F13.4°C 52.3°F11.3°C 87% 10.4 mph SE16.7 kmh SE 14.0 mph22.5 kmh 30.15 in1021.0 mb 0.00 in0.0 mm 0.00 in0.0 mm 0.01 in0.3 mm
08:47 PM 56.1°F13.4°C 52.3°F11.3°C 87% 9.7 mph ESE15.6 kmh ESE 14.0 mph22.5 kmh 30.15 in1021.0 mb 0.00 in0.0 mm 0.00 in0.0 mm 0.01 in0.3 mm
08:46 PM 56.2°F13.4°C 52.4°F11.3°C 87% 7.7 mph ESE12.4 kmh ESE 11.0 mph17.7 kmh 30.15 in1021.0 mb 0.00 in0.0 mm 0.00 in0.0 mm 0.01 in0.3 mm
08:45 PM 56.1°F13.4°C 52.3°F11.3°C 87% 9.2 mph ESE14.8 kmh ESE 13.0 mph20.9 kmh 30.15 in1021.0 mb 0.00 in0.0 mm 0.00 in0.0 mm 0.01 in0.3 mm
08:44 PM 56.1°F13.4°C 52.3°F11.3°C 87% 10.1 mph ESE16.3 kmh ESE 13.0 mph20.9 kmh 30.15 in1021.0 mb 0.00 in0.0 mm 0.00 in0.0 mm 0.01 in0.3 mm
08:43 PM 56.1°F13.4°C 52.3°F11.3°C 87% 11.0 mph ESE17.7 kmh ESE 14.0 mph22.5 kmh 30.15 in1021.0 mb 0.00 in0.0 mm 0.00 in0.0 mm 0.01 in0.3 mm
08:42 PM 56.1°F13.4°C 52.6°F11.4°C 88% 9.0 mph ESE14.5 kmh ESE 12.0 mph19.3 kmh 30.15 in1021.0 mb 0.00 in0.0 mm 0.00 in0.0 mm 0.01 in0.3 mm
08:41 PM 56.1°F13.4°C 52.6°F11.4°C 88% 9.0 mph ESE14.5 kmh ESE 11.0 mph17.7 kmh 30.15 in1021.0 mb 0.00 in0.0 mm 0.00 in0.0 mm 0.01 in0.3 mm
08:40 PM 56.1°F13.4°C 52.3°F11.3°C 87% 9.3 mph ESE15.0 kmh ESE 14.0 mph22.5 kmh 30.15 in1021.0 mb 0.00 in0.0 mm 0.00 in0.0 mm 0.01 in0.3 mm
08:39 PM 56.1°F13.4°C 52.6°F11.4°C 88% 11.1 mph ESE17.9 kmh ESE 16.0 mph25.7 kmh 30.15 in1021.0 mb 0.00 in0.0 mm 0.00 in0.0 mm 0.01 in0.3 mm
08:38 PM 56.1°F13.4°C 52.6°F11.4°C 88% 11.4 mph ESE18.3 kmh ESE 16.0 mph25.7 kmh 30.15 in1021.0 mb 0.00 in0.0 mm 0.00 in0.0 mm 0.01 in0.3 mm
08:37 PM 56.1°F13.4°C 52.6°F11.4°C 88% 10.3 mph ESE16.6 kmh ESE 15.0 mph24.1 kmh 30.15 in1021.0 mb 0.00 in0.0 mm 0.00 in0.0 mm 0.01 in0.3 mm
08:36 PM 56.1°F13.4°C 52.6°F11.4°C 88% 10.1 mph ESE16.3 kmh ESE 15.0 mph24.1 kmh 30.15 in1021.0 mb 0.00 in0.0 mm 0.00 in0.0 mm 0.01 in0.3 mm
08:35 PM 56.1°F13.4°C 52.6°F11.4°C 88% 10.0 mph ESE16.1 kmh ESE 14.0 mph22.5 kmh 30.15 in1021.0 mb 0.00 in0.0 mm 0.00 in0.0 mm 0.01 in0.3 mm
08:34 PM 56.1°F13.4°C 52.6°F11.4°C 88% 8.9 mph ESE14.3 kmh ESE 11.0 mph17.7 kmh 30.15 in1021.0 mb 0.00 in0.0 mm 0.00 in0.0 mm 0.01 in0.3 mm
08:33 PM 56.1°F13.4°C 52.6°F11.4°C 88% 11.0 mph ESE17.7 kmh ESE 11.0 mph17.7 kmh 30.15 in1021.0 mb 0.00 in0.0 mm 0.00 in0.0 mm 0.01 in0.3 mm
08:32 PM 56.1°F13.4°C 52.3°F11.3°C 87% 10.0 mph ESE16.1 kmh ESE 12.0 mph19.3 kmh 30.15 in1021.0 mb 0.00 in0.0 mm 0.00 in0.0 mm 0.01 in0.3 mm
08:31 PM 56.1°F13.4°C 52.3°F11.3°C 87% 10.0 mph ESE16.1 kmh ESE 13.0 mph20.9 kmh 30.15 in1021.0 mb 0.00 in0.0 mm 0.00 in0.0 mm 0.01 in0.3 mm
08:30 PM 56.1°F13.4°C 52.6°F11.4°C 88% 10.1 mph ESE16.3 kmh ESE 14.0 mph22.5 kmh 30.15 in1021.0 mb 0.00 in0.0 mm 0.00 in0.0 mm 0.01 in0.3 mm
08:29 PM 56.1°F13.4°C 52.6°F11.4°C 88% 10.1 mph SE16.3 kmh SE 14.0 mph22.5 kmh 30.15 in1021.0 mb 0.00 in0.0 mm 0.00 in0.0 mm 0.01 in0.3 mm
08:28 PM 56.1°F13.4°C 52.6°F11.4°C 88% 8.5 mph ESE13.7 kmh ESE 13.0 mph20.9 kmh 30.15 in1021.0 mb 0.00 in0.0 mm 0.00 in0.0 mm 0.01 in0.3 mm
08:27 PM 56.1°F13.4°C 52.6°F11.4°C 88% 9.1 mph ESE14.6 kmh ESE 14.0 mph22.5 kmh 30.14 in1020.7 mb 0.00 in0.0 mm 0.00 in0.0 mm 0.01 in0.3 mm
08:26 PM 56.1°F13.4°C 52.6°F11.4°C 88% 11.0 mph SE17.7 kmh SE 15.0 mph24.1 kmh 30.14 in1020.7 mb 0.00 in0.0 mm 0.00 in0.0 mm 0.01 in0.3 mm
08:25 PM 56.1°F13.4°C 52.6°F11.4°C 88% 11.1 mph ESE17.9 kmh ESE 16.0 mph25.7 kmh 30.15 in1021.0 mb 0.00 in0.0 mm 0.00 in0.0 mm 0.01 in0.3 mm
08:24 PM 56.1°F13.4°C 52.6°F11.4°C 88% 12.1 mph ESE19.5 kmh ESE 16.0 mph25.7 kmh 30.14 in1020.7 mb 0.00 in0.0 mm 0.00 in0.0 mm 0.01 in0.3 mm
08:23 PM 56.1°F13.4°C 52.6°F11.4°C 88% 12.2 mph ESE19.6 kmh ESE 16.0 mph25.7 kmh 30.14 in1020.7 mb 0.00 in0.0 mm 0.00 in0.0 mm 0.01 in0.3 mm
08:22 PM 56.0°F13.3°C 52.5°F11.4°C 88% 9.7 mph ESE15.6 kmh ESE 13.0 mph20.9 kmh 30.14 in1020.7 mb 0.00 in0.0 mm 0.00 in0.0 mm 0.01 in0.3 mm
08:21 PM 56.0°F13.3°C 52.5°F11.4°C 88% 9.2 mph ESE14.8 kmh ESE 12.0 mph19.3 kmh 30.14 in1020.7 mb 0.00 in0.0 mm 0.00 in0.0 mm 0.01 in0.3 mm
08:20 PM 56.0°F13.3°C 52.5°F11.4°C 88% 10.2 mph ESE16.4 kmh ESE 13.0 mph20.9 kmh 30.14 in1020.7 mb 0.00 in0.0 mm 0.00 in0.0 mm 0.01 in0.3 mm
08:19 PM 56.0°F13.3°C 52.5°F11.4°C 88% 11.1 mph ESE17.9 kmh ESE 13.0 mph20.9 kmh 30.14 in1020.7 mb 0.00 in0.0 mm 0.00 in0.0 mm 0.01 in0.3 mm
08:18 PM 56.0°F13.3°C 52.5°F11.4°C 88% 8.6 mph ESE13.8 kmh ESE 11.0 mph17.7 kmh 30.14 in1020.7 mb 0.00 in0.0 mm 0.00 in0.0 mm 0.01 in0.3 mm
08:17 PM 56.0°F13.3°C 52.5°F11.4°C 88% 10.0 mph ESE16.1 kmh ESE 14.0 mph22.5 kmh 30.14 in1020.7 mb 0.00 in0.0 mm 0.00 in0.0 mm 0.01 in0.3 mm
08:16 PM 56.0°F13.3°C 52.5°F11.4°C 88% 12.0 mph ESE19.3 kmh ESE 18.0 mph29.0 kmh 30.14 in1020.7 mb 0.00 in0.0 mm 0.00 in0.0 mm 0.01 in0.3 mm
08:15 PM 56.0°F13.3°C 52.5°F11.4°C 88% 9.8 mph ESE15.8 kmh ESE 13.0 mph20.9 kmh 30.14 in1020.7 mb 0.00 in0.0 mm 0.00 in0.0 mm 0.01 in0.3 mm
08:14 PM 56.0°F13.3°C 52.5°F11.4°C 88% 10.2 mph ESE16.4 kmh ESE 13.0 mph20.9 kmh 30.14 in1020.7 mb 0.00 in0.0 mm 0.00 in0.0 mm 0.01 in0.3 mm
08:13 PM 56.0°F13.3°C 52.5°F11.4°C 88% 9.5 mph ESE15.3 kmh ESE 15.0 mph24.1 kmh 30.14 in1020.7 mb 0.00 in0.0 mm 0.00 in0.0 mm 0.01 in0.3 mm
08:12 PM 56.0°F13.3°C 52.5°F11.4°C 88% 11.5 mph ESE18.5 kmh ESE 16.0 mph25.7 kmh 30.14 in1020.7 mb 0.00 in0.0 mm 0.00 in0.0 mm 0.01 in0.3 mm
08:11 PM 55.9°F13.3°C 52.4°F11.3°C 88% 12.0 mph ESE19.3 kmh ESE 16.0 mph25.7 kmh 30.14 in1020.7 mb 0.00 in0.0 mm 0.00 in0.0 mm 0.01 in0.3 mm
08:10 PM 56.0°F13.3°C 52.5°F11.4°C 88% 10.3 mph ESE16.6 kmh ESE 15.0 mph24.1 kmh 30.14 in1020.7 mb 0.00 in0.0 mm 0.00 in0.0 mm 0.01 in0.3 mm
08:09 PM 56.0°F13.3°C 52.5°F11.4°C 88% 9.7 mph ESE15.6 kmh ESE 14.0 mph22.5 kmh 30.14 in1020.7 mb 0.00 in0.0 mm 0.00 in0.0 mm 0.01 in0.3 mm
08:08 PM 56.0°F13.3°C 52.5°F11.4°C 88% 11.8 mph ESE19.0 kmh ESE 15.0 mph24.1 kmh 30.14 in1020.7 mb 0.00 in0.0 mm 0.00 in0.0 mm 0.01 in0.3 mm
08:07 PM 55.9°F13.3°C 52.4°F11.3°C 88% 11.6 mph ESE18.7 kmh ESE 15.0 mph24.1 kmh 30.14 in1020.7 mb 0.00 in0.0 mm 0.00 in0.0 mm 0.01 in0.3 mm
08:06 PM 56.0°F13.3°C 52.5°F11.4°C 88% 11.2 mph ESE18.0 kmh ESE 17.0 mph27.4 kmh 30.14 in1020.7 mb 0.00 in0.0 mm 0.00 in0.0 mm 0.01 in0.3 mm
08:05 PM 55.9°F13.3°C 52.4°F11.3°C 88% 12.1 mph ESE19.5 kmh ESE 17.0 mph27.4 kmh 30.14 in1020.7 mb 0.00 in0.0 mm 0.00 in0.0 mm 0.01 in0.3 mm
08:04 PM 55.9°F13.3°C 52.4°F11.3°C 88% 9.4 mph ESE15.1 kmh ESE 13.0 mph20.9 kmh 30.14 in1020.7 mb 0.00 in0.0 mm 0.00 in0.0 mm 0.01 in0.3 mm
08:03 PM 55.9°F13.3°C 52.4°F11.3°C 88% 10.5 mph ESE16.9 kmh ESE 14.0 mph22.5 kmh 30.14 in1020.7 mb 0.00 in0.0 mm 0.00 in0.0 mm 0.01 in0.3 mm
08:02 PM 55.9°F13.3°C 52.4°F11.3°C 88% 10.5 mph ESE16.9 kmh ESE 14.0 mph22.5 kmh 30.14 in1020.7 mb 0.00 in0.0 mm 0.00 in0.0 mm 0.01 in0.3 mm
08:01 PM 55.9°F13.3°C 52.4°F11.3°C 88% 9.0 mph SE14.5 kmh SE 10.0 mph16.1 kmh 30.14 in1020.7 mb 0.00 in0.0 mm 0.00 in0.0 mm 0.01 in0.3 mm
08:00 PM 55.9°F13.3°C 52.4°F11.3°C 88% 11.0 mph ESE17.7 kmh ESE 13.0 mph20.9 kmh 30.14 in1020.7 mb 0.00 in0.0 mm 0.00 in0.0 mm 0.01 in0.3 mm
07:59 PM 55.9°F13.3°C 52.4°F11.3°C 88% 9.0 mph ESE14.5 kmh ESE 13.0 mph20.9 kmh 30.14 in1020.7 mb 0.00 in0.0 mm 0.00 in0.0 mm 0.01 in0.3 mm
07:58 PM 55.9°F13.3°C 52.4°F11.3°C 88% 10.3 mph ESE16.6 kmh ESE 13.0 mph20.9 kmh 30.14 in1020.7 mb 0.00 in0.0 mm 0.00 in0.0 mm 0.01 in0.3 mm
07:57 PM 55.9°F13.3°C 52.4°F11.3°C 88% 9.4 mph ESE15.1 kmh ESE 15.0 mph24.1 kmh 30.14 in1020.7 mb 0.00 in0.0 mm 0.00 in0.0 mm 0.01 in0.3 mm
07:56 PM 55.9°F13.3°C 52.4°F11.3°C 88% 11.1 mph ESE17.9 kmh ESE 18.0 mph29.0 kmh 30.14 in1020.7 mb 0.00 in0.0 mm 0.00 in0.0 mm 0.01 in0.3 mm
07:55 PM 55.9°F13.3°C 52.4°F11.3°C 88% 12.0 mph ESE19.3 kmh ESE 18.0 mph29.0 kmh 30.14 in1020.7 mb 0.00 in0.0 mm 0.00 in0.0 mm 0.01 in0.3 mm
07:54 PM 55.9°F13.3°C 52.4°F11.3°C 88% 10.0 mph ESE16.1 kmh ESE 14.0 mph22.5 kmh 30.14 in1020.7 mb 0.00 in0.0 mm 0.00 in0.0 mm 0.01 in0.3 mm
07:53 PM 55.9°F13.3°C 52.4°F11.3°C 88% 9.6 mph ESE15.4 kmh ESE 13.0 mph20.9 kmh 30.14 in1020.7 mb 0.00 in0.0 mm 0.00 in0.0 mm 0.01 in0.3 mm
07:52 PM 55.9°F13.3°C 52.4°F11.3°C 88% 10.3 mph ESE16.6 kmh ESE 15.0 mph24.1 kmh 30.14 in1020.7 mb 0.00 in0.0 mm 0.00 in0.0 mm 0.01 in0.3 mm
07:51 PM 55.9°F13.3°C 52.4°F11.3°C 88% 12.4 mph ESE20.0 kmh ESE 15.0 mph24.1 kmh 30.14 in1020.7 mb 0.00 in0.0 mm 0.00 in0.0 mm 0.01 in0.3 mm
07:50 PM 55.9°F13.3°C 52.4°F11.3°C 88% 9.9 mph ESE15.9 kmh ESE 14.0 mph22.5 kmh 30.14 in1020.7 mb 0.00 in0.0 mm 0.00 in0.0 mm 0.01 in0.3 mm
07:49 PM 55.9°F13.3°C 52.4°F11.3°C 88% 9.8 mph ESE15.8 kmh ESE 16.0 mph25.7 kmh 30.14 in1020.7 mb 0.00 in0.0 mm 0.00 in0.0 mm 0.01 in0.3 mm
07:48 PM 55.9°F13.3°C 52.4°F11.3°C 88% 12.8 mph ESE20.6 kmh ESE 16.0 mph25.7 kmh 30.14 in1020.7 mb 0.00 in0.0 mm 0.00 in0.0 mm 0.01 in0.3 mm
07:47 PM 55.9°F13.3°C 52.4°F11.3°C 88% 10.9 mph ESE17.5 kmh ESE 15.0 mph24.1 kmh 30.14 in1020.7 mb 0.00 in0.0 mm 0.00 in0.0 mm 0.01 in0.3 mm
07:46 PM 55.9°F13.3°C 52.4°F11.3°C 88% 10.8 mph ESE17.4 kmh ESE 15.0 mph24.1 kmh 30.14 in1020.7 mb 0.00 in0.0 mm 0.00 in0.0 mm 0.01 in0.3 mm
07:45 PM 55.9°F13.3°C 52.4°F11.3°C 88% 10.1 mph ESE16.3 kmh ESE 15.0 mph24.1 kmh 30.14 in1020.7 mb 0.00 in0.0 mm 0.00 in0.0 mm 0.01 in0.3 mm
07:44 PM 55.8°F13.2°C 52.3°F11.3°C 88% 8.7 mph ESE14.0 kmh ESE 13.0 mph20.9 kmh 30.14 in1020.7 mb 0.00 in0.0 mm 0.00 in0.0 mm 0.01 in0.3 mm
07:43 PM 55.9°F13.3°C 52.4°F11.3°C 88% 11.0 mph ESE17.7 kmh ESE 16.0 mph25.7 kmh 30.14 in1020.7 mb 0.00 in0.0 mm 0.00 in0.0 mm 0.01 in0.3 mm
07:42 PM 55.9°F13.3°C 52.4°F11.3°C 88% 13.0 mph ESE20.9 kmh ESE 17.0 mph27.4 kmh 30.14 in1020.7 mb 0.00 in0.0 mm 0.00 in0.0 mm 0.01 in0.3 mm
07:41 PM 55.8°F13.2°C 52.3°F11.3°C 88% 10.0 mph ESE16.1 kmh ESE 13.0 mph20.9 kmh 30.14 in1020.7 mb 0.00 in0.0 mm 0.00 in0.0 mm 0.01 in0.3 mm
07:40 PM 55.8°F13.2°C 52.3°F11.3°C 88% 11.0 mph ESE17.7 kmh ESE 15.0 mph24.1 kmh 30.14 in1020.7 mb 0.00 in0.0 mm 0.00 in0.0 mm 0.01 in0.3 mm
07:39 PM 55.8°F13.2°C 52.3°F11.3°C 88% 8.5 mph ESE13.7 kmh ESE 16.0 mph25.7 kmh 30.14 in1020.7 mb 0.00 in0.0 mm 0.00 in0.0 mm 0.01 in0.3 mm
07:38 PM 55.9°F13.3°C 52.4°F11.3°C 88% 11.4 mph ESE18.3 kmh ESE 16.0 mph25.7 kmh 30.13 in1020.3 mb 0.00 in0.0 mm 0.00 in0.0 mm 0.01 in0.3 mm
07:37 PM 55.8°F13.2°C 52.3°F11.3°C 88% 9.2 mph ESE14.8 kmh ESE 12.0 mph19.3 kmh 30.13 in1020.3 mb 0.00 in0.0 mm 0.00 in0.0 mm 0.01 in0.3 mm
07:36 PM 55.8°F13.2°C 52.3°F11.3°C 88% 8.9 mph ESE14.3 kmh ESE 14.0 mph22.5 kmh 30.13 in1020.3 mb 0.00 in0.0 mm 0.00 in0.0 mm 0.01 in0.3 mm
07:35 PM 55.8°F13.2°C 52.3°F11.3°C 88% 8.8 mph ESE14.2 kmh ESE 14.0 mph22.5 kmh 30.13 in1020.3 mb 0.00 in0.0 mm 0.00 in0.0 mm 0.01 in0.3 mm
07:34 PM 55.8°F13.2°C 52.3°F11.3°C 88% 8.0 mph ESE12.9 kmh ESE 10.0 mph16.1 kmh 30.13 in1020.3 mb 0.00 in0.0 mm 0.00 in0.0 mm 0.01 in0.3 mm
07:33 PM 55.9°F13.3°C 52.4°F11.3°C 88% 8.5 mph ESE13.7 kmh ESE 10.0 mph16.1 kmh 30.13 in1020.3 mb 0.00 in0.0 mm 0.00 in0.0 mm 0.01 in0.3 mm
07:32 PM 55.9°F13.3°C 52.4°F11.3°C 88% 9.0 mph ESE14.5 kmh ESE 13.0 mph20.9 kmh 30.13 in1020.3 mb 0.00 in0.0 mm 0.00 in0.0 mm 0.01 in0.3 mm
07:31 PM 55.9°F13.3°C 52.4°F11.3°C 88% 10.0 mph ESE16.1 kmh ESE 17.0 mph27.4 kmh 30.13 in1020.3 mb 0.00 in0.0 mm 0.00 in0.0 mm 0.01 in0.3 mm
07:30 PM 55.8°F13.2°C 52.3°F11.3°C 88% 9.4 mph ESE15.1 kmh ESE 14.0 mph22.5 kmh 30.13 in1020.3 mb 0.00 in0.0 mm 0.00 in0.0 mm 0.01 in0.3 mm
07:29 PM 55.9°F13.3°C 52.4°F11.3°C 88% 10.1 mph ESE16.3 kmh ESE 14.0 mph22.5 kmh 30.13 in1020.3 mb 0.00 in0.0 mm 0.00 in0.0 mm 0.01 in0.3 mm
07:28 PM 55.9°F13.3°C 52.4°F11.3°C 88% 8.5 mph ESE13.7 kmh ESE 17.0 mph27.4 kmh 30.13 in1020.3 mb 0.00 in0.0 mm 0.00 in0.0 mm 0.01 in0.3 mm
07:27 PM 55.9°F13.3°C 52.4°F11.3°C 88% 10.5 mph ESE16.9 kmh ESE 17.0 mph27.4 kmh 30.13 in1020.3 mb 0.00 in0.0 mm 0.00 in0.0 mm 0.01 in0.3 mm
07:26 PM 55.9°F13.3°C 52.4°F11.3°C 88% 9.2 mph ESE14.8 kmh ESE 16.0 mph25.7 kmh 30.13 in1020.3 mb 0.00 in0.0 mm 0.00 in0.0 mm 0.01 in0.3 mm
07:25 PM 55.9°F13.3°C 52.4°F11.3°C 88% 10.7 mph E17.2 kmh E 16.0 mph25.7 kmh 30.13 in1020.3 mb 0.00 in0.0 mm 0.00 in0.0 mm 0.01 in0.3 mm
07:24 PM 55.9°F13.3°C 52.4°F11.3°C 88% 11.0 mph ESE17.7 kmh ESE 17.0 mph27.4 kmh 30.13 in1020.3 mb 0.00 in0.0 mm 0.00 in0.0 mm 0.01 in0.3 mm
07:23 PM 55.9°F13.3°C 52.4°F11.3°C 88% 10.0 mph ESE16.1 kmh ESE 12.0 mph19.3 kmh 30.13 in1020.3 mb 0.00 in0.0 mm 0.00 in0.0 mm 0.01 in0.3 mm
07:22 PM 55.9°F13.3°C 52.4°F11.3°C 88% 11.0 mph ESE17.7 kmh ESE 16.0 mph25.7 kmh 30.13 in1020.3 mb 0.00 in0.0 mm 0.00 in0.0 mm 0.01 in0.3 mm
07:21 PM 55.9°F13.3°C 52.4°F11.3°C 88% 9.9 mph ESE15.9 kmh ESE 13.0 mph20.9 kmh 30.13 in1020.3 mb 0.00 in0.0 mm 0.00 in0.0 mm 0.01 in0.3 mm
07:20 PM 55.9°F13.3°C 52.4°F11.3°C 88% 9.0 mph ESE14.5 kmh ESE 13.0 mph20.9 kmh 30.13 in1020.3 mb 0.00 in0.0 mm 0.00 in0.0 mm 0.01 in0.3 mm
07:19 PM 55.9°F13.3°C 52.4°F11.3°C 88% 6.8 mph ESE10.9 kmh ESE 8.0 mph12.9 kmh 30.13 in1020.3 mb 0.00 in0.0 mm 0.00 in0.0 mm 0.01 in0.3 mm
07:18 PM 55.9°F13.3°C 52.4°F11.3°C 88% 12.0 mph ESE19.3 kmh ESE 16.0 mph25.7 kmh 30.13 in1020.3 mb 0.00 in0.0 mm 0.00 in0.0 mm 0.01 in0.3 mm
07:17 PM 55.9°F13.3°C 52.4°F11.3°C 88% 8.0 mph E12.9 kmh E 12.0 mph19.3 kmh 30.13 in1020.3 mb 0.00 in0.0 mm 0.00 in0.0 mm 0.01 in0.3 mm
07:16 PM 55.9°F13.3°C 52.4°F11.3°C 88% 10.6 mph E17.1 kmh E 15.0 mph24.1 kmh 30.13 in1020.3 mb 0.00 in0.0 mm 0.00 in0.0 mm 0.01 in0.3 mm
07:15 PM 55.9°F13.3°C 52.4°F11.3°C 88% 8.7 mph ESE14.0 kmh ESE 11.0 mph17.7 kmh 30.13 in1020.3 mb 0.00 in0.0 mm 0.00 in0.0 mm 0.01 in0.3 mm
07:14 PM 55.9°F13.3°C 52.4°F11.3°C 88% 9.1 mph ESE14.6 kmh ESE 15.0 mph24.1 kmh 30.13 in1020.3 mb 0.00 in0.0 mm 0.00 in0.0 mm 0.01 in0.3 mm
07:13 PM 55.9°F13.3°C 52.4°F11.3°C 88% 9.7 mph E15.6 kmh E 15.0 mph24.1 kmh 30.13 in1020.3 mb 0.00 in0.0 mm 0.00 in0.0 mm 0.01 in0.3 mm
07:12 PM 55.9°F13.3°C 52.4°F11.3°C 88% 8.9 mph E14.3 kmh E 11.0 mph17.7 kmh 30.13 in1020.3 mb 0.00 in0.0 mm 0.00 in0.0 mm 0.01 in0.3 mm
07:11 PM 56.0°F13.3°C 52.5°F11.4°C 88% 14.0 mph E22.5 kmh E 18.0 mph29.0 kmh 30.13 in1020.3 mb 0.00 in0.0 mm 0.00 in0.0 mm 0.01 in0.3 mm
07:10 PM 56.0°F13.3°C 52.5°F11.4°C 88% 10.0 mph ESE16.1 kmh ESE 16.0 mph25.7 kmh 30.13 in1020.3 mb 0.00 in0.0 mm 0.00 in0.0 mm 0.01 in0.3 mm
07:09 PM 56.0°F13.3°C 52.5°F11.4°C 88% 9.6 mph E15.4 kmh E 13.0 mph20.9 kmh 30.13 in1020.3 mb 0.00 in0.0 mm 0.00 in0.0 mm 0.01 in0.3 mm
07:08 PM 56.0°F13.3°C 52.5°F11.4°C 88% 9.0 mph ESE14.5 kmh ESE 15.0 mph24.1 kmh 30.13 in1020.3 mb 0.00 in0.0 mm 0.00 in0.0 mm 0.01 in0.3 mm
07:07 PM 56.0°F13.3°C 52.5°F11.4°C 88% 11.8 mph E19.0 kmh E 15.0 mph24.1 kmh 30.13 in1020.3 mb 0.00 in0.0 mm 0.00 in0.0 mm 0.01 in0.3 mm
07:06 PM 56.0°F13.3°C 52.5°F11.4°C 88% 12.1 mph E19.5 kmh E 15.0 mph24.1 kmh 30.13 in1020.3 mb 0.00 in0.0 mm 0.00 in0.0 mm 0.01 in0.3 mm
07:05 PM 56.0°F13.3°C 52.5°F11.4°C 88% 10.3 mph ESE16.6 kmh ESE 16.0 mph25.7 kmh 30.13 in1020.3 mb 0.00 in0.0 mm 0.00 in0.0 mm 0.01 in0.3 mm
07:04 PM 56.0°F13.3°C 52.5°F11.4°C 88% 12.2 mph E19.6 kmh E 16.0 mph25.7 kmh 30.13 in1020.3 mb 0.00 in0.0 mm 0.00 in0.0 mm 0.01 in0.3 mm
07:03 PM 56.0°F13.3°C 52.5°F11.4°C 88% 10.6 mph E17.1 kmh E 16.0 mph25.7 kmh 30.13 in1020.3 mb 0.00 in0.0 mm 0.00 in0.0 mm 0.01 in0.3 mm
07:02 PM 56.0°F13.3°C 52.5°F11.4°C 88% 11.0 mph E17.7 kmh E 15.0 mph24.1 kmh 30.12 in1020.0 mb 0.00 in0.0 mm 0.00 in0.0 mm 0.01 in0.3 mm
07:01 PM 56.0°F13.3°C 52.5°F11.4°C 88% 14.0 mph ESE22.5 kmh ESE 18.0 mph29.0 kmh 30.12 in1020.0 mb 0.00 in0.0 mm 0.00 in0.0 mm 0.01 in0.3 mm
07:00 PM 56.0°F13.3°C 52.5°F11.4°C 88% 11.0 mph E17.7 kmh E 16.0 mph25.7 kmh 30.12 in1020.0 mb 0.00 in0.0 mm 0.00 in0.0 mm 0.01 in0.3 mm
06:59 PM 56.1°F13.4°C 52.6°F11.4°C 88% 11.7 mph E18.8 kmh E 18.0 mph29.0 kmh 30.12 in1020.0 mb 0.00 in0.0 mm 0.00 in0.0 mm 0.01 in0.3 mm
06:58 PM 56.0°F13.3°C 52.5°F11.4°C 88% 12.3 mph ESE19.8 kmh ESE 18.0 mph29.0 kmh 30.12 in1020.0 mb 0.00 in0.0 mm 0.00 in0.0 mm 0.01 in0.3 mm
06:57 PM 56.1°F13.4°C 52.6°F11.4°C 88% 11.1 mph ESE17.9 kmh ESE 15.0 mph24.1 kmh 30.12 in1020.0 mb 0.00 in0.0 mm 0.00 in0.0 mm 0.01 in0.3 mm
06:56 PM 56.2°F13.4°C 52.7°F11.5°C 88% 9.5 mph E15.3 kmh E 15.0 mph24.1 kmh 30.12 in1020.0 mb 0.00 in0.0 mm 0.00 in0.0 mm 0.01 in0.3 mm
06:55 PM 56.2°F13.4°C 52.7°F11.5°C 88% 10.9 mph E17.5 kmh E 15.0 mph24.1 kmh 30.12 in1020.0 mb 0.00 in0.0 mm 0.00 in0.0 mm 0.01 in0.3 mm
06:54 PM 56.2°F13.4°C 52.7°F11.5°C 88% 10.5 mph E16.9 kmh E 16.0 mph25.7 kmh 30.12 in1020.0 mb 0.00 in0.0 mm 0.00 in0.0 mm 0.01 in0.3 mm
06:53 PM 56.3°F13.5°C 52.8°F11.6°C 88% 12.0 mph E19.3 kmh E 16.0 mph25.7 kmh 30.12 in1020.0 mb 0.00 in0.0 mm 0.00 in0.0 mm 0.01 in0.3 mm
06:52 PM 56.3°F13.5°C 52.8°F11.6°C 88% 9.4 mph E15.1 kmh E 12.0 mph19.3 kmh 30.12 in1020.0 mb 0.00 in0.0 mm 0.00 in0.0 mm 0.01 in0.3 mm
06:51 PM 56.3°F13.5°C 52.8°F11.6°C 88% 8.0 mph ESE12.9 kmh ESE 12.0 mph19.3 kmh 30.12 in1020.0 mb 0.00 in0.0 mm 0.00 in0.0 mm 0.01 in0.3 mm
06:50 PM 56.3°F13.5°C 52.8°F11.6°C 88% 9.0 mph ESE14.5 kmh ESE 12.0 mph19.3 kmh 30.12 in1020.0 mb 0.00 in0.0 mm 0.00 in0.0 mm 0.01 in0.3 mm
06:49 PM 56.4°F13.6°C 52.9°F11.6°C 88% 10.6 mph E17.1 kmh E 14.0 mph22.5 kmh 30.12 in1020.0 mb 0.00 in0.0 mm 0.00 in0.0 mm 0.01 in0.3 mm
06:48 PM 56.4°F13.6°C 52.9°F11.6°C 88% 9.3 mph E15.0 kmh E 16.0 mph25.7 kmh 30.12 in1020.0 mb 0.00 in0.0 mm 0.00 in0.0 mm 0.01 in0.3 mm
06:47 PM 56.5°F13.6°C 53.0°F11.7°C 88% 10.7 mph ESE17.2 kmh ESE 16.0 mph25.7 kmh 30.12 in1020.0 mb 0.00 in0.0 mm 0.00 in0.0 mm 0.01 in0.3 mm
06:46 PM 56.5°F13.6°C 53.0°F11.7°C 88% 11.7 mph E18.8 kmh E 15.0 mph24.1 kmh 30.12 in1020.0 mb 0.00 in0.0 mm 0.00 in0.0 mm 0.01 in0.3 mm
06:45 PM 56.5°F13.6°C 53.0°F11.7°C 88% 9.1 mph E14.6 kmh E 15.0 mph24.1 kmh 30.12 in1020.0 mb 0.00 in0.0 mm 0.00 in0.0 mm 0.01 in0.3 mm
06:44 PM 56.5°F13.6°C 53.0°F11.7°C 88% 11.1 mph E17.9 kmh E 14.0 mph22.5 kmh 30.12 in1020.0 mb 0.00 in0.0 mm 0.00 in0.0 mm 0.01 in0.3 mm
06:43 PM 56.6°F13.7°C 53.1°F11.7°C 88% 9.9 mph E15.9 kmh E 15.0 mph24.1 kmh 30.12 in1020.0 mb 0.00 in0.0 mm 0.00 in0.0 mm 0.01 in0.3 mm
06:42 PM 56.6°F13.7°C 53.1°F11.7°C 88% 11.3 mph E18.2 kmh E 15.0 mph24.1 kmh 30.12 in1020.0 mb 0.00 in0.0 mm 0.00 in0.0 mm 0.01 in0.3 mm
06:41 PM 56.6°F13.7°C 53.1°F11.7°C 88% 10.2 mph E16.4 kmh E 12.0 mph19.3 kmh 30.12 in1020.0 mb 0.00 in0.0 mm 0.00 in0.0 mm 0.01 in0.3 mm
06:40 PM 56.7°F13.7°C 53.2°F11.8°C 88% 10.0 mph E16.1 kmh E 14.0 mph22.5 kmh 30.12 in1020.0 mb 0.00 in0.0 mm 0.00 in0.0 mm 0.01 in0.3 mm
06:39 PM 56.7°F13.7°C 53.2°F11.8°C 88% 11.0 mph ESE17.7 kmh ESE 14.0 mph22.5 kmh 30.12 in1020.0 mb 0.00 in0.0 mm 0.00 in0.0 mm 0.01 in0.3 mm
06:38 PM 56.8°F13.8°C 53.0°F11.7°C 87% 9.9 mph E15.9 kmh E 14.0 mph22.5 kmh 30.12 in1020.0 mb 0.00 in0.0 mm 0.00 in0.0 mm 0.01 in0.3 mm
06:37 PM 56.8°F13.8°C 53.0°F11.7°C 87% 10.0 mph E16.1 kmh E 14.0 mph22.5 kmh 30.12 in1020.0 mb 0.00 in0.0 mm 0.00 in0.0 mm 0.01 in0.3 mm
06:36 PM 56.9°F13.8°C 53.1°F11.7°C 87% 7.9 mph E12.7 kmh E 11.0 mph17.7 kmh 30.12 in1020.0 mb 0.00 in0.0 mm 0.00 in0.0 mm 0.01 in0.3 mm
06:35 PM 56.9°F13.8°C 53.1°F11.7°C 87% 8.9 mph E14.3 kmh E 14.0 mph22.5 kmh 30.12 in1020.0 mb 0.00 in0.0 mm 0.00 in0.0 mm 0.01 in0.3 mm
06:34 PM 56.9°F13.8°C 53.1°F11.7°C 87% 10.8 mph E17.4 kmh E 14.0 mph22.5 kmh 30.12 in1020.0 mb 0.00 in0.0 mm 0.00 in0.0 mm 0.01 in0.3 mm
06:33 PM 57.0°F13.9°C 53.2°F11.8°C 87% 9.1 mph E14.6 kmh E 13.0 mph20.9 kmh 30.12 in1020.0 mb 0.00 in0.0 mm 0.00 in0.0 mm 0.01 in0.3 mm
06:32 PM 57.0°F13.9°C 53.2°F11.8°C 87% 10.9 mph E17.5 kmh E 13.0 mph20.9 kmh 30.12 in1020.0 mb 0.00 in0.0 mm 0.00 in0.0 mm 0.01 in0.3 mm
06:31 PM 57.0°F13.9°C 53.2°F11.8°C 87% 9.4 mph E15.1 kmh E 15.0 mph24.1 kmh 30.12 in1020.0 mb 0.00 in0.0 mm 0.00 in0.0 mm 0.01 in0.3 mm
06:30 PM 57.1°F13.9°C 53.3°F11.8°C 87% 10.8 mph E17.4 kmh E 15.0 mph24.1 kmh 30.12 in1020.0 mb 0.00 in0.0 mm 0.00 in0.0 mm 0.01 in0.3 mm
06:29 PM 57.1°F13.9°C 53.3°F11.8°C 87% 8.9 mph E14.3 kmh E 13.0 mph20.9 kmh 30.12 in1020.0 mb 0.00 in0.0 mm 0.00 in0.0 mm 0.01 in0.3 mm
06:28 PM 57.1°F13.9°C 53.0°F11.7°C 86% 9.1 mph E14.6 kmh E 13.0 mph20.9 kmh 30.12 in1020.0 mb 0.00 in0.0 mm 0.00 in0.0 mm 0.01 in0.3 mm
06:27 PM 57.2°F14.0°C 53.0°F11.7°C 86% 8.6 mph E13.8 kmh E 12.0 mph19.3 kmh 30.12 in1020.0 mb 0.00 in0.0 mm 0.00 in0.0 mm 0.01 in0.3 mm
06:26 PM 57.2°F14.0°C 53.0°F11.7°C 86% 9.7 mph E15.6 kmh E 13.0 mph20.9 kmh 30.12 in1020.0 mb 0.00 in0.0 mm 0.00 in0.0 mm 0.01 in0.3 mm
06:25 PM 57.3°F14.1°C 53.1°F11.7°C 86% 9.0 mph E14.5 kmh E 16.0 mph25.7 kmh 30.12 in1020.0 mb 0.00 in0.0 mm 0.00 in0.0 mm 0.01 in0.3 mm
06:24 PM 57.3°F14.1°C 53.1°F11.7°C 86% 13.0 mph E20.9 kmh E 16.0 mph25.7 kmh 30.12 in1020.0 mb 0.00 in0.0 mm 0.00 in0.0 mm 0.01 in0.3 mm
06:23 PM 57.3°F14.1°C 53.1°F11.7°C 86% 10.6 mph E17.1 kmh E 13.0 mph20.9 kmh 30.12 in1020.0 mb 0.00 in0.0 mm 0.00 in0.0 mm 0.01 in0.3 mm
06:22 PM 57.3°F14.1°C 53.1°F11.7°C 86% 11.0 mph E17.7 kmh E 16.0 mph25.7 kmh 30.12 in1020.0 mb 0.00 in0.0 mm 0.00 in0.0 mm 0.01 in0.3 mm
06:21 PM 57.4°F14.1°C 53.2°F11.8°C 86% 12.0 mph E19.3 kmh E 16.0 mph25.7 kmh 30.12 in1020.0 mb 0.00 in0.0 mm 0.00 in0.0 mm 0.01 in0.3 mm
06:20 PM 57.4°F14.1°C 53.2°F11.8°C 86% 11.0 mph E17.7 kmh E 13.0 mph20.9 kmh 30.11 in1019.6 mb 0.00 in0.0 mm 0.00 in0.0 mm 0.01 in0.3 mm
06:19 PM 57.5°F14.2°C 53.3°F11.8°C 86% 10.5 mph E16.9 kmh E 15.0 mph24.1 kmh 30.12 in1020.0 mb 0.00 in0.0 mm 0.00 in0.0 mm 0.01 in0.3 mm
06:18 PM 57.5°F14.2°C 53.3°F11.8°C 86% 9.9 mph ESE15.9 kmh ESE 15.0 mph24.1 kmh 30.12 in1020.0 mb 0.00 in0.0 mm 0.00 in0.0 mm 0.01 in0.3 mm
06:17 PM 57.6°F14.2°C 53.1°F11.7°C 85% 9.9 mph E15.9 kmh E 13.0 mph20.9 kmh 30.11 in1019.6 mb 0.00 in0.0 mm 0.00 in0.0 mm 0.01 in0.3 mm
06:16 PM 57.7°F14.3°C 53.2°F11.8°C 85% 9.2 mph E14.8 kmh E 12.0 mph19.3 kmh 30.11 in1019.6 mb 0.00 in0.0 mm 0.00 in0.0 mm 0.01 in0.3 mm
06:15 PM 57.7°F14.3°C 53.2°F11.8°C 85% 7.9 mph E12.7 kmh E 12.0 mph19.3 kmh 30.11 in1019.6 mb 0.00 in0.0 mm 0.00 in0.0 mm 0.01 in0.3 mm
06:14 PM 57.8°F14.3°C 53.3°F11.8°C 85% 10.5 mph E16.9 kmh E 14.0 mph22.5 kmh 30.11 in1019.6 mb 0.00 in0.0 mm 0.00 in0.0 mm 0.01 in0.3 mm
06:13 PM 57.8°F14.3°C 53.3°F11.8°C 85% 10.9 mph E17.5 kmh E 14.0 mph22.5 kmh 30.11 in1019.6 mb 0.00 in0.0 mm 0.00 in0.0 mm 0.01 in0.3 mm
06:12 PM 57.8°F14.3°C 53.3°F11.8°C 85% 11.0 mph E17.7 kmh E 14.0 mph22.5 kmh 30.11 in1019.6 mb 0.00 in0.0 mm 0.00 in0.0 mm 0.01 in0.3 mm
06:11 PM 57.8°F14.3°C 53.3°F11.8°C 85% 10.1 mph E16.3 kmh E 14.0 mph22.5 kmh 30.11 in1019.6 mb 0.00 in0.0 mm 0.00 in0.0 mm 0.01 in0.3 mm
06:10 PM 57.9°F14.4°C 53.1°F11.7°C 84% 8.8 mph E14.2 kmh E 16.0 mph25.7 kmh 30.11 in1019.6 mb 0.00 in0.0 mm 0.00 in0.0 mm 0.01 in0.3 mm
06:09 PM 57.9°F14.4°C 53.1°F11.7°C 84% 11.3 mph E18.2 kmh E 16.0 mph25.7 kmh 30.11 in1019.6 mb 0.00 in0.0 mm 0.00 in0.0 mm 0.01 in0.3 mm
06:08 PM 57.9°F14.4°C 53.1°F11.7°C 84% 9.0 mph E14.5 kmh E 13.0 mph20.9 kmh 30.11 in1019.6 mb 0.00 in0.0 mm 0.00 in0.0 mm 0.01 in0.3 mm
06:07 PM 58.0°F14.4°C 53.2°F11.8°C 84% 11.0 mph E17.7 kmh E 13.0 mph20.9 kmh 30.11 in1019.6 mb 0.00 in0.0 mm 0.00 in0.0 mm 0.01 in0.3 mm
06:06 PM 58.0°F14.4°C 53.2°F11.8°C 84% 10.0 mph E16.1 kmh E 14.0 mph22.5 kmh 30.11 in1019.6 mb 0.00 in0.0 mm 0.00 in0.0 mm 0.01 in0.3 mm
06:05 PM 58.1°F14.5°C 53.3°F11.8°C 84% 9.0 mph E14.5 kmh E 13.0 mph20.9 kmh 30.11 in1019.6 mb 0.00 in0.0 mm 0.00 in0.0 mm 0.01 in0.3 mm
06:04 PM 58.1°F14.5°C 53.0°F11.7°C 83% 9.5 mph E15.3 kmh E 14.0 mph22.5 kmh 30.11 in1019.6 mb 0.00 in0.0 mm 0.00 in0.0 mm 0.01 in0.3 mm
06:03 PM 58.2°F14.6°C 53.1°F11.7°C 83% 11.5 mph E18.5 kmh E 16.0 mph25.7 kmh 30.11 in1019.6 mb 0.00 in0.0 mm 0.00 in0.0 mm 0.01 in0.3 mm
06:02 PM 58.2°F14.6°C 53.1°F11.7°C 83% 12.6 mph E20.3 kmh E 16.0 mph25.7 kmh 30.11 in1019.6 mb 0.00 in0.0 mm 0.00 in0.0 mm 0.01 in0.3 mm
06:01 PM 58.3°F14.6°C 53.2°F11.8°C 83% 7.5 mph E12.1 kmh E 13.0 mph20.9 kmh 30.11 in1019.6 mb 0.00 in0.0 mm 0.00 in0.0 mm 0.01 in0.3 mm
06:00 PM 58.3°F14.6°C 53.2°F11.8°C 83% 9.2 mph E14.8 kmh E 13.0 mph20.9 kmh 30.11 in1019.6 mb 0.00 in0.0 mm 0.00 in0.0 mm 0.01 in0.3 mm
05:59 PM 58.4°F14.7°C 52.9°F11.6°C 82% 9.6 mph E15.4 kmh E 13.0 mph20.9 kmh 30.11 in1019.6 mb 0.00 in0.0 mm 0.00 in0.0 mm 0.01 in0.3 mm
05:58 PM 58.5°F14.7°C 53.0°F11.7°C 82% 9.3 mph E15.0 kmh E 14.0 mph22.5 kmh 30.11 in1019.6 mb 0.00 in0.0 mm 0.00 in0.0 mm 0.01 in0.3 mm
05:57 PM 58.5°F14.7°C 53.0°F11.7°C 82% 10.1 mph E16.3 kmh E 14.0 mph22.5 kmh 30.11 in1019.6 mb 0.00 in0.0 mm 0.00 in0.0 mm 0.01 in0.3 mm
05:56 PM 58.6°F14.8°C 53.1°F11.7°C 82% 11.0 mph E17.7 kmh E 13.0 mph20.9 kmh 30.11 in1019.6 mb 0.00 in0.0 mm 0.00 in0.0 mm 0.01 in0.3 mm
05:55 PM 58.6°F14.8°C 53.1°F11.7°C 82% 9.8 mph E15.8 kmh E 14.0 mph22.5 kmh 30.11 in1019.6 mb 0.00 in0.0 mm 0.00 in0.0 mm 0.01 in0.3 mm
05:54 PM 58.7°F14.8°C 53.2°F11.8°C 82% 11.0 mph E17.7 kmh E 14.0 mph22.5 kmh 30.11 in1019.6 mb 0.00 in0.0 mm 0.00 in0.0 mm 0.01 in0.3 mm
05:53 PM 58.8°F14.9°C 53.3°F11.8°C 82% 10.3 mph E16.6 kmh E 14.0 mph22.5 kmh 30.11 in1019.6 mb 0.00 in0.0 mm 0.00 in0.0 mm 0.01 in0.3 mm
05:52 PM 58.9°F14.9°C 53.1°F11.7°C 81% 9.4 mph E15.1 kmh E 12.0 mph19.3 kmh 30.11 in1019.6 mb 0.00 in0.0 mm 0.00 in0.0 mm 0.01 in0.3 mm
05:51 PM 58.9°F14.9°C 53.1°F11.7°C 81% 9.9 mph E15.9 kmh E 15.0 mph24.1 kmh 30.11 in1019.6 mb 0.00 in0.0 mm 0.00 in0.0 mm 0.01 in0.3 mm
05:50 PM 59.0°F15.0°C 53.2°F11.8°C 81% 10.7 mph E17.2 kmh E 15.0 mph24.1 kmh 30.11 in1019.6 mb 0.00 in0.0 mm 0.00 in0.0 mm 0.01 in0.3 mm
05:49 PM 59.2°F15.1°C 53.4°F11.9°C 81% 8.8 mph E14.2 kmh E 13.0 mph20.9 kmh 30.11 in1019.6 mb 0.00 in0.0 mm 0.00 in0.0 mm 0.01 in0.3 mm
05:48 PM 59.2°F15.1°C 53.4°F11.9°C 81% 9.6 mph E15.4 kmh E 13.0 mph20.9 kmh 30.11 in1019.6 mb 0.00 in0.0 mm 0.00 in0.0 mm 0.01 in0.3 mm
05:47 PM 59.2°F15.1°C 53.4°F11.9°C 81% 9.0 mph E14.5 kmh E 10.0 mph16.1 kmh 30.11 in1019.6 mb 0.00 in0.0 mm 0.00 in0.0 mm 0.01 in0.3 mm
05:46 PM 59.3°F15.2°C 53.5°F11.9°C 81% 10.0 mph E16.1 kmh E 14.0 mph22.5 kmh 30.11 in1019.6 mb 0.00 in0.0 mm 0.00 in0.0 mm 0.01 in0.3 mm
05:45 PM 59.4°F15.2°C 53.6°F12.0°C 81% 12.0 mph ESE19.3 kmh ESE 16.0 mph25.7 kmh 30.11 in1019.6 mb 0.00 in0.0 mm 0.00 in0.0 mm 0.01 in0.3 mm
05:44 PM 59.4°F15.2°C 53.6°F12.0°C 81% 8.9 mph E14.3 kmh E 13.0 mph20.9 kmh 30.11 in1019.6 mb 0.00 in0.0 mm 0.00 in0.0 mm 0.01 in0.3 mm
05:43 PM 59.4°F15.2°C 53.6°F12.0°C 81% 8.0 mph E12.9 kmh E 13.0 mph20.9 kmh 30.11 in1019.6 mb 0.00 in0.0 mm 0.00 in0.0 mm 0.01 in0.3 mm
05:42 PM 59.5°F15.3°C 53.3°F11.8°C 80% 9.0 mph E14.5 kmh E 13.0 mph20.9 kmh 30.11 in1019.6 mb 0.00 in0.0 mm 0.00 in0.0 mm 0.01 in0.3 mm
05:41 PM 59.5°F15.3°C 53.3°F11.8°C 80% 8.9 mph E14.3 kmh E 11.0 mph17.7 kmh 30.11 in1019.6 mb 0.00 in0.0 mm 0.00 in0.0 mm 0.01 in0.3 mm
05:40 PM 59.5°F15.3°C 53.3°F11.8°C 80% 7.5 mph ESE12.1 kmh ESE 12.0 mph19.3 kmh 30.11 in1019.6 mb 0.00 in0.0 mm 0.00 in0.0 mm 0.01 in0.3 mm
05:39 PM 59.6°F15.3°C 53.4°F11.9°C 80% 7.8 mph ESE12.6 kmh ESE 12.0 mph19.3 kmh 30.11 in1019.6 mb 0.00 in0.0 mm 0.00 in0.0 mm 0.01 in0.3 mm
05:38 PM 59.7°F15.4°C 53.5°F11.9°C 80% 9.0 mph ESE14.5 kmh ESE 12.0 mph19.3 kmh 30.11 in1019.6 mb 0.00 in0.0 mm 0.00 in0.0 mm 0.01 in0.3 mm
05:37 PM 59.7°F15.4°C 53.5°F11.9°C 80% 9.0 mph E14.5 kmh E 12.0 mph19.3 kmh 30.11 in1019.6 mb 0.00 in0.0 mm 0.00 in0.0 mm 0.01 in0.3 mm
05:36 PM 59.7°F15.4°C 53.9°F12.2°C 81% 8.8 mph E14.2 kmh E 14.0 mph22.5 kmh 30.11 in1019.6 mb 0.00 in0.0 mm 0.00 in0.0 mm 0.01 in0.3 mm
05:35 PM 59.8°F15.4°C 54.0°F12.2°C 81% 7.2 mph E11.6 kmh E 9.0 mph14.5 kmh 30.11 in1019.6 mb 0.00 in0.0 mm 0.00 in0.0 mm 0.01 in0.3 mm
05:34 PM 59.8°F15.4°C 54.0°F12.2°C 81% 7.1 mph ESE11.4 kmh ESE 12.0 mph19.3 kmh 30.11 in1019.6 mb 0.00 in0.0 mm 0.00 in0.0 mm 0.01 in0.3 mm
05:33 PM 59.9°F15.5°C 54.1°F12.3°C 81% 8.3 mph E13.4 kmh E 14.0 mph22.5 kmh 30.11 in1019.6 mb 0.00 in0.0 mm 0.00 in0.0 mm 0.01 in0.3 mm
05:32 PM 59.9°F15.5°C 54.1°F12.3°C 81% 10.3 mph E16.6 kmh E 14.0 mph22.5 kmh 30.11 in1019.6 mb 0.00 in0.0 mm 0.00 in0.0 mm 0.01 in0.3 mm
05:31 PM 59.9°F15.5°C 54.1°F12.3°C 81% 8.3 mph E13.4 kmh E 12.0 mph19.3 kmh 30.11 in1019.6 mb 0.00 in0.0 mm 0.00 in0.0 mm 0.01 in0.3 mm
05:30 PM 60.0°F15.6°C 54.1°F12.3°C 81% 7.3 mph E11.7 kmh E 11.0 mph17.7 kmh 30.11 in1019.6 mb 0.00 in0.0 mm 0.00 in0.0 mm 0.01 in0.3 mm
05:29 PM 60.1°F15.6°C 54.2°F12.3°C 81% 8.9 mph E14.3 kmh E 12.0 mph19.3 kmh 30.11 in1019.6 mb 0.00 in0.0 mm 0.00 in0.0 mm 0.01 in0.3 mm
05:28 PM 60.1°F15.6°C 54.2°F12.3°C 81% 9.0 mph E14.5 kmh E 12.0 mph19.3 kmh 30.11 in1019.6 mb 0.00 in0.0 mm 0.00 in0.0 mm 0.01 in0.3 mm
05:27 PM 60.2°F15.7°C 54.3°F12.4°C 81% 7.0 mph ESE11.3 kmh ESE 10.0 mph16.1 kmh 30.11 in1019.6 mb 0.00 in0.0 mm 0.00 in0.0 mm 0.01 in0.3 mm
05:26 PM 60.2°F15.7°C 54.3°F12.4°C 81% 7.1 mph E11.4 kmh E 12.0 mph19.3 kmh 30.11 in1019.6 mb 0.00 in0.0 mm 0.00 in0.0 mm 0.01 in0.3 mm
05:25 PM 60.3°F15.7°C 54.4°F12.4°C 81% 8.9 mph E14.3 kmh E 12.0 mph19.3 kmh 30.11 in1019.6 mb 0.00 in0.0 mm 0.00 in0.0 mm 0.01 in0.3 mm
05:24 PM 60.3°F15.7°C 54.1°F12.3°C 80% 9.8 mph E15.8 kmh E 12.0 mph19.3 kmh 30.10 in1019.3 mb 0.00 in0.0 mm 0.00 in0.0 mm 0.01 in0.3 mm
05:23 PM 60.4°F15.8°C 54.2°F12.3°C 80% 9.0 mph E14.5 kmh E 12.0 mph19.3 kmh 30.10 in1019.3 mb 0.00 in0.0 mm 0.00 in0.0 mm 0.01 in0.3 mm
05:22 PM 60.4°F15.8°C 54.2°F12.3°C 80% 9.0 mph ESE14.5 kmh ESE 11.0 mph17.7 kmh 30.10 in1019.3 mb 0.00 in0.0 mm 0.00 in0.0 mm 0.01 in0.3 mm
05:21 PM 60.5°F15.8°C 54.3°F12.4°C 80% 6.0 mph E9.7 kmh E 8.0 mph12.9 kmh 30.10 in1019.3 mb 0.00 in0.0 mm 0.00 in0.0 mm 0.01 in0.3 mm
05:20 PM 60.5°F15.8°C 54.3°F12.4°C 80% 5.9 mph E9.5 kmh E 9.0 mph14.5 kmh 30.10 in1019.3 mb 0.00 in0.0 mm 0.00 in0.0 mm 0.01 in0.3 mm
05:19 PM 60.5°F15.8°C 54.3°F12.4°C 80% 4.2 mph E6.8 kmh E 5.0 mph8.0 kmh 30.10 in1019.3 mb 0.00 in0.0 mm 0.00 in0.0 mm 0.01 in0.3 mm
05:18 PM 60.5°F15.8°C 54.3°F12.4°C 80% 6.0 mph ESE9.7 kmh ESE 9.0 mph14.5 kmh 30.10 in1019.3 mb 0.00 in0.0 mm 0.00 in0.0 mm 0.01 in0.3 mm
05:17 PM 60.6°F15.9°C 54.4°F12.4°C 80% 7.0 mph E11.3 kmh E 9.0 mph14.5 kmh 30.11 in1019.6 mb 0.00 in0.0 mm 0.00 in0.0 mm 0.01 in0.3 mm
05:16 PM 60.7°F15.9°C 54.5°F12.5°C 80% 4.4 mph E7.1 kmh E 8.0 mph12.9 kmh 30.10 in1019.3 mb 0.00 in0.0 mm 0.00 in0.0 mm 0.01 in0.3 mm
05:15 PM 60.7°F15.9°C 54.5°F12.5°C 80% 5.2 mph ESE8.4 kmh ESE 11.0 mph17.7 kmh 30.10 in1019.3 mb 0.00 in0.0 mm 0.00 in0.0 mm 0.01 in0.3 mm
05:14 PM 60.7°F15.9°C 54.5°F12.5°C 80% 8.5 mph E13.7 kmh E 11.0 mph17.7 kmh 30.10 in1019.3 mb 0.00 in0.0 mm 0.00 in0.0 mm 0.01 in0.3 mm
05:13 PM 60.8°F16.0°C 54.6°F12.6°C 80% 6.4 mph E10.3 kmh E 13.0 mph20.9 kmh 30.10 in1019.3 mb 0.00 in0.0 mm 0.00 in0.0 mm 0.01 in0.3 mm
05:12 PM 60.8°F16.0°C 54.6°F12.6°C 80% 8.4 mph E13.5 kmh E 13.0 mph20.9 kmh 30.10 in1019.3 mb 0.00 in0.0 mm 0.00 in0.0 mm 0.01 in0.3 mm
05:11 PM 60.8°F16.0°C 54.6°F12.6°C 80% 6.6 mph E10.6 kmh E 10.0 mph16.1 kmh 30.10 in1019.3 mb 0.00 in0.0 mm 0.00 in0.0 mm 0.01 in0.3 mm
05:10 PM 60.9°F16.1°C 54.7°F12.6°C 80% 8.4 mph ESE13.5 kmh ESE 10.0 mph16.1 kmh 30.10 in1019.3 mb 0.00 in0.0 mm 0.00 in0.0 mm 0.01 in0.3 mm
05:09 PM 60.9°F16.1°C 54.7°F12.6°C 80% 5.1 mph E8.2 kmh E 9.0 mph14.5 kmh 30.10 in1019.3 mb 0.00 in0.0 mm 0.00 in0.0 mm 0.01 in0.3 mm
05:08 PM 61.0°F16.1°C 54.8°F12.7°C 80% 5.9 mph E9.5 kmh E 8.0 mph12.9 kmh 30.10 in1019.3 mb 0.00 in0.0 mm 0.00 in0.0 mm 0.01 in0.3 mm
05:07 PM 61.0°F16.1°C 54.8°F12.7°C 80% 4.2 mph ESE6.8 kmh ESE 8.0 mph12.9 kmh 30.10 in1019.3 mb 0.00 in0.0 mm 0.00 in0.0 mm 0.01 in0.3 mm
05:06 PM 61.1°F16.2°C 54.9°F12.7°C 80% 5.7 mph E9.2 kmh E 8.0 mph12.9 kmh 30.10 in1019.3 mb 0.00 in0.0 mm 0.00 in0.0 mm 0.01 in0.3 mm
05:05 PM 61.1°F16.2°C 54.5°F12.5°C 79% 4.7 mph E7.6 kmh E 8.0 mph12.9 kmh 30.10 in1019.3 mb 0.00 in0.0 mm 0.00 in0.0 mm 0.01 in0.3 mm
05:04 PM 61.1°F16.2°C 54.5°F12.5°C 79% 5.9 mph ESE9.5 kmh ESE 9.0 mph14.5 kmh 30.10 in1019.3 mb 0.00 in0.0 mm 0.00 in0.0 mm 0.01 in0.3 mm
05:03 PM 61.2°F16.2°C 54.6°F12.6°C 79% 7.5 mph E12.1 kmh E 9.0 mph14.5 kmh 30.10 in1019.3 mb 0.00 in0.0 mm 0.00 in0.0 mm 0.01 in0.3 mm
05:02 PM 61.2°F16.2°C 54.6°F12.6°C 79% 3.9 mph E6.3 kmh E 7.0 mph11.3 kmh 30.10 in1019.3 mb 0.00 in0.0 mm 0.00 in0.0 mm 0.01 in0.3 mm
05:01 PM 61.2°F16.2°C 54.6°F12.6°C 79% 4.5 mph E7.2 kmh E 9.0 mph14.5 kmh 30.10 in1019.3 mb 0.00 in0.0 mm 0.00 in0.0 mm 0.01 in0.3 mm
05:00 PM 61.2°F16.2°C 54.6°F12.6°C 79% 5.9 mph E9.5 kmh E 9.0 mph14.5 kmh 30.10 in1019.3 mb 0.00 in0.0 mm 0.00 in0.0 mm 0.01 in0.3 mm
04:59 PM 61.3°F16.3°C 54.7°F12.6°C 79% 5.1 mph ESE8.2 kmh ESE 10.0 mph16.1 kmh 30.10 in1019.3 mb 0.00 in0.0 mm 0.00 in0.0 mm 0.01 in0.3 mm
04:58 PM 61.3°F16.3°C 54.7°F12.6°C 79% 7.0 mph E11.3 kmh E 10.0 mph16.1 kmh 30.10 in1019.3 mb 0.00 in0.0 mm 0.00 in0.0 mm 0.01 in0.3 mm
04:57 PM 61.4°F16.3°C 54.5°F12.5°C 78% 4.1 mph E6.6 kmh E 7.0 mph11.3 kmh 30.10 in1019.3 mb 0.00 in0.0 mm 0.00 in0.0 mm 0.01 in0.3 mm
04:56 PM 61.4°F16.3°C 54.5°F12.5°C 78% 4.6 mph ESE7.4 kmh ESE 7.0 mph11.3 kmh 30.10 in1019.3 mb 0.00 in0.0 mm 0.00 in0.0 mm 0.01 in0.3 mm
04:55 PM 61.4°F16.3°C 54.5°F12.5°C 78% 4.4 mph ESE7.1 kmh ESE 8.0 mph12.9 kmh 30.10 in1019.3 mb 0.00 in0.0 mm 0.00 in0.0 mm 0.01 in0.3 mm
04:54 PM 61.5°F16.4°C 54.6°F12.6°C 78% 5.8 mph ESE9.3 kmh ESE 8.0 mph12.9 kmh 30.10 in1019.3 mb 0.00 in0.0 mm 0.00 in0.0 mm 0.01 in0.3 mm
04:53 PM 61.5°F16.4°C 54.6°F12.6°C 78% 3.0 mph E4.8 kmh E 4.0 mph6.4 kmh 30.10 in1019.3 mb 0.00 in0.0 mm 0.00 in0.0 mm 0.01 in0.3 mm
04:52 PM 61.5°F16.4°C 54.6°F12.6°C 78% 6.0 mph ESE9.7 kmh ESE 10.0 mph16.1 kmh 30.10 in1019.3 mb 0.00 in0.0 mm 0.00 in0.0 mm 0.01 in0.3 mm
04:51 PM 61.6°F16.4°C 54.3°F12.4°C 77% 8.0 mph ESE12.9 kmh ESE 11.0 mph17.7 kmh 30.10 in1019.3 mb 0.00 in0.0 mm 0.00 in0.0 mm 0.01 in0.3 mm
04:50 PM 61.6°F16.4°C 54.3°F12.4°C 77% 5.9 mph E9.5 kmh E 10.0 mph16.1 kmh 30.10 in1019.3 mb 0.00 in0.0 mm 0.00 in0.0 mm 0.01 in0.3 mm
04:49 PM 61.8°F16.6°C 54.5°F12.5°C 77% 7.8 mph E12.6 kmh E 11.0 mph17.7 kmh 30.10 in1019.3 mb 0.00 in0.0 mm 0.00 in0.0 mm 0.01 in0.3 mm
04:48 PM 61.8°F16.6°C 54.5°F12.5°C 77% 8.3 mph E13.4 kmh E 11.0 mph17.7 kmh 30.10 in1019.3 mb 0.00 in0.0 mm 0.00 in0.0 mm 0.01 in0.3 mm
04:47 PM 61.8°F16.6°C 54.5°F12.5°C 77% 6.9 mph E11.1 kmh E 8.0 mph12.9 kmh 30.10 in1019.3 mb 0.00 in0.0 mm 0.00 in0.0 mm 0.01 in0.3 mm
04:46 PM 62.0°F16.7°C 54.7°F12.6°C 77% 5.0 mph ESE8.0 kmh ESE 7.0 mph11.3 kmh 30.10 in1019.3 mb 0.00 in0.0 mm 0.00 in0.0 mm 0.01 in0.3 mm
04:45 PM 62.0°F16.7°C 54.3°F12.4°C 76% 5.0 mph ESE8.0 kmh ESE 7.0 mph11.3 kmh 30.10 in1019.3 mb 0.00 in0.0 mm 0.00 in0.0 mm 0.01 in0.3 mm
04:44 PM 62.1°F16.7°C 54.4°F12.4°C 76% 7.6 mph E12.2 kmh E 10.0 mph16.1 kmh 30.10 in1019.3 mb 0.00 in0.0 mm 0.00 in0.0 mm 0.01 in0.3 mm
04:43 PM 62.1°F16.7°C 54.4°F12.4°C 76% 5.1 mph E8.2 kmh E 9.0 mph14.5 kmh 30.10 in1019.3 mb 0.00 in0.0 mm 0.00 in0.0 mm 0.01 in0.3 mm
04:42 PM 62.2°F16.8°C 54.2°F12.3°C 75% 6.7 mph E10.8 kmh E 9.0 mph14.5 kmh 30.10 in1019.3 mb 0.00 in0.0 mm 0.00 in0.0 mm 0.01 in0.3 mm
04:41 PM 62.3°F16.8°C 54.3°F12.4°C 75% 9.0 mph E14.5 kmh E 11.0 mph17.7 kmh 30.10 in1019.3 mb 0.00 in0.0 mm 0.00 in0.0 mm 0.01 in0.3 mm
04:40 PM 62.3°F16.8°C 54.3°F12.4°C 75% 10.0 mph ESE16.1 kmh ESE 11.0 mph17.7 kmh 30.10 in1019.3 mb 0.00 in0.0 mm 0.00 in0.0 mm 0.01 in0.3 mm
04:39 PM 62.4°F16.9°C 54.4°F12.4°C 75% 4.0 mph E6.4 kmh E 7.0 mph11.3 kmh 30.10 in1019.3 mb 0.00 in0.0 mm 0.00 in0.0 mm 0.01 in0.3 mm
04:38 PM 62.5°F16.9°C 54.5°F12.5°C 75% 6.4 mph E10.3 kmh E 10.0 mph16.1 kmh 30.10 in1019.3 mb 0.00 in0.0 mm 0.00 in0.0 mm 0.01 in0.3 mm
04:37 PM 62.5°F16.9°C 54.5°F12.5°C 75% 3.0 mph ESE4.8 kmh ESE 4.0 mph6.4 kmh 30.10 in1019.3 mb 0.00 in0.0 mm 0.00 in0.0 mm 0.01 in0.3 mm
04:36 PM 62.5°F16.9°C 54.5°F12.5°C 75% 5.0 mph E8.0 kmh E 6.0 mph9.7 kmh 30.10 in1019.3 mb 0.00 in0.0 mm 0.00 in0.0 mm 0.01 in0.3 mm
04:35 PM 62.6°F17.0°C 54.9°F12.7°C 76% 4.0 mph E6.4 kmh E 6.0 mph9.7 kmh 30.10 in1019.3 mb 0.00 in0.0 mm 0.00 in0.0 mm 0.01 in0.3 mm
04:34 PM 62.6°F17.0°C 54.6°F12.6°C 75% 3.5 mph ESE5.6 kmh ESE 8.0 mph12.9 kmh 30.10 in1019.3 mb 0.00 in0.0 mm 0.00 in0.0 mm 0.01 in0.3 mm
04:33 PM 62.6°F17.0°C 54.6°F12.6°C 75% 5.5 mph SE8.9 kmh SE 9.0 mph14.5 kmh 30.10 in1019.3 mb 0.00 in0.0 mm 0.00 in0.0 mm 0.01 in0.3 mm
04:32 PM 62.7°F17.1°C 54.7°F12.6°C 75% 6.5 mph SE10.5 kmh SE 10.0 mph16.1 kmh 30.10 in1019.3 mb 0.00 in0.0 mm 0.00 in0.0 mm 0.01 in0.3 mm
04:31 PM 62.7°F17.1°C 54.7°F12.6°C 75% 6.7 mph SE10.8 kmh SE 10.0 mph16.1 kmh 30.10 in1019.3 mb 0.00 in0.0 mm 0.00 in0.0 mm 0.01 in0.3 mm
04:30 PM 62.7°F17.1°C 54.3°F12.4°C 74% 5.3 mph ESE8.5 kmh ESE 9.0 mph14.5 kmh 30.10 in1019.3 mb 0.00 in0.0 mm 0.00 in0.0 mm 0.01 in0.3 mm
04:29 PM 62.8°F17.1°C 54.8°F12.7°C 75% 7.1 mph ESE11.4 kmh ESE 9.0 mph14.5 kmh 30.10 in1019.3 mb 0.00 in0.0 mm 0.00 in0.0 mm 0.01 in0.3 mm
04:28 PM 62.7°F17.1°C 54.3°F12.4°C 74% 6.2 mph ESE10.0 kmh ESE 8.0 mph12.9 kmh 30.10 in1019.3 mb 0.00 in0.0 mm 0.00 in0.0 mm 0.01 in0.3 mm
04:27 PM 62.8°F17.1°C 54.8°F12.7°C 75% 5.4 mph ESE8.7 kmh ESE 8.0 mph12.9 kmh 30.10 in1019.3 mb 0.00 in0.0 mm 0.00 in0.0 mm 0.01 in0.3 mm
04:26 PM 62.7°F17.1°C 54.7°F12.6°C 75% 3.9 mph ESE6.3 kmh ESE 6.0 mph9.7 kmh 30.10 in1019.3 mb 0.00 in0.0 mm 0.00 in0.0 mm 0.01 in0.3 mm
04:25 PM 62.7°F17.1°C 54.7°F12.6°C 75% 3.0 mph E4.8 kmh E 5.0 mph8.0 kmh 30.10 in1019.3 mb 0.00 in0.0 mm 0.00 in0.0 mm 0.01 in0.3 mm
04:24 PM 62.6°F17.0°C 54.6°F12.6°C 75% 2.5 mph E4.0 kmh E 3.0 mph4.8 kmh 30.10 in1019.3 mb 0.00 in0.0 mm 0.00 in0.0 mm 0.01 in0.3 mm
04:23 PM 62.7°F17.1°C 54.3°F12.4°C 74% 2.7 mph E4.3 kmh E 4.0 mph6.4 kmh 30.09 in1019.0 mb 0.00 in0.0 mm 0.00 in0.0 mm 0.01 in0.3 mm
04:22 PM 62.7°F17.1°C 54.3°F12.4°C 74% 3.4 mph E5.5 kmh E 4.0 mph6.4 kmh 30.10 in1019.3 mb 0.00 in0.0 mm 0.00 in0.0 mm 0.01 in0.3 mm
04:21 PM 62.6°F17.0°C 54.2°F12.3°C 74% 2.8 mph ESE4.5 kmh ESE 7.0 mph11.3 kmh 30.10 in1019.3 mb 0.00 in0.0 mm 0.00 in0.0 mm 0.01 in0.3 mm
04:20 PM 62.7°F17.1°C 54.3°F12.4°C 74% 4.5 mph ESE7.2 kmh ESE 7.0 mph11.3 kmh 30.09 in1019.0 mb 0.00 in0.0 mm 0.00 in0.0 mm 0.01 in0.3 mm
04:19 PM 62.7°F17.1°C 53.9°F12.2°C 73% 5.0 mph ESE8.0 kmh ESE 7.0 mph11.3 kmh 30.09 in1019.0 mb 0.00 in0.0 mm 0.00 in0.0 mm 0.01 in0.3 mm
04:18 PM 62.7°F17.1°C 53.9°F12.2°C 73% 4.0 mph ESE6.4 kmh ESE 5.0 mph8.0 kmh 30.09 in1019.0 mb 0.00 in0.0 mm 0.00 in0.0 mm 0.01 in0.3 mm
04:17 PM 62.7°F17.1°C 54.3°F12.4°C 74% 5.0 mph SE8.0 kmh SE 7.0 mph11.3 kmh 30.09 in1019.0 mb 0.00 in0.0 mm 0.00 in0.0 mm 0.01 in0.3 mm
04:16 PM 62.7°F17.1°C 53.9°F12.2°C 73% 4.3 mph SE6.9 kmh SE 7.0 mph11.3 kmh 30.09 in1019.0 mb 0.00 in0.0 mm 0.00 in0.0 mm 0.01 in0.3 mm
04:15 PM 62.7°F17.1°C 53.9°F12.2°C 73% 3.6 mph SE5.8 kmh SE 7.0 mph11.3 kmh 30.09 in1019.0 mb 0.00 in0.0 mm 0.00 in0.0 mm 0.01 in0.3 mm
04:14 PM 62.7°F17.1°C 53.9°F12.2°C 73% 5.4 mph SE8.7 kmh SE 7.0 mph11.3 kmh 30.10 in1019.3 mb 0.00 in0.0 mm 0.00 in0.0 mm 0.01 in0.3 mm
04:13 PM 62.7°F17.1°C 53.9°F12.2°C 73% 4.0 mph SE6.4 kmh SE 7.0 mph11.3 kmh 30.10 in1019.3 mb 0.00 in0.0 mm 0.00 in0.0 mm 0.01 in0.3 mm
04:12 PM 62.7°F17.1°C 53.9°F12.2°C 73% 3.3 mph SE5.3 kmh SE 7.0 mph11.3 kmh 30.09 in1019.0 mb 0.00 in0.0 mm 0.00 in0.0 mm 0.01 in0.3 mm
04:11 PM 62.7°F17.1°C 54.3°F12.4°C 74% 4.4 mph SE7.1 kmh SE 7.0 mph11.3 kmh 30.10 in1019.3 mb 0.00 in0.0 mm 0.00 in0.0 mm 0.01 in0.3 mm
04:10 PM 62.7°F17.1°C 53.9°F12.2°C 73% 4.5 mph SE7.2 kmh SE 7.0 mph11.3 kmh 30.10 in1019.3 mb 0.00 in0.0 mm 0.00 in0.0 mm 0.01 in0.3 mm
04:09 PM 62.7°F17.1°C 53.9°F12.2°C 73% 5.0 mph SE8.0 kmh SE 8.0 mph12.9 kmh 30.10 in1019.3 mb 0.00 in0.0 mm 0.00 in0.0 mm 0.01 in0.3 mm
04:08 PM 62.8°F17.1°C 54.0°F12.2°C 73% 5.4 mph SE8.7 kmh SE 8.0 mph12.9 kmh 30.10 in1019.3 mb 0.00 in0.0 mm 0.00 in0.0 mm 0.01 in0.3 mm
04:07 PM 62.7°F17.1°C 53.5°F11.9°C 72% 3.1 mph SE5.0 kmh SE 5.0 mph8.0 kmh 30.10 in1019.3 mb 0.00 in0.0 mm 0.00 in0.0 mm 0.01 in0.3 mm
04:06 PM 62.7°F17.1°C 53.5°F11.9°C 72% 3.7 mph SE6.0 kmh SE 7.0 mph11.3 kmh 30.10 in1019.3 mb 0.00 in0.0 mm 0.00 in0.0 mm 0.01 in0.3 mm
04:05 PM 62.7°F17.1°C 53.5°F11.9°C 72% 4.5 mph SE7.2 kmh SE 7.0 mph11.3 kmh 30.10 in1019.3 mb 0.00 in0.0 mm 0.00 in0.0 mm 0.01 in0.3 mm
04:04 PM 62.7°F17.1°C 53.5°F11.9°C 72% 5.2 mph ESE8.4 kmh ESE 7.0 mph11.3 kmh 30.10 in1019.3 mb 0.00 in0.0 mm 0.00 in0.0 mm 0.01 in0.3 mm
04:03 PM 62.8°F17.1°C 53.3°F11.8°C 71% 4.8 mph SE7.7 kmh SE 6.0 mph9.7 kmh 30.10 in1019.3 mb 0.00 in0.0 mm 0.00 in0.0 mm 0.01 in0.3 mm
04:02 PM 62.8°F17.1°C 53.6°F12.0°C 72% 5.0 mph SE8.0 kmh SE 7.0 mph11.3 kmh 30.10 in1019.3 mb 0.00 in0.0 mm 0.00 in0.0 mm 0.01 in0.3 mm
04:01 PM 62.8°F17.1°C 53.3°F11.8°C 71% 6.0 mph SE9.7 kmh SE 7.0 mph11.3 kmh 30.10 in1019.3 mb 0.00 in0.0 mm 0.00 in0.0 mm 0.01 in0.3 mm
04:00 PM 62.8°F17.1°C 53.6°F12.0°C 72% 5.0 mph SE8.0 kmh SE 8.0 mph12.9 kmh 30.10 in1019.3 mb 0.00 in0.0 mm 0.00 in0.0 mm 0.01 in0.3 mm
03:59 PM 62.8°F17.1°C 53.6°F12.0°C 72% 4.3 mph ESE6.9 kmh ESE 8.0 mph12.9 kmh 30.10 in1019.3 mb 0.00 in0.0 mm 0.00 in0.0 mm 0.01 in0.3 mm
03:58 PM 62.7°F17.1°C 53.2°F11.8°C 71% 5.3 mph SE8.5 kmh SE 8.0 mph12.9 kmh 30.10 in1019.3 mb 0.00 in0.0 mm 0.00 in0.0 mm 0.01 in0.3 mm
03:57 PM 62.8°F17.1°C 53.3°F11.8°C 71% 6.3 mph SE10.1 kmh SE 8.0 mph12.9 kmh 30.10 in1019.3 mb 0.00 in0.0 mm 0.00 in0.0 mm 0.01 in0.3 mm
03:56 PM 62.8°F17.1°C 53.6°F12.0°C 72% 3.3 mph ESE5.3 kmh ESE 8.0 mph12.9 kmh 30.10 in1019.3 mb 0.00 in0.0 mm 0.00 in0.0 mm 0.01 in0.3 mm
03:55 PM 62.7°F17.1°C 53.5°F11.9°C 72% 5.2 mph SE8.4 kmh SE 8.0 mph12.9 kmh 30.10 in1019.3 mb 0.00 in0.0 mm 0.00 in0.0 mm 0.01 in0.3 mm
03:54 PM 62.8°F17.1°C 53.6°F12.0°C 72% 5.3 mph ESE8.5 kmh ESE 7.0 mph11.3 kmh 30.10 in1019.3 mb 0.00 in0.0 mm 0.00 in0.0 mm 0.01 in0.3 mm
03:53 PM 62.8°F17.1°C 54.4°F12.4°C 74% 3.0 mph ESE4.8 kmh ESE 4.0 mph6.4 kmh 30.10 in1019.3 mb 0.00 in0.0 mm 0.00 in0.0 mm 0.01 in0.3 mm
03:52 PM 62.7°F17.1°C 53.9°F12.2°C 73% 4.0 mph ESE6.4 kmh ESE 6.0 mph9.7 kmh 30.10 in1019.3 mb 0.00 in0.0 mm 0.00 in0.0 mm 0.01 in0.3 mm
03:51 PM 62.7°F17.1°C 53.9°F12.2°C 73% 4.8 mph ESE7.7 kmh ESE 7.0 mph11.3 kmh 30.10 in1019.3 mb 0.00 in0.0 mm 0.00 in0.0 mm 0.01 in0.3 mm
03:50 PM 62.7°F17.1°C 53.9°F12.2°C 73% 4.5 mph ESE7.2 kmh ESE 8.0 mph12.9 kmh 30.10 in1019.3 mb 0.00 in0.0 mm 0.00 in0.0 mm 0.01 in0.3 mm
03:49 PM 62.7°F17.1°C 53.9°F12.2°C 73% 6.0 mph ESE9.7 kmh ESE 8.0 mph12.9 kmh 30.10 in1019.3 mb 0.00 in0.0 mm 0.00 in0.0 mm 0.01 in0.3 mm
03:48 PM 62.7°F17.1°C 53.9°F12.2°C 73% 3.8 mph ESE6.1 kmh ESE 6.0 mph9.7 kmh 30.10 in1019.3 mb 0.00 in0.0 mm 0.00 in0.0 mm 0.01 in0.3 mm
03:47 PM 62.7°F17.1°C 53.9°F12.2°C 73% 3.3 mph ESE5.3 kmh ESE 7.0 mph11.3 kmh 30.10 in1019.3 mb 0.00 in0.0 mm 0.00 in0.0 mm 0.01 in0.3 mm
03:46 PM 62.7°F17.1°C 53.9°F12.2°C 73% 3.9 mph ESE6.3 kmh ESE 7.0 mph11.3 kmh 30.10 in1019.3 mb 0.00 in0.0 mm 0.00 in0.0 mm 0.01 in0.3 mm
03:45 PM 62.7°F17.1°C 53.9°F12.2°C 73% 4.9 mph ESE7.9 kmh ESE 8.0 mph12.9 kmh 30.10 in1019.3 mb 0.00 in0.0 mm 0.00 in0.0 mm 0.01 in0.3 mm
03:44 PM 62.6°F17.0°C 53.4°F11.9°C 72% 6.1 mph ESE9.8 kmh ESE 8.0 mph12.9 kmh 30.10 in1019.3 mb 0.00 in0.0 mm 0.00 in0.0 mm 0.01 in0.3 mm
03:43 PM 62.6°F17.0°C 53.8°F12.1°C 73% 5.9 mph ESE9.5 kmh ESE 8.0 mph12.9 kmh 30.10 in1019.3 mb 0.00 in0.0 mm 0.00 in0.0 mm 0.01 in0.3 mm
03:42 PM 62.6°F17.0°C 53.8°F12.1°C 73% 6.2 mph ESE10.0 kmh ESE 8.0 mph12.9 kmh 30.10 in1019.3 mb 0.00 in0.0 mm 0.00 in0.0 mm 0.01 in0.3 mm
03:41 PM 62.7°F17.1°C 53.5°F11.9°C 72% 6.4 mph ESE10.3 kmh ESE 9.0 mph14.5 kmh 30.10 in1019.3 mb 0.00 in0.0 mm 0.00 in0.0 mm 0.01 in0.3 mm
03:40 PM 62.7°F17.1°C 53.5°F11.9°C 72% 5.2 mph ESE8.4 kmh ESE 9.0 mph14.5 kmh 30.10 in1019.3 mb 0.00 in0.0 mm 0.00 in0.0 mm 0.01 in0.3 mm
03:39 PM 62.7°F17.1°C 53.5°F11.9°C 72% 6.7 mph ESE10.8 kmh ESE 9.0 mph14.5 kmh 30.10 in1019.3 mb 0.00 in0.0 mm 0.00 in0.0 mm 0.01 in0.3 mm
03:38 PM 62.7°F17.1°C 53.5°F11.9°C 72% 5.9 mph ESE9.5 kmh ESE 8.0 mph12.9 kmh 30.10 in1019.3 mb 0.00 in0.0 mm 0.00 in0.0 mm 0.01 in0.3 mm
03:37 PM 62.7°F17.1°C 53.5°F11.9°C 72% 4.4 mph ESE7.1 kmh ESE 8.0 mph12.9 kmh 30.10 in1019.3 mb 0.00 in0.0 mm 0.00 in0.0 mm 0.01 in0.3 mm
03:36 PM 62.8°F17.1°C 53.6°F12.0°C 72% 5.7 mph ESE9.2 kmh ESE 8.0 mph12.9 kmh 30.10 in1019.3 mb 0.00 in0.0 mm 0.00 in0.0 mm 0.01 in0.3 mm
03:35 PM 62.8°F17.1°C 53.6°F12.0°C 72% 4.0 mph ESE6.4 kmh ESE 6.0 mph9.7 kmh 30.10 in1019.3 mb 0.00 in0.0 mm 0.00 in0.0 mm 0.01 in0.3 mm
03:34 PM 62.8°F17.1°C 53.6°F12.0°C 72% 5.0 mph ESE8.0 kmh ESE 7.0 mph11.3 kmh 30.10 in1019.3 mb 0.00 in0.0 mm 0.00 in0.0 mm 0.01 in0.3 mm
03:33 PM 62.9°F17.2°C 53.7°F12.1°C 72% 5.0 mph ESE8.0 kmh ESE 6.0 mph9.7 kmh 30.10 in1019.3 mb 0.00 in0.0 mm 0.00 in0.0 mm 0.01 in0.3 mm
03:32 PM 62.9°F17.2°C 54.1°F12.3°C 73% 5.2 mph SE8.4 kmh SE 8.0 mph12.9 kmh 30.10 in1019.3 mb 0.00 in0.0 mm 0.00 in0.0 mm 0.01 in0.3 mm
03:31 PM 62.9°F17.2°C 54.1°F12.3°C 73% 5.6 mph ESE9.0 kmh ESE 8.0 mph12.9 kmh 30.10 in1019.3 mb 0.00 in0.0 mm 0.00 in0.0 mm 0.01 in0.3 mm
03:30 PM 63.0°F17.2°C 53.8°F12.1°C 72% 6.6 mph ESE10.6 kmh ESE 8.0 mph12.9 kmh 30.10 in1019.3 mb 0.00 in0.0 mm 0.00 in0.0 mm 0.01 in0.3 mm
03:29 PM 63.0°F17.2°C 53.8°F12.1°C 72% 7.3 mph ESE11.7 kmh ESE 9.0 mph14.5 kmh 30.10 in1019.3 mb 0.00 in0.0 mm 0.00 in0.0 mm 0.01 in0.3 mm
03:28 PM 63.1°F17.3°C 53.9°F12.2°C 72% 6.6 mph ESE10.6 kmh ESE 9.0 mph14.5 kmh 30.10 in1019.3 mb 0.00 in0.0 mm 0.00 in0.0 mm 0.01 in0.3 mm
03:27 PM 63.1°F17.3°C 54.3°F12.4°C 73% 4.8 mph SE7.7 kmh SE 8.0 mph12.9 kmh 30.10 in1019.3 mb 0.00 in0.0 mm 0.00 in0.0 mm 0.01 in0.3 mm
03:26 PM 63.0°F17.2°C 54.2°F12.3°C 73% 4.5 mph SE7.2 kmh SE 7.0 mph11.3 kmh 30.10 in1019.3 mb 0.00 in0.0 mm 0.00 in0.0 mm 0.01 in0.3 mm
03:25 PM 63.1°F17.3°C 54.3°F12.4°C 73% 4.1 mph SE6.6 kmh SE 8.0 mph12.9 kmh 30.10 in1019.3 mb 0.00 in0.0 mm 0.00 in0.0 mm 0.01 in0.3 mm
03:24 PM 63.1°F17.3°C 54.3°F12.4°C 73% 6.0 mph ESE9.7 kmh ESE 8.0 mph12.9 kmh 30.10 in1019.3 mb 0.00 in0.0 mm 0.00 in0.0 mm 0.01 in0.3 mm
03:23 PM 63.0°F17.2°C 54.2°F12.3°C 73% 5.7 mph SE9.2 kmh SE 8.0 mph12.9 kmh 30.10 in1019.3 mb 0.00 in0.0 mm 0.00 in0.0 mm 0.01 in0.3 mm
03:22 PM 63.0°F17.2°C 54.6°F12.6°C 74% 5.7 mph ESE9.2 kmh ESE 7.0 mph11.3 kmh 30.10 in1019.3 mb 0.00 in0.0 mm 0.00 in0.0 mm 0.01 in0.3 mm
03:21 PM 63.0°F17.2°C 54.2°F12.3°C 73% 6.6 mph ESE10.6 kmh ESE 7.0 mph11.3 kmh 30.10 in1019.3 mb 0.00 in0.0 mm 0.00 in0.0 mm 0.01 in0.3 mm
03:20 PM 62.9°F17.2°C 54.5°F12.5°C 74% 5.0 mph ESE8.0 kmh ESE 8.0 mph12.9 kmh 30.10 in1019.3 mb 0.00 in0.0 mm 0.00 in0.0 mm 0.01 in0.3 mm
03:19 PM 62.8°F17.1°C 54.4°F12.4°C 74% 5.0 mph ESE8.0 kmh ESE 7.0 mph11.3 kmh 30.10 in1019.3 mb 0.00 in0.0 mm 0.00 in0.0 mm 0.01 in0.3 mm
03:18 PM 62.7°F17.1°C 54.3°F12.4°C 74% 3.4 mph ESE5.5 kmh ESE 6.0 mph9.7 kmh 30.10 in1019.3 mb 0.00 in0.0 mm 0.00 in0.0 mm 0.01 in0.3 mm
03:17 PM 62.7°F17.1°C 54.7°F12.6°C 75% 3.5 mph ESE5.6 kmh ESE 10.0 mph16.1 kmh 30.10 in1019.3 mb 0.00 in0.0 mm 0.00 in0.0 mm 0.01 in0.3 mm
03:16 PM 62.7°F17.1°C 54.3°F12.4°C 74% 7.5 mph ESE12.1 kmh ESE 10.0 mph16.1 kmh 30.10 in1019.3 mb 0.00 in0.0 mm 0.00 in0.0 mm 0.01 in0.3 mm
03:15 PM 62.7°F17.1°C 54.3°F12.4°C 74% 7.9 mph ESE12.7 kmh ESE 10.0 mph16.1 kmh 30.10 in1019.3 mb 0.00 in0.0 mm 0.00 in0.0 mm 0.01 in0.3 mm
03:14 PM 62.7°F17.1°C 54.3°F12.4°C 74% 6.2 mph ESE10.0 kmh ESE 8.0 mph12.9 kmh 30.10 in1019.3 mb 0.00 in0.0 mm 0.00 in0.0 mm 0.01 in0.3 mm
03:13 PM 62.7°F17.1°C 54.3°F12.4°C 74% 5.1 mph E8.2 kmh E 9.0 mph14.5 kmh 30.10 in1019.3 mb 0.00 in0.0 mm 0.00 in0.0 mm 0.01 in0.3 mm
03:12 PM 62.7°F17.1°C 54.3°F12.4°C 74% 6.9 mph ESE11.1 kmh ESE 9.0 mph14.5 kmh 30.10 in1019.3 mb 0.00 in0.0 mm 0.00 in0.0 mm 0.01 in0.3 mm
03:11 PM 62.8°F17.1°C 54.4°F12.4°C 74% 6.4 mph ESE10.3 kmh ESE 8.0 mph12.9 kmh 30.10 in1019.3 mb 0.00 in0.0 mm 0.00 in0.0 mm 0.01 in0.3 mm
03:10 PM 62.8°F17.1°C 54.4°F12.4°C 74% 7.1 mph ESE11.4 kmh ESE 9.0 mph14.5 kmh 30.10 in1019.3 mb 0.00 in0.0 mm 0.00 in0.0 mm 0.01 in0.3 mm
03:09 PM 62.8°F17.1°C 54.4°F12.4°C 74% 3.9 mph ESE6.3 kmh ESE 9.0 mph14.5 kmh 30.10 in1019.3 mb 0.00 in0.0 mm 0.00 in0.0 mm 0.01 in0.3 mm
03:08 PM 62.8°F17.1°C 54.0°F12.2°C 73% 5.6 mph SE9.0 kmh SE 9.0 mph14.5 kmh 30.10 in1019.3 mb 0.00 in0.0 mm 0.00 in0.0 mm 0.01 in0.3 mm
03:07 PM 62.8°F17.1°C 54.0°F12.2°C 73% 6.7 mph SE10.8 kmh SE 11.0 mph17.7 kmh 30.10 in1019.3 mb 0.00 in0.0 mm 0.00 in0.0 mm 0.01 in0.3 mm
03:06 PM 62.9°F17.2°C 54.1°F12.3°C 73% 7.7 mph SE12.4 kmh SE 11.0 mph17.7 kmh 30.10 in1019.3 mb 0.00 in0.0 mm 0.00 in0.0 mm 0.01 in0.3 mm
03:05 PM 62.9°F17.2°C 54.1°F12.3°C 73% 7.5 mph SE12.1 kmh SE 9.0 mph14.5 kmh 30.10 in1019.3 mb 0.00 in0.0 mm 0.00 in0.0 mm 0.01 in0.3 mm
03:04 PM 62.9°F17.2°C 54.1°F12.3°C 73% 7.8 mph SE12.6 kmh SE 9.0 mph14.5 kmh 30.10 in1019.3 mb 0.00 in0.0 mm 0.00 in0.0 mm 0.01 in0.3 mm
03:03 PM 63.0°F17.2°C 54.2°F12.3°C 73% 7.5 mph ESE12.1 kmh ESE 11.0 mph17.7 kmh 30.10 in1019.3 mb 0.00 in0.0 mm 0.00 in0.0 mm 0.01 in0.3 mm
03:02 PM 63.0°F17.2°C 54.6°F12.6°C 74% 8.9 mph SE14.3 kmh SE 11.0 mph17.7 kmh 30.10 in1019.3 mb 0.00 in0.0 mm 0.00 in0.0 mm 0.01 in0.3 mm
03:01 PM 63.1°F17.3°C 54.7°F12.6°C 74% 5.6 mph ESE9.0 kmh ESE 8.0 mph12.9 kmh 30.10 in1019.3 mb 0.00 in0.0 mm 0.00 in0.0 mm 0.01 in0.3 mm
03:00 PM 63.1°F17.3°C 54.7°F12.6°C 74% 6.4 mph ESE10.3 kmh ESE 8.0 mph12.9 kmh 30.10 in1019.3 mb 0.00 in0.0 mm 0.00 in0.0 mm 0.01 in0.3 mm
02:59 PM 63.0°F17.2°C 54.6°F12.6°C 74% 5.7 mph SE9.2 kmh SE 10.0 mph16.1 kmh 30.10 in1019.3 mb 0.00 in0.0 mm 0.00 in0.0 mm 0.01 in0.3 mm
02:58 PM 63.0°F17.2°C 54.2°F12.3°C 73% 8.1 mph ESE13.0 kmh ESE 10.0 mph16.1 kmh 30.10 in1019.3 mb 0.00 in0.0 mm 0.00 in0.0 mm 0.01 in0.3 mm
02:57 PM 63.1°F17.3°C 54.3°F12.4°C 73% 7.5 mph ESE12.1 kmh ESE 11.0 mph17.7 kmh 30.10 in1019.3 mb 0.00 in0.0 mm 0.00 in0.0 mm 0.01 in0.3 mm
02:56 PM 63.1°F17.3°C 54.3°F12.4°C 73% 9.5 mph ESE15.3 kmh ESE 11.0 mph17.7 kmh 30.10 in1019.3 mb 0.00 in0.0 mm 0.00 in0.0 mm 0.01 in0.3 mm
02:55 PM 63.2°F17.3°C 54.4°F12.4°C 73% 7.6 mph ESE12.2 kmh ESE 9.0 mph14.5 kmh 30.09 in1019.0 mb 0.00 in0.0 mm 0.00 in0.0 mm 0.01 in0.3 mm
02:54 PM 63.1°F17.3°C 54.3°F12.4°C 73% 4.0 mph ESE6.4 kmh ESE 7.0 mph11.3 kmh 30.09 in1019.0 mb 0.00 in0.0 mm 0.00 in0.0 mm 0.01 in0.3 mm
02:53 PM 63.1°F17.3°C 54.3°F12.4°C 73% 6.0 mph ESE9.7 kmh ESE 9.0 mph14.5 kmh 30.09 in1019.0 mb 0.00 in0.0 mm 0.00 in0.0 mm 0.01 in0.3 mm
02:52 PM 63.1°F17.3°C 54.3°F12.4°C 73% 4.6 mph ESE7.4 kmh ESE 10.0 mph16.1 kmh 30.09 in1019.0 mb 0.00 in0.0 mm 0.00 in0.0 mm 0.01 in0.3 mm
02:51 PM 63.1°F17.3°C 54.3°F12.4°C 73% 8.9 mph E14.3 kmh E 10.0 mph16.1 kmh 30.09 in1019.0 mb 0.00 in0.0 mm 0.00 in0.0 mm 0.01 in0.3 mm
02:50 PM 63.2°F17.3°C 54.8°F12.7°C 74% 7.0 mph E11.3 kmh E 10.0 mph16.1 kmh 30.09 in1019.0 mb 0.00 in0.0 mm 0.00 in0.0 mm 0.01 in0.3 mm
02:49 PM 63.2°F17.3°C 54.4°F12.4°C 73% 6.6 mph ESE10.6 kmh ESE 9.0 mph14.5 kmh 30.09 in1019.0 mb 0.00 in0.0 mm 0.00 in0.0 mm 0.01 in0.3 mm
02:48 PM 63.1°F17.3°C 54.3°F12.4°C 73% 6.0 mph ESE9.7 kmh ESE 9.0 mph14.5 kmh 30.09 in1019.0 mb 0.00 in0.0 mm 0.00 in0.0 mm 0.01 in0.3 mm
02:47 PM 63.1°F17.3°C 54.3°F12.4°C 73% 7.7 mph ESE12.4 kmh ESE 9.0 mph14.5 kmh 30.09 in1019.0 mb 0.00 in0.0 mm 0.00 in0.0 mm 0.01 in0.3 mm
02:46 PM 63.0°F17.2°C 54.9°F12.7°C 75% 5.0 mph ESE8.0 kmh ESE 6.0 mph9.7 kmh 30.09 in1019.0 mb 0.00 in0.0 mm 0.00 in0.0 mm 0.01 in0.3 mm
02:45 PM 63.0°F17.2°C 54.2°F12.3°C 73% 6.0 mph E9.7 kmh E 8.0 mph12.9 kmh 30.09 in1019.0 mb 0.00 in0.0 mm 0.00 in0.0 mm 0.01 in0.3 mm
02:44 PM 63.0°F17.2°C 54.2°F12.3°C 73% 5.5 mph ESE8.9 kmh ESE 8.0 mph12.9 kmh 30.10 in1019.3 mb 0.00 in0.0 mm 0.00 in0.0 mm 0.01 in0.3 mm
02:43 PM 63.0°F17.2°C 54.6°F12.6°C 74% 4.4 mph ESE7.1 kmh ESE 8.0 mph12.9 kmh 30.09 in1019.0 mb 0.00 in0.0 mm 0.00 in0.0 mm 0.01 in0.3 mm
02:42 PM 62.9°F17.2°C 54.5°F12.5°C 74% 4.2 mph SE6.8 kmh SE 8.0 mph12.9 kmh 30.09 in1019.0 mb 0.00 in0.0 mm 0.00 in0.0 mm 0.01 in0.3 mm
02:41 PM 62.8°F17.1°C 54.0°F12.2°C 73% 6.7 mph SE10.8 kmh SE 9.0 mph14.5 kmh 30.09 in1019.0 mb 0.00 in0.0 mm 0.00 in0.0 mm 0.01 in0.3 mm
02:40 PM 62.8°F17.1°C 54.4°F12.4°C 74% 6.8 mph SE10.9 kmh SE 9.0 mph14.5 kmh 30.10 in1019.3 mb 0.00 in0.0 mm 0.00 in0.0 mm 0.01 in0.3 mm
02:39 PM 62.8°F17.1°C 54.4°F12.4°C 74% 6.9 mph SE11.1 kmh SE 9.0 mph14.5 kmh 30.09 in1019.0 mb 0.00 in0.0 mm 0.00 in0.0 mm 0.01 in0.3 mm
02:38 PM 62.8°F17.1°C 54.0°F12.2°C 73% 4.9 mph SE7.9 kmh SE 10.0 mph16.1 kmh 30.10 in1019.3 mb 0.00 in0.0 mm 0.00 in0.0 mm 0.01 in0.3 mm
02:37 PM 62.8°F17.1°C 54.4°F12.4°C 74% 6.7 mph ESE10.8 kmh ESE 9.0 mph14.5 kmh 30.10 in1019.3 mb 0.00 in0.0 mm 0.00 in0.0 mm 0.01 in0.3 mm
02:36 PM 62.9°F17.2°C 54.1°F12.3°C 73% 7.6 mph ESE12.2 kmh ESE 9.0 mph14.5 kmh 30.09 in1019.0 mb 0.00 in0.0 mm 0.00 in0.0 mm 0.01 in0.3 mm
02:35 PM 63.0°F17.2°C 54.2°F12.3°C 73% 8.0 mph ESE12.9 kmh ESE 9.0 mph14.5 kmh 30.09 in1019.0 mb 0.00 in0.0 mm 0.00 in0.0 mm 0.01 in0.3 mm
02:34 PM 63.0°F17.2°C 54.2°F12.3°C 73% 7.2 mph ESE11.6 kmh ESE 8.0 mph12.9 kmh 30.09 in1019.0 mb 0.00 in0.0 mm 0.00 in0.0 mm 0.01 in0.3 mm
02:33 PM 63.0°F17.2°C 54.6°F12.6°C 74% 5.5 mph ESE8.9 kmh ESE 8.0 mph12.9 kmh 30.09 in1019.0 mb 0.00 in0.0 mm 0.00 in0.0 mm 0.01 in0.3 mm
02:32 PM 63.1°F17.3°C 54.7°F12.6°C 74% 4.9 mph SE7.9 kmh SE 7.0 mph11.3 kmh 30.09 in1019.0 mb 0.00 in0.0 mm 0.00 in0.0 mm 0.01 in0.3 mm
02:31 PM 63.1°F17.3°C 54.7°F12.6°C 74% 5.8 mph ESE9.3 kmh ESE 9.0 mph14.5 kmh 30.09 in1019.0 mb 0.00 in0.0 mm 0.00 in0.0 mm 0.01 in0.3 mm
02:30 PM 63.0°F17.2°C 54.2°F12.3°C 73% 5.8 mph ESE9.3 kmh ESE 9.0 mph14.5 kmh 30.09 in1019.0 mb 0.00 in0.0 mm 0.00 in0.0 mm 0.01 in0.3 mm
02:29 PM 63.1°F17.3°C 54.7°F12.6°C 74% 6.7 mph SE10.8 kmh SE 8.0 mph12.9 kmh 30.09 in1019.0 mb 0.00 in0.0 mm 0.00 in0.0 mm 0.01 in0.3 mm
02:28 PM 63.0°F17.2°C 54.6°F12.6°C 74% 4.3 mph SE6.9 kmh SE 8.0 mph12.9 kmh 30.09 in1019.0 mb 0.00 in0.0 mm 0.00 in0.0 mm 0.01 in0.3 mm
02:27 PM 63.0°F17.2°C 54.6°F12.6°C 74% 4.0 mph SE6.4 kmh SE 7.0 mph11.3 kmh 30.09 in1019.0 mb 0.00 in0.0 mm 0.00 in0.0 mm 0.01 in0.3 mm
02:26 PM 62.9°F17.2°C 54.5°F12.5°C 74% 3.0 mph ESE4.8 kmh ESE 6.0 mph9.7 kmh 30.09 in1019.0 mb 0.00 in0.0 mm 0.00 in0.0 mm 0.01 in0.3 mm
02:25 PM 62.9°F17.2°C 54.5°F12.5°C 74% 5.0 mph ESE8.0 kmh ESE 7.0 mph11.3 kmh 30.09 in1019.0 mb 0.00 in0.0 mm 0.00 in0.0 mm 0.01 in0.3 mm
02:24 PM 62.8°F17.1°C 54.4°F12.4°C 74% 4.4 mph SE7.1 kmh SE 7.0 mph11.3 kmh 30.09 in1019.0 mb 0.00 in0.0 mm 0.00 in0.0 mm 0.01 in0.3 mm
02:23 PM 62.8°F17.1°C 54.4°F12.4°C 74% 4.5 mph ESE7.2 kmh ESE 8.0 mph12.9 kmh 30.09 in1019.0 mb 0.00 in0.0 mm 0.00 in0.0 mm 0.01 in0.3 mm
02:22 PM 62.8°F17.1°C 54.0°F12.2°C 73% 5.8 mph SE9.3 kmh SE 9.0 mph14.5 kmh 30.09 in1019.0 mb 0.00 in0.0 mm 0.00 in0.0 mm 0.01 in0.3 mm
02:21 PM 62.8°F17.1°C 54.4°F12.4°C 74% 6.0 mph SE9.7 kmh SE 9.0 mph14.5 kmh 30.10 in1019.3 mb 0.00 in0.0 mm 0.00 in0.0 mm 0.01 in0.3 mm
02:20 PM 62.8°F17.1°C 54.4°F12.4°C 74% 5.5 mph SE8.9 kmh SE 8.0 mph12.9 kmh 30.10 in1019.3 mb 0.00 in0.0 mm 0.00 in0.0 mm 0.01 in0.3 mm
02:19 PM 62.8°F17.1°C 54.4°F12.4°C 74% 6.4 mph ESE10.3 kmh ESE 8.0 mph12.9 kmh 30.09 in1019.0 mb 0.00 in0.0 mm 0.00 in0.0 mm 0.01 in0.3 mm
02:18 PM 62.8°F17.1°C 54.0°F12.2°C 73% 5.4 mph SE8.7 kmh SE 8.0 mph12.9 kmh 30.10 in1019.3 mb 0.00 in0.0 mm 0.00 in0.0 mm 0.01 in0.3 mm
02:17 PM 62.8°F17.1°C 54.4°F12.4°C 74% 4.2 mph SE6.8 kmh SE 7.0 mph11.3 kmh 30.09 in1019.0 mb 0.00 in0.0 mm 0.00 in0.0 mm 0.01 in0.3 mm
02:16 PM 62.8°F17.1°C 54.4°F12.4°C 74% 2.4 mph SE3.9 kmh SE 7.0 mph11.3 kmh 30.10 in1019.3 mb 0.00 in0.0 mm 0.00 in0.0 mm 0.01 in0.3 mm
02:15 PM 62.8°F17.1°C 54.0°F12.2°C 73% 5.0 mph ESE8.0 kmh ESE 7.0 mph11.3 kmh 30.10 in1019.3 mb 0.00 in0.0 mm 0.00 in0.0 mm 0.01 in0.3 mm
02:14 PM 62.8°F17.1°C 54.4°F12.4°C 74% 5.9 mph ESE9.5 kmh ESE 9.0 mph14.5 kmh 30.10 in1019.3 mb 0.00 in0.0 mm 0.00 in0.0 mm 0.01 in0.3 mm
02:13 PM 62.9°F17.2°C 54.1°F12.3°C 73% 6.6 mph ESE10.6 kmh ESE 9.0 mph14.5 kmh 30.09 in1019.0 mb 0.00 in0.0 mm 0.00 in0.0 mm 0.01 in0.3 mm
02:12 PM 62.9°F17.2°C 54.5°F12.5°C 74% 5.2 mph ESE8.4 kmh ESE 7.0 mph11.3 kmh 30.10 in1019.3 mb 0.00 in0.0 mm 0.00 in0.0 mm 0.01 in0.3 mm
02:11 PM 62.9°F17.2°C 54.8°F12.7°C 75% 4.8 mph ESE7.7 kmh ESE 7.0 mph11.3 kmh 30.10 in1019.3 mb 0.00 in0.0 mm 0.00 in0.0 mm 0.01 in0.3 mm
02:10 PM 62.8°F17.1°C 54.8°F12.7°C 75% 4.6 mph SE7.4 kmh SE 9.0 mph14.5 kmh 30.10 in1019.3 mb 0.00 in0.0 mm 0.00 in0.0 mm 0.01 in0.3 mm
02:09 PM 62.8°F17.1°C 54.4°F12.4°C 74% 6.6 mph SE10.6 kmh SE 10.0 mph16.1 kmh 30.10 in1019.3 mb 0.00 in0.0 mm 0.00 in0.0 mm 0.01 in0.3 mm
02:08 PM 62.8°F17.1°C 54.4°F12.4°C 74% 7.3 mph SE11.7 kmh SE 10.0 mph16.1 kmh 30.10 in1019.3 mb 0.00 in0.0 mm 0.00 in0.0 mm 0.01 in0.3 mm
02:07 PM 62.8°F17.1°C 54.4°F12.4°C 74% 6.3 mph SE10.1 kmh SE 8.0 mph12.9 kmh 30.10 in1019.3 mb 0.00 in0.0 mm 0.00 in0.0 mm 0.01 in0.3 mm
02:06 PM 62.7°F17.1°C 54.3°F12.4°C 74% 4.6 mph SE7.4 kmh SE 8.0 mph12.9 kmh 30.10 in1019.3 mb 0.00 in0.0 mm 0.00 in0.0 mm 0.01 in0.3 mm
02:05 PM 62.8°F17.1°C 54.4°F12.4°C 74% 5.1 mph ESE8.2 kmh ESE 8.0 mph12.9 kmh 30.10 in1019.3 mb 0.00 in0.0 mm 0.00 in0.0 mm 0.01 in0.3 mm
02:04 PM 62.8°F17.1°C 54.0°F12.2°C 73% 6.6 mph ESE10.6 kmh ESE 8.0 mph12.9 kmh 30.10 in1019.3 mb 0.00 in0.0 mm 0.00 in0.0 mm 0.01 in0.3 mm
02:03 PM 62.9°F17.2°C 54.1°F12.3°C 73% 7.2 mph ESE11.6 kmh ESE 9.0 mph14.5 kmh 30.10 in1019.3 mb 0.00 in0.0 mm 0.00 in0.0 mm 0.01 in0.3 mm
02:02 PM 63.0°F17.2°C 54.2°F12.3°C 73% 6.6 mph ESE10.6 kmh ESE 9.0 mph14.5 kmh 30.10 in1019.3 mb 0.00 in0.0 mm 0.00 in0.0 mm 0.01 in0.3 mm
02:01 PM 63.0°F17.2°C 54.2°F12.3°C 73% 5.4 mph SE8.7 kmh SE 8.0 mph12.9 kmh 30.10 in1019.3 mb 0.00 in0.0 mm 0.00 in0.0 mm 0.01 in0.3 mm
02:00 PM 63.1°F17.3°C 54.7°F12.6°C 74% 7.0 mph ESE11.3 kmh ESE 10.0 mph16.1 kmh 30.09 in1019.0 mb 0.00 in0.0 mm 0.00 in0.0 mm 0.01 in0.3 mm
01:59 PM 63.1°F17.3°C 54.7°F12.6°C 74% 7.2 mph SE11.6 kmh SE 10.0 mph16.1 kmh 30.10 in1019.3 mb 0.00 in0.0 mm 0.00 in0.0 mm 0.01 in0.3 mm
01:58 PM 63.1°F17.3°C 54.3°F12.4°C 73% 5.4 mph ESE8.7 kmh ESE 9.0 mph14.5 kmh 30.09 in1019.0 mb 0.00 in0.0 mm 0.00 in0.0 mm 0.01 in0.3 mm
01:57 PM 63.1°F17.3°C 54.3°F12.4°C 73% 6.1 mph ESE9.8 kmh ESE 9.0 mph14.5 kmh 30.10 in1019.3 mb 0.00 in0.0 mm 0.00 in0.0 mm 0.01 in0.3 mm
01:56 PM 63.2°F17.3°C 54.4°F12.4°C 73% 6.0 mph ESE9.7 kmh ESE 10.0 mph16.1 kmh 30.10 in1019.3 mb 0.00 in0.0 mm 0.00 in0.0 mm 0.01 in0.3 mm
01:55 PM 63.2°F17.3°C 54.4°F12.4°C 73% 8.5 mph ESE13.7 kmh ESE 10.0 mph16.1 kmh 30.09 in1019.0 mb 0.00 in0.0 mm 0.00 in0.0 mm 0.01 in0.3 mm
01:54 PM 63.2°F17.3°C 54.4°F12.4°C 73% 8.5 mph ESE13.7 kmh ESE 10.0 mph16.1 kmh 30.10 in1019.3 mb 0.00 in0.0 mm 0.00 in0.0 mm 0.01 in0.3 mm
01:53 PM 63.2°F17.3°C 54.8°F12.7°C 74% 7.5 mph ESE12.1 kmh ESE 10.0 mph16.1 kmh 30.09 in1019.0 mb 0.00 in0.0 mm 0.00 in0.0 mm 0.01 in0.3 mm
01:52 PM 63.2°F17.3°C 54.8°F12.7°C 74% 8.0 mph ESE12.9 kmh ESE 10.0 mph16.1 kmh 30.09 in1019.0 mb 0.00 in0.0 mm 0.00 in0.0 mm 0.01 in0.3 mm
01:51 PM 63.2°F17.3°C 54.8°F12.7°C 74% 7.0 mph ESE11.3 kmh ESE 9.0 mph14.5 kmh 30.09 in1019.0 mb 0.00 in0.0 mm 0.00 in0.0 mm 0.01 in0.3 mm
01:50 PM 63.2°F17.3°C 54.8°F12.7°C 74% 5.7 mph ESE9.2 kmh ESE 9.0 mph14.5 kmh 30.09 in1019.0 mb 0.00 in0.0 mm 0.00 in0.0 mm 0.01 in0.3 mm
01:49 PM 63.1°F17.3°C 55.0°F12.8°C 75% 2.2 mph ESE3.5 kmh ESE 6.0 mph9.7 kmh 30.09 in1019.0 mb 0.00 in0.0 mm 0.00 in0.0 mm 0.01 in0.3 mm
01:48 PM 63.0°F17.2°C 54.6°F12.6°C 74% 3.4 mph E5.5 kmh E 9.0 mph14.5 kmh 30.09 in1019.0 mb 0.00 in0.0 mm 0.00 in0.0 mm 0.01 in0.3 mm
01:47 PM 63.0°F17.2°C 54.2°F12.3°C 73% 7.3 mph E11.7 kmh E 10.0 mph16.1 kmh 30.09 in1019.0 mb 0.00 in0.0 mm 0.00 in0.0 mm 0.01 in0.3 mm
01:46 PM 63.0°F17.2°C 54.6°F12.6°C 74% 8.0 mph E12.9 kmh E 10.0 mph16.1 kmh 30.09 in1019.0 mb 0.00 in0.0 mm 0.00 in0.0 mm 0.01 in0.3 mm
01:45 PM 63.0°F17.2°C 54.6°F12.6°C 74% 7.4 mph ESE11.9 kmh ESE 9.0 mph14.5 kmh 30.09 in1019.0 mb 0.00 in0.0 mm 0.00 in0.0 mm 0.01 in0.3 mm
01:44 PM 63.0°F17.2°C 54.9°F12.7°C 75% 5.0 mph SE8.0 kmh SE 11.0 mph17.7 kmh 30.09 in1019.0 mb 0.00 in0.0 mm 0.00 in0.0 mm 0.01 in0.3 mm
01:43 PM 63.0°F17.2°C 54.6°F12.6°C 74% 8.2 mph SE13.2 kmh SE 11.0 mph17.7 kmh 30.09 in1019.0 mb 0.00 in0.0 mm 0.00 in0.0 mm 0.01 in0.3 mm
01:42 PM 63.0°F17.2°C 54.9°F12.7°C 75% 6.8 mph SE10.9 kmh SE 10.0 mph16.1 kmh 30.09 in1019.0 mb 0.00 in0.0 mm 0.00 in0.0 mm 0.01 in0.3 mm
01:41 PM 62.9°F17.2°C 54.8°F12.7°C 75% 7.3 mph SE11.7 kmh SE 9.0 mph14.5 kmh 30.09 in1019.0 mb 0.00 in0.0 mm 0.00 in0.0 mm 0.01 in0.3 mm
01:40 PM 62.8°F17.1°C 54.4°F12.4°C 74% 6.5 mph SE10.5 kmh SE 8.0 mph12.9 kmh 30.09 in1019.0 mb 0.00 in0.0 mm 0.00 in0.0 mm 0.01 in0.3 mm
01:39 PM 62.8°F17.1°C 54.8°F12.7°C 75% 5.4 mph SE8.7 kmh SE 9.0 mph14.5 kmh 30.09 in1019.0 mb 0.00 in0.0 mm 0.00 in0.0 mm 0.01 in0.3 mm
01:38 PM 62.7°F17.1°C 54.3°F12.4°C 74% 6.4 mph SE10.3 kmh SE 10.0 mph16.1 kmh 30.09 in1019.0 mb 0.00 in0.0 mm 0.00 in0.0 mm 0.01 in0.3 mm
01:37 PM 62.7°F17.1°C 54.3°F12.4°C 74% 8.2 mph SE13.2 kmh SE 10.0 mph16.1 kmh 30.09 in1019.0 mb 0.00 in0.0 mm 0.00 in0.0 mm 0.01 in0.3 mm
01:36 PM 62.6°F17.0°C 54.2°F12.3°C 74% 7.6 mph SSE12.2 kmh SSE 10.0 mph16.1 kmh 30.09 in1019.0 mb 0.00 in0.0 mm 0.00 in0.0 mm 0.01 in0.3 mm
01:35 PM 62.6°F17.0°C 54.6°F12.6°C 75% 7.5 mph SE12.1 kmh SE 10.0 mph16.1 kmh 30.09 in1019.0 mb 0.00 in0.0 mm 0.00 in0.0 mm 0.01 in0.3 mm
01:34 PM 62.6°F17.0°C 54.6°F12.6°C 75% 6.4 mph SE10.3 kmh SE 10.0 mph16.1 kmh 30.09 in1019.0 mb 0.00 in0.0 mm 0.00 in0.0 mm 0.01 in0.3 mm
01:33 PM 62.5°F16.9°C 54.8°F12.7°C 76% 5.9 mph SE9.5 kmh SE 9.0 mph14.5 kmh 30.09 in1019.0 mb 0.00 in0.0 mm 0.00 in0.0 mm 0.01 in0.3 mm
01:32 PM 62.5°F16.9°C 54.1°F12.3°C 74% 5.8 mph SE9.3 kmh SE 8.0 mph12.9 kmh 30.09 in1019.0 mb 0.00 in0.0 mm 0.00 in0.0 mm 0.01 in0.3 mm
01:31 PM 62.5°F16.9°C 54.8°F12.7°C 76% 4.0 mph SE6.4 kmh SE 7.0 mph11.3 kmh 30.09 in1019.0 mb 0.00 in0.0 mm 0.00 in0.0 mm 0.01 in0.3 mm
01:30 PM 62.4°F16.9°C 54.7°F12.6°C 76% 4.8 mph SE7.7 kmh SE 10.0 mph16.1 kmh 30.09 in1019.0 mb 0.00 in0.0 mm 0.00 in0.0 mm 0.01 in0.3 mm
01:29 PM 62.4°F16.9°C 54.4°F12.4°C 75% 7.5 mph ESE12.1 kmh ESE 10.0 mph16.1 kmh 30.09 in1019.0 mb 0.00 in0.0 mm 0.00 in0.0 mm 0.01 in0.3 mm
01:28 PM 62.3°F16.8°C 54.3°F12.4°C 75% 6.0 mph ESE9.7 kmh ESE 8.0 mph12.9 kmh 30.09 in1019.0 mb 0.00 in0.0 mm 0.00 in0.0 mm 0.01 in0.3 mm
01:27 PM 62.4°F16.9°C 54.4°F12.4°C 75% 6.2 mph SE10.0 kmh SE 9.0 mph14.5 kmh 30.09 in1019.0 mb 0.00 in0.0 mm 0.00 in0.0 mm 0.01 in0.3 mm
01:26 PM 62.4°F16.9°C 54.0°F12.2°C 74% 7.4 mph ESE11.9 kmh ESE 11.0 mph17.7 kmh 30.09 in1019.0 mb 0.00 in0.0 mm 0.00 in0.0 mm 0.01 in0.3 mm
01:25 PM 62.5°F16.9°C 54.5°F12.5°C 75% 9.6 mph ESE15.4 kmh ESE 12.0 mph19.3 kmh 30.09 in1019.0 mb 0.00 in0.0 mm 0.00 in0.0 mm 0.01 in0.3 mm
01:24 PM 62.4°F16.9°C 54.0°F12.2°C 74% 8.1 mph ESE13.0 kmh ESE 12.0 mph19.3 kmh 30.09 in1019.0 mb 0.00 in0.0 mm 0.00 in0.0 mm 0.01 in0.3 mm
01:23 PM 62.5°F16.9°C 54.1°F12.3°C 74% 6.6 mph ESE10.6 kmh ESE 8.0 mph12.9 kmh 30.09 in1019.0 mb 0.00 in0.0 mm 0.00 in0.0 mm 0.01 in0.3 mm
01:22 PM 62.5°F16.9°C 53.7°F12.1°C 73% 7.2 mph SE11.6 kmh SE 10.0 mph16.1 kmh 30.09 in1019.0 mb 0.00 in0.0 mm 0.00 in0.0 mm 0.01 in0.3 mm
01:21 PM 62.5°F16.9°C 54.1°F12.3°C 74% 8.0 mph SE12.9 kmh SE 10.0 mph16.1 kmh 30.09 in1019.0 mb 0.00 in0.0 mm 0.00 in0.0 mm 0.01 in0.3 mm
01:20 PM 62.6°F17.0°C 54.6°F12.6°C 75% 5.9 mph SE9.5 kmh SE 9.0 mph14.5 kmh 30.09 in1019.0 mb 0.00 in0.0 mm 0.00 in0.0 mm 0.01 in0.3 mm
01:19 PM 62.6°F17.0°C 54.2°F12.3°C 74% 6.7 mph SE10.8 kmh SE 10.0 mph16.1 kmh 30.09 in1019.0 mb 0.00 in0.0 mm 0.00 in0.0 mm 0.01 in0.3 mm
01:18 PM 62.6°F17.0°C 54.6°F12.6°C 75% 8.0 mph SE12.9 kmh SE 10.0 mph16.1 kmh 30.09 in1019.0 mb 0.00 in0.0 mm 0.00 in0.0 mm 0.01 in0.3 mm
01:17 PM 62.6°F17.0°C 54.6°F12.6°C 75% 7.2 mph SE11.6 kmh SE 9.0 mph14.5 kmh 30.09 in1019.0 mb 0.00 in0.0 mm 0.00 in0.0 mm 0.01 in0.3 mm
01:16 PM 62.6°F17.0°C 54.2°F12.3°C 74% 6.4 mph SE10.3 kmh SE 11.0 mph17.7 kmh 30.10 in1019.3 mb 0.00 in0.0 mm 0.00 in0.0 mm 0.01 in0.3 mm
01:15 PM 62.6°F17.0°C 54.6°F12.6°C 75% 6.6 mph SE10.6 kmh SE 11.0 mph17.7 kmh 30.09 in1019.0 mb 0.00 in0.0 mm 0.00 in0.0 mm 0.01 in0.3 mm
01:14 PM 62.6°F17.0°C 54.6°F12.6°C 75% 6.3 mph ESE10.1 kmh ESE 8.0 mph12.9 kmh 30.10 in1019.3 mb 0.00 in0.0 mm 0.00 in0.0 mm 0.01 in0.3 mm
01:13 PM 62.6°F17.0°C 54.6°F12.6°C 75% 5.7 mph ESE9.2 kmh ESE 10.0 mph16.1 kmh 30.09 in1019.0 mb 0.00 in0.0 mm 0.00 in0.0 mm 0.01 in0.3 mm
01:12 PM 62.7°F17.1°C 54.3°F12.4°C 74% 7.4 mph ESE11.9 kmh ESE 10.0 mph16.1 kmh 30.09 in1019.0 mb 0.00 in0.0 mm 0.00 in0.0 mm 0.01 in0.3 mm
01:11 PM 62.7°F17.1°C 54.3°F12.4°C 74% 8.5 mph ESE13.7 kmh ESE 11.0 mph17.7 kmh 30.10 in1019.3 mb 0.00 in0.0 mm 0.00 in0.0 mm 0.01 in0.3 mm
01:10 PM 62.8°F17.1°C 54.8°F12.7°C 75% 9.4 mph ESE15.1 kmh ESE 11.0 mph17.7 kmh 30.10 in1019.3 mb 0.00 in0.0 mm 0.00 in0.0 mm 0.01 in0.3 mm
01:09 PM 62.8°F17.1°C 54.8°F12.7°C 75% 4.6 mph SE7.4 kmh SE 11.0 mph17.7 kmh 30.09 in1019.0 mb 0.00 in0.0 mm 0.00 in0.0 mm 0.01 in0.3 mm
01:08 PM 62.8°F17.1°C 54.8°F12.7°C 75% 7.2 mph ESE11.6 kmh ESE 11.0 mph17.7 kmh 30.10 in1019.3 mb 0.00 in0.0 mm 0.00 in0.0 mm 0.01 in0.3 mm
01:07 PM 62.7°F17.1°C 54.3°F12.4°C 74% 6.7 mph ESE10.8 kmh ESE 10.0 mph16.1 kmh 30.09 in1019.0 mb 0.00 in0.0 mm 0.00 in0.0 mm 0.01 in0.3 mm
01:06 PM 62.8°F17.1°C 54.8°F12.7°C 75% 7.7 mph ESE12.4 kmh ESE 10.0 mph16.1 kmh 30.09 in1019.0 mb 0.00 in0.0 mm 0.00 in0.0 mm 0.01 in0.3 mm
01:05 PM 62.7°F17.1°C 55.0°F12.8°C 76% 3.6 mph SE5.8 kmh SE 7.0 mph11.3 kmh 30.10 in1019.3 mb 0.00 in0.0 mm 0.00 in0.0 mm 0.01 in0.3 mm
01:04 PM 62.6°F17.0°C 54.9°F12.7°C 76% 4.9 mph SE7.9 kmh SE 10.0 mph16.1 kmh 30.10 in1019.3 mb 0.00 in0.0 mm 0.00 in0.0 mm 0.01 in0.3 mm
01:03 PM 62.6°F17.0°C 54.6°F12.6°C 75% 8.7 mph SE14.0 kmh SE 11.0 mph17.7 kmh 30.10 in1019.3 mb 0.00 in0.0 mm 0.00 in0.0 mm 0.01 in0.3 mm
01:02 PM 62.6°F17.0°C 54.6°F12.6°C 75% 9.9 mph SE15.9 kmh SE 11.0 mph17.7 kmh 30.10 in1019.3 mb 0.00 in0.0 mm 0.00 in0.0 mm 0.01 in0.3 mm
01:01 PM 62.6°F17.0°C 54.9°F12.7°C 76% 9.4 mph SE15.1 kmh SE 11.0 mph17.7 kmh 30.10 in1019.3 mb 0.00 in0.0 mm 0.00 in0.0 mm 0.01 in0.3 mm
01:00 PM 62.5°F16.9°C 54.5°F12.5°C 75% 7.1 mph SE11.4 kmh SE 11.0 mph17.7 kmh 30.10 in1019.3 mb 0.00 in0.0 mm 0.00 in0.0 mm 0.01 in0.3 mm
12:59 PM 62.6°F17.0°C 54.6°F12.6°C 75% 8.1 mph SE13.0 kmh SE 11.0 mph17.7 kmh 30.10 in1019.3 mb 0.00 in0.0 mm 0.00 in0.0 mm 0.01 in0.3 mm
12:58 PM 62.6°F17.0°C 54.2°F12.3°C 74% 8.0 mph ESE12.9 kmh ESE 12.0 mph19.3 kmh 30.10 in1019.3 mb 0.00 in0.0 mm 0.00 in0.0 mm 0.01 in0.3 mm
12:57 PM 62.6°F17.0°C 54.2°F12.3°C 74% 9.5 mph ESE15.3 kmh ESE 12.0 mph19.3 kmh 30.10 in1019.3 mb 0.00 in0.0 mm 0.00 in0.0 mm 0.01 in0.3 mm
12:56 PM 62.7°F17.1°C 54.7°F12.6°C 75% 7.5 mph SE12.1 kmh SE 10.0 mph16.1 kmh 30.10 in1019.3 mb 0.00 in0.0 mm 0.00 in0.0 mm 0.01 in0.3 mm
12:55 PM 62.7°F17.1°C 54.7°F12.6°C 75% 6.5 mph SE10.5 kmh SE 10.0 mph16.1 kmh 30.10 in1019.3 mb 0.00 in0.0 mm 0.00 in0.0 mm 0.01 in0.3 mm
12:54 PM 62.7°F17.1°C 54.7°F12.6°C 75% 5.0 mph SE8.0 kmh SE 11.0 mph17.7 kmh 30.10 in1019.3 mb 0.00 in0.0 mm 0.00 in0.0 mm 0.01 in0.3 mm
12:53 PM 62.6°F17.0°C 54.6°F12.6°C 75% 8.8 mph SE14.2 kmh SE 11.0 mph17.7 kmh 30.10 in1019.3 mb 0.00 in0.0 mm 0.00 in0.0 mm 0.01 in0.3 mm
12:52 PM 62.5°F16.9°C 54.5°F12.5°C 75% 7.7 mph SE12.4 kmh SE 11.0 mph17.7 kmh 30.10 in1019.3 mb 0.00 in0.0 mm 0.00 in0.0 mm 0.01 in0.3 mm
12:51 PM 62.5°F16.9°C 55.2°F12.9°C 77% 7.2 mph SE11.6 kmh SE 11.0 mph17.7 kmh 30.10 in1019.3 mb 0.00 in0.0 mm 0.00 in0.0 mm 0.01 in0.3 mm
12:50 PM 62.5°F16.9°C 54.5°F12.5°C 75% 7.5 mph ESE12.1 kmh ESE 10.0 mph16.1 kmh 30.10 in1019.3 mb 0.00 in0.0 mm 0.00 in0.0 mm 0.01 in0.3 mm
12:49 PM 62.5°F16.9°C 54.5°F12.5°C 75% 7.8 mph ESE12.6 kmh ESE 13.0 mph20.9 kmh 30.10 in1019.3 mb 0.00 in0.0 mm 0.00 in0.0 mm 0.01 in0.3 mm
12:48 PM 62.6°F17.0°C 54.6°F12.6°C 75% 9.8 mph ESE15.8 kmh ESE 13.0 mph20.9 kmh 30.10 in1019.3 mb 0.00 in0.0 mm 0.00 in0.0 mm 0.01 in0.3 mm
12:47 PM 62.6°F17.0°C 54.6°F12.6°C 75% 7.5 mph SE12.1 kmh SE 9.0 mph14.5 kmh 30.10 in1019.3 mb 0.00 in0.0 mm 0.00 in0.0 mm 0.01 in0.3 mm
12:46 PM 62.6°F17.0°C 54.2°F12.3°C 74% 7.5 mph SE12.1 kmh SE 13.0 mph20.9 kmh 30.10 in1019.3 mb 0.00 in0.0 mm 0.00 in0.0 mm 0.01 in0.3 mm
12:45 PM 62.7°F17.1°C 54.7°F12.6°C 75% 8.5 mph SE13.7 kmh SE 13.0 mph20.9 kmh 30.10 in1019.3 mb 0.00 in0.0 mm 0.00 in0.0 mm 0.01 in0.3 mm
12:44 PM 62.7°F17.1°C 54.7°F12.6°C 75% 8.6 mph SE13.8 kmh SE 13.0 mph20.9 kmh 30.10 in1019.3 mb 0.00 in0.0 mm 0.00 in0.0 mm 0.01 in0.3 mm
12:43 PM 62.7°F17.1°C 54.7°F12.6°C 75% 8.5 mph SE13.7 kmh SE 10.0 mph16.1 kmh 30.10 in1019.3 mb 0.00 in0.0 mm 0.00 in0.0 mm 0.01 in0.3 mm
12:42 PM 62.7°F17.1°C 55.0°F12.8°C 76% 8.3 mph SE13.4 kmh SE 11.0 mph17.7 kmh 30.10 in1019.3 mb 0.00 in0.0 mm 0.00 in0.0 mm 0.01 in0.3 mm
12:41 PM 62.7°F17.1°C 55.4°F13.0°C 77% 7.9 mph SE12.7 kmh SE 11.0 mph17.7 kmh 30.10 in1019.3 mb 0.00 in0.0 mm 0.00 in0.0 mm 0.01 in0.3 mm
12:40 PM 62.5°F16.9°C 55.5°F13.1°C 78% 4.2 mph SE6.8 kmh SE 9.0 mph14.5 kmh 30.10 in1019.3 mb 0.00 in0.0 mm 0.00 in0.0 mm 0.01 in0.3 mm
12:39 PM 62.3°F16.8°C 55.3°F12.9°C 78% 3.2 mph SE5.1 kmh SE 6.0 mph9.7 kmh 30.10 in1019.3 mb 0.00 in0.0 mm 0.00 in0.0 mm 0.01 in0.3 mm
12:38 PM 62.2°F16.8°C 55.3°F12.9°C 78% 3.9 mph SE6.3 kmh SE 8.0 mph12.9 kmh 30.10 in1019.3 mb 0.00 in0.0 mm 0.00 in0.0 mm 0.01 in0.3 mm
12:37 PM 62.0°F16.7°C 55.1°F12.8°C 78% 5.7 mph ESE9.2 kmh ESE 10.0 mph16.1 kmh 30.10 in1019.3 mb 0.00 in0.0 mm 0.00 in0.0 mm 0.01 in0.3 mm
12:36 PM 62.0°F16.7°C 54.7°F12.6°C 77% 7.5 mph SE12.1 kmh SE 12.0 mph19.3 kmh 30.10 in1019.3 mb 0.00 in0.0 mm 0.00 in0.0 mm 0.01 in0.3 mm
12:35 PM 61.9°F16.6°C 54.2°F12.3°C 76% 9.4 mph SE15.1 kmh SE 12.0 mph19.3 kmh 30.10 in1019.3 mb 0.00 in0.0 mm 0.00 in0.0 mm 0.01 in0.3 mm
12:34 PM 61.8°F16.6°C 54.9°F12.7°C 78% 6.5 mph SE10.5 kmh SE 11.0 mph17.7 kmh 30.10 in1019.3 mb 0.00 in0.0 mm 0.00 in0.0 mm 0.01 in0.3 mm
12:33 PM 61.8°F16.6°C 54.2°F12.3°C 76% 8.5 mph SE13.7 kmh SE 11.0 mph17.7 kmh 30.10 in1019.3 mb 0.00 in0.0 mm 0.00 in0.0 mm 0.01 in0.3 mm
12:32 PM 61.8°F16.6°C 54.5°F12.5°C 77% 7.6 mph SE12.2 kmh SE 10.0 mph16.1 kmh 30.10 in1019.3 mb 0.00 in0.0 mm 0.00 in0.0 mm 0.01 in0.3 mm
12:31 PM 61.8°F16.6°C 54.2°F12.3°C 76% 6.4 mph SE10.3 kmh SE 9.0 mph14.5 kmh 30.10 in1019.3 mb 0.00 in0.0 mm 0.00 in0.0 mm 0.01 in0.3 mm
12:30 PM 61.8°F16.6°C 54.5°F12.5°C 77% 7.3 mph SE11.7 kmh SE 10.0 mph16.1 kmh 30.10 in1019.3 mb 0.00 in0.0 mm 0.00 in0.0 mm 0.01 in0.3 mm
12:29 PM 61.8°F16.6°C 54.5°F12.5°C 77% 7.9 mph SE12.7 kmh SE 10.0 mph16.1 kmh 30.10 in1019.3 mb 0.00 in0.0 mm 0.00 in0.0 mm 0.01 in0.3 mm
12:28 PM 61.6°F16.4°C 54.7°F12.6°C 78% 7.6 mph SE12.2 kmh SE 10.0 mph16.1 kmh 30.10 in1019.3 mb 0.00 in0.0 mm 0.00 in0.0 mm 0.01 in0.3 mm
12:27 PM 61.6°F16.4°C 54.3°F12.4°C 77% 6.6 mph SE10.6 kmh SE 9.0 mph14.5 kmh 30.10 in1019.3 mb 0.00 in0.0 mm 0.00 in0.0 mm 0.01 in0.3 mm
12:26 PM 61.5°F16.4°C 54.9°F12.7°C 79% 4.5 mph SE7.2 kmh SE 10.0 mph16.1 kmh 30.10 in1019.3 mb 0.00 in0.0 mm 0.00 in0.0 mm 0.01 in0.3 mm
12:25 PM 61.4°F16.3°C 54.1°F12.3°C 77% 8.4 mph ESE13.5 kmh ESE 12.0 mph19.3 kmh 30.10 in1019.3 mb 0.00 in0.0 mm 0.00 in0.0 mm 0.01 in0.3 mm
12:24 PM 61.4°F16.3°C 54.5°F12.5°C 78% 10.1 mph SE16.3 kmh SE 12.0 mph19.3 kmh 30.10 in1019.3 mb 0.00 in0.0 mm 0.00 in0.0 mm 0.01 in0.3 mm
12:23 PM 61.4°F16.3°C 55.2°F12.9°C 80% 6.4 mph SE10.3 kmh SE 9.0 mph14.5 kmh 30.10 in1019.3 mb 0.00 in0.0 mm 0.00 in0.0 mm 0.01 in0.3 mm
12:22 PM 61.4°F16.3°C 54.8°F12.7°C 79% 6.3 mph SE10.1 kmh SE 9.0 mph14.5 kmh 30.10 in1019.3 mb 0.00 in0.0 mm 0.00 in0.0 mm 0.01 in0.3 mm
12:21 PM 61.3°F16.3°C 54.4°F12.4°C 78% 7.3 mph SE11.7 kmh SE 13.0 mph20.9 kmh 30.10 in1019.3 mb 0.00 in0.0 mm 0.00 in0.0 mm 0.01 in0.3 mm
12:20 PM 61.3°F16.3°C 54.4°F12.4°C 78% 9.9 mph SE15.9 kmh SE 13.0 mph20.9 kmh 30.10 in1019.3 mb 0.00 in0.0 mm 0.00 in0.0 mm 0.01 in0.3 mm
12:19 PM 61.2°F16.2°C 54.3°F12.4°C 78% 7.4 mph SE11.9 kmh SE 10.0 mph16.1 kmh 30.10 in1019.3 mb 0.00 in0.0 mm 0.00 in0.0 mm 0.01 in0.3 mm
12:18 PM 61.3°F16.3°C 54.4°F12.4°C 78% 7.5 mph SE12.1 kmh SE 9.0 mph14.5 kmh 30.10 in1019.3 mb 0.00 in0.0 mm 0.00 in0.0 mm 0.01 in0.3 mm
12:17 PM 61.3°F16.3°C 54.7°F12.6°C 79% 6.9 mph SE11.1 kmh SE 10.0 mph16.1 kmh 30.10 in1019.3 mb 0.00 in0.0 mm 0.00 in0.0 mm 0.01 in0.3 mm
12:16 PM 61.3°F16.3°C 54.4°F12.4°C 78% 6.7 mph SE10.8 kmh SE 11.0 mph17.7 kmh 30.10 in1019.3 mb 0.00 in0.0 mm 0.00 in0.0 mm 0.01 in0.3 mm
12:15 PM 61.3°F16.3°C 54.4°F12.4°C 78% 9.0 mph SE14.5 kmh SE 12.0 mph19.3 kmh 30.10 in1019.3 mb 0.00 in0.0 mm 0.00 in0.0 mm 0.01 in0.3 mm
12:14 PM 61.4°F16.3°C 54.5°F12.5°C 78% 9.9 mph SE15.9 kmh SE 12.0 mph19.3 kmh 30.10 in1019.3 mb 0.00 in0.0 mm 0.00 in0.0 mm 0.01 in0.3 mm
12:13 PM 61.5°F16.4°C 54.6°F12.6°C 78% 9.4 mph SE15.1 kmh SE 12.0 mph19.3 kmh 30.10 in1019.3 mb 0.00 in0.0 mm 0.00 in0.0 mm 0.01 in0.3 mm
12:12 PM 61.4°F16.3°C 54.5°F12.5°C 78% 7.7 mph SE12.4 kmh SE 11.0 mph17.7 kmh 30.10 in1019.3 mb 0.00 in0.0 mm 0.00 in0.0 mm 0.01 in0.3 mm
12:11 PM 61.5°F16.4°C 54.9°F12.7°C 79% 8.7 mph ESE14.0 kmh ESE 11.0 mph17.7 kmh 30.10 in1019.3 mb 0.00 in0.0 mm 0.00 in0.0 mm 0.01 in0.3 mm
12:10 PM 61.4°F16.3°C 54.8°F12.7°C 79% 6.1 mph SE9.8 kmh SE 10.0 mph16.1 kmh 30.10 in1019.3 mb 0.00 in0.0 mm 0.00 in0.0 mm 0.01 in0.3 mm
12:09 PM 61.4°F16.3°C 54.5°F12.5°C 78% 4.5 mph ESE7.2 kmh ESE 9.0 mph14.5 kmh 30.10 in1019.3 mb 0.00 in0.0 mm 0.00 in0.0 mm 0.01 in0.3 mm
12:08 PM 61.3°F16.3°C 54.7°F12.6°C 79% 7.7 mph ESE12.4 kmh ESE 9.0 mph14.5 kmh 30.10 in1019.3 mb 0.00 in0.0 mm 0.00 in0.0 mm 0.01 in0.3 mm
12:07 PM 61.2°F16.2°C 54.6°F12.6°C 79% 7.2 mph ESE11.6 kmh ESE 9.0 mph14.5 kmh 30.10 in1019.3 mb 0.00 in0.0 mm 0.00 in0.0 mm 0.01 in0.3 mm
12:06 PM 61.1°F16.2°C 54.2°F12.3°C 78% 6.2 mph SE10.0 kmh SE 12.0 mph19.3 kmh 30.10 in1019.3 mb 0.00 in0.0 mm 0.00 in0.0 mm 0.01 in0.3 mm
12:05 PM 61.2°F16.2°C 53.9°F12.2°C 77% 10.0 mph SE16.1 kmh SE 12.0 mph19.3 kmh 30.10 in1019.3 mb 0.00 in0.0 mm 0.00 in0.0 mm 0.01 in0.3 mm
12:04 PM 61.3°F16.3°C 54.0°F12.2°C 77% 9.6 mph SE15.4 kmh SE 12.0 mph19.3 kmh 30.10 in1019.3 mb 0.00 in0.0 mm 0.00 in0.0 mm 0.01 in0.3 mm
12:03 PM 61.4°F16.3°C 54.1°F12.3°C 77% 10.0 mph SE16.1 kmh SE 12.0 mph19.3 kmh 30.10 in1019.3 mb 0.00 in0.0 mm 0.00 in0.0 mm 0.01 in0.3 mm
12:02 PM 61.4°F16.3°C 54.5°F12.5°C 78% 10.6 mph SE17.1 kmh SE 12.0 mph19.3 kmh 30.10 in1019.3 mb 0.00 in0.0 mm 0.00 in0.0 mm 0.01 in0.3 mm
12:01 PM 61.4°F16.3°C 55.2°F12.9°C 80% 8.7 mph ESE14.0 kmh ESE 11.0 mph17.7 kmh 30.10 in1019.3 mb 0.00 in0.0 mm 0.00 in0.0 mm 0.01 in0.3 mm
12:00 PM 61.4°F16.3°C 54.8°F12.7°C 79% 5.6 mph ESE9.0 kmh ESE 10.0 mph16.1 kmh 30.10 in1019.3 mb 0.00 in0.0 mm 0.00 in0.0 mm 0.01 in0.3 mm
11:59 AM 61.3°F16.3°C 54.7°F12.6°C 79% 7.1 mph SE11.4 kmh SE 12.0 mph19.3 kmh 30.10 in1019.3 mb 0.00 in0.0 mm 0.00 in0.0 mm 0.01 in0.3 mm
11:58 AM 61.3°F16.3°C 54.7°F12.6°C 79% 9.6 mph SE15.4 kmh SE 12.0 mph19.3 kmh 30.09 in1019.0 mb 0.00 in0.0 mm 0.00 in0.0 mm 0.01 in0.3 mm
11:57 AM 61.3°F16.3°C 54.4°F12.4°C 78% 9.3 mph SE15.0 kmh SE 11.0 mph17.7 kmh 30.10 in1019.3 mb 0.00 in0.0 mm 0.00 in0.0 mm 0.01 in0.3 mm
11:56 AM 61.4°F16.3°C 54.5°F12.5°C 78% 7.0 mph SE11.3 kmh SE 11.0 mph17.7 kmh 30.10 in1019.3 mb 0.00 in0.0 mm 0.00 in0.0 mm 0.01 in0.3 mm
11:55 AM 61.4°F16.3°C 54.5°F12.5°C 78% 9.0 mph SE14.5 kmh SE 11.0 mph17.7 kmh 30.10 in1019.3 mb 0.00 in0.0 mm 0.00 in0.0 mm 0.01 in0.3 mm
11:54 AM 61.4°F16.3°C 54.8°F12.7°C 79% 8.1 mph SE13.0 kmh SE 12.0 mph19.3 kmh 30.10 in1019.3 mb 0.00 in0.0 mm 0.00 in0.0 mm 0.01 in0.3 mm
11:53 AM 61.3°F16.3°C 54.7°F12.6°C 79% 9.5 mph SE15.3 kmh SE 12.0 mph19.3 kmh 30.10 in1019.3 mb 0.00 in0.0 mm 0.00 in0.0 mm 0.01 in0.3 mm
11:52 AM 61.3°F16.3°C 54.4°F12.4°C 78% 9.3 mph SE15.0 kmh SE 12.0 mph19.3 kmh 30.10 in1019.3 mb 0.00 in0.0 mm 0.00 in0.0 mm 0.01 in0.3 mm
11:51 AM 61.3°F16.3°C 55.1°F12.8°C 80% 8.5 mph SE13.7 kmh SE 12.0 mph19.3 kmh 30.10 in1019.3 mb 0.00 in0.0 mm 0.00 in0.0 mm 0.01 in0.3 mm
11:50 AM 61.2°F16.2°C 55.0°F12.8°C 80% 6.8 mph SSE10.9 kmh SSE 10.0 mph16.1 kmh 30.10 in1019.3 mb 0.00 in0.0 mm 0.00 in0.0 mm 0.01 in0.3 mm
11:49 AM 61.2°F16.2°C 55.0°F12.8°C 80% 8.0 mph SE12.9 kmh SE 11.0 mph17.7 kmh 30.10 in1019.3 mb 0.00 in0.0 mm 0.00 in0.0 mm 0.01 in0.3 mm
11:48 AM 61.2°F16.2°C 55.0°F12.8°C 80% 8.5 mph SE13.7 kmh SE 11.0 mph17.7 kmh 30.10 in1019.3 mb 0.00 in0.0 mm 0.00 in0.0 mm 0.01 in0.3 mm
11:47 AM 61.1°F16.2°C 55.2°F12.9°C 81% 7.6 mph SE12.2 kmh SE 10.0 mph16.1 kmh 30.10 in1019.3 mb 0.00 in0.0 mm 0.00 in0.0 mm 0.01 in0.3 mm
11:46 AM 61.1°F16.2°C 55.2°F12.9°C 81% 8.0 mph SE12.9 kmh SE 10.0 mph16.1 kmh 30.10 in1019.3 mb 0.00 in0.0 mm 0.00 in0.0 mm 0.01 in0.3 mm
11:45 AM 61.0°F16.1°C 54.8°F12.7°C 80% 7.6 mph ESE12.2 kmh ESE 10.0 mph16.1 kmh 30.10 in1019.3 mb 0.00 in0.0 mm 0.00 in0.0 mm 0.01 in0.3 mm
11:44 AM 60.9°F16.1°C 54.7°F12.6°C 80% 5.3 mph SE8.5 kmh SE 11.0 mph17.7 kmh 30.10 in1019.3 mb 0.00 in0.0 mm 0.00 in0.0 mm 0.01 in0.3 mm
11:43 AM 60.9°F16.1°C 55.0°F12.8°C 81% 8.9 mph SE14.3 kmh SE 11.0 mph17.7 kmh 30.10 in1019.3 mb 0.00 in0.0 mm 0.00 in0.0 mm 0.01 in0.3 mm
11:42 AM 60.8°F16.0°C 54.9°F12.7°C 81% 8.3 mph ESE13.4 kmh ESE 12.0 mph19.3 kmh 30.10 in1019.3 mb 0.00 in0.0 mm 0.00 in0.0 mm 0.01 in0.3 mm
11:41 AM 60.9°F16.1°C 54.7°F12.6°C 80% 9.4 mph SE15.1 kmh SE 12.0 mph19.3 kmh 30.10 in1019.3 mb 0.00 in0.0 mm 0.00 in0.0 mm 0.01 in0.3 mm
11:40 AM 60.9°F16.1°C 55.0°F12.8°C 81% 9.5 mph ESE15.3 kmh ESE 12.0 mph19.3 kmh 30.10 in1019.3 mb 0.00 in0.0 mm 0.00 in0.0 mm 0.01 in0.3 mm
11:39 AM 60.9°F16.1°C 55.0°F12.8°C 81% 7.3 mph SE11.7 kmh SE 12.0 mph19.3 kmh 30.10 in1019.3 mb 0.00 in0.0 mm 0.00 in0.0 mm 0.01 in0.3 mm
11:38 AM 60.8°F16.0°C 54.9°F12.7°C 81% 7.6 mph SE12.2 kmh SE 11.0 mph17.7 kmh 30.10 in1019.3 mb 0.00 in0.0 mm 0.00 in0.0 mm 0.01 in0.3 mm
11:37 AM 60.8°F16.0°C 54.9°F12.7°C 81% 8.9 mph SE14.3 kmh SE 11.0 mph17.7 kmh 30.10 in1019.3 mb 0.00 in0.0 mm 0.00 in0.0 mm 0.01 in0.3 mm
11:36 AM 60.8°F16.0°C 54.9°F12.7°C 81% 8.7 mph ESE14.0 kmh ESE 12.0 mph19.3 kmh 30.10 in1019.3 mb 0.00 in0.0 mm 0.00 in0.0 mm 0.01 in0.3 mm
11:35 AM 60.8°F16.0°C 54.6°F12.6°C 80% 9.7 mph ESE15.6 kmh ESE 12.0 mph19.3 kmh 30.10 in1019.3 mb 0.00 in0.0 mm 0.00 in0.0 mm 0.01 in0.3 mm
11:34 AM 60.8°F16.0°C 54.9°F12.7°C 81% 8.3 mph ESE13.4 kmh ESE 11.0 mph17.7 kmh 30.10 in1019.3 mb 0.00 in0.0 mm 0.00 in0.0 mm 0.01 in0.3 mm
11:33 AM 60.7°F15.9°C 54.8°F12.7°C 81% 10.1 mph SE16.3 kmh SE 13.0 mph20.9 kmh 30.10 in1019.3 mb 0.00 in0.0 mm 0.00 in0.0 mm 0.01 in0.3 mm
11:32 AM 60.8°F16.0°C 54.9°F12.7°C 81% 10.5 mph SE16.9 kmh SE 13.0 mph20.9 kmh 30.10 in1019.3 mb 0.00 in0.0 mm 0.00 in0.0 mm 0.01 in0.3 mm
11:31 AM 60.7°F15.9°C 54.8°F12.7°C 81% 8.9 mph SE14.3 kmh SE 11.0 mph17.7 kmh 30.10 in1019.3 mb 0.00 in0.0 mm 0.00 in0.0 mm 0.01 in0.3 mm
11:30 AM 60.7°F15.9°C 55.5°F13.1°C 83% 7.2 mph SE11.6 kmh SE 11.0 mph17.7 kmh 30.10 in1019.3 mb 0.00 in0.0 mm 0.00 in0.0 mm 0.01 in0.3 mm
11:29 AM 60.6°F15.9°C 55.1°F12.8°C 82% 8.4 mph SE13.5 kmh SE 11.0 mph17.7 kmh 30.09 in1019.0 mb 0.00 in0.0 mm 0.00 in0.0 mm 0.01 in0.3 mm
11:28 AM 60.5°F15.8°C 55.0°F12.8°C 82% 7.8 mph SE12.6 kmh SE 13.0 mph20.9 kmh 30.10 in1019.3 mb 0.00 in0.0 mm 0.00 in0.0 mm 0.01 in0.3 mm
11:27 AM 60.5°F15.8°C 54.6°F12.6°C 81% 10.6 mph SE17.1 kmh SE 13.0 mph20.9 kmh 30.09 in1019.0 mb 0.00 in0.0 mm 0.00 in0.0 mm 0.01 in0.3 mm
11:26 AM 60.4°F15.8°C 54.9°F12.7°C 82% 10.0 mph SE16.1 kmh SE 12.0 mph19.3 kmh 30.09 in1019.0 mb 0.00 in0.0 mm 0.00 in0.0 mm 0.01 in0.3 mm
11:25 AM 60.5°F15.8°C 55.0°F12.8°C 82% 7.4 mph SE11.9 kmh SE 11.0 mph17.7 kmh 30.09 in1019.0 mb 0.00 in0.0 mm 0.00 in0.0 mm 0.01 in0.3 mm
11:24 AM 60.5°F15.8°C 55.0°F12.8°C 82% 8.6 mph ESE13.8 kmh ESE 14.0 mph22.5 kmh 30.09 in1019.0 mb 0.00 in0.0 mm 0.00 in0.0 mm 0.01 in0.3 mm
11:23 AM 60.5°F15.8°C 55.0°F12.8°C 82% 10.6 mph ESE17.1 kmh ESE 14.0 mph22.5 kmh 30.09 in1019.0 mb 0.00 in0.0 mm 0.00 in0.0 mm 0.01 in0.3 mm
11:22 AM 60.5°F15.8°C 55.3°F12.9°C 83% 7.9 mph SE12.7 kmh SE 12.0 mph19.3 kmh 30.09 in1019.0 mb 0.00 in0.0 mm 0.00 in0.0 mm 0.01 in0.3 mm
11:21 AM 60.4°F15.8°C 54.9°F12.7°C 82% 8.5 mph SE13.7 kmh SE 12.0 mph19.3 kmh 30.10 in1019.3 mb 0.00 in0.0 mm 0.00 in0.0 mm 0.01 in0.3 mm
11:20 AM 60.3°F15.7°C 55.1°F12.8°C 83% 7.9 mph ESE12.7 kmh ESE 12.0 mph19.3 kmh 30.09 in1019.0 mb 0.00 in0.0 mm 0.00 in0.0 mm 0.01 in0.3 mm
11:19 AM 60.2°F15.7°C 55.0°F12.8°C 83% 6.7 mph SE10.8 kmh SE 10.0 mph16.1 kmh 30.09 in1019.0 mb 0.00 in0.0 mm 0.00 in0.0 mm 0.01 in0.3 mm
11:18 AM 60.1°F15.6°C 54.9°F12.7°C 83% 8.1 mph SE13.0 kmh SE 12.0 mph19.3 kmh 30.09 in1019.0 mb 0.00 in0.0 mm 0.00 in0.0 mm 0.01 in0.3 mm
11:17 AM 60.1°F15.6°C 54.9°F12.7°C 83% 9.6 mph SE15.4 kmh SE 12.0 mph19.3 kmh 30.09 in1019.0 mb 0.00 in0.0 mm 0.00 in0.0 mm 0.01 in0.3 mm
11:16 AM 60.0°F15.6°C 54.8°F12.7°C 83% 8.3 mph SE13.4 kmh SE 11.0 mph17.7 kmh 30.09 in1019.0 mb 0.00 in0.0 mm 0.00 in0.0 mm 0.01 in0.3 mm
11:15 AM 59.9°F15.5°C 54.7°F12.6°C 83% 8.2 mph SE13.2 kmh SE 11.0 mph17.7 kmh 30.09 in1019.0 mb 0.00 in0.0 mm 0.00 in0.0 mm 0.01 in0.3 mm
11:14 AM 59.8°F15.4°C 54.3°F12.4°C 82% 9.5 mph SE15.3 kmh SE 11.0 mph17.7 kmh 30.09 in1019.0 mb 0.00 in0.0 mm 0.00 in0.0 mm 0.01 in0.3 mm
11:13 AM 59.9°F15.5°C 54.4°F12.4°C 82% 9.2 mph SE14.8 kmh SE 11.0 mph17.7 kmh 30.09 in1019.0 mb 0.00 in0.0 mm 0.00 in0.0 mm 0.01 in0.3 mm
11:12 AM 59.9°F15.5°C 54.4°F12.4°C 82% 8.6 mph SE13.8 kmh SE 12.0 mph19.3 kmh 30.09 in1019.0 mb 0.00 in0.0 mm 0.00 in0.0 mm 0.01 in0.3 mm
11:11 AM 59.9°F15.5°C 54.7°F12.6°C 83% 8.5 mph SE13.7 kmh SE 12.0 mph19.3 kmh 30.09 in1019.0 mb 0.00 in0.0 mm 0.00 in0.0 mm 0.01 in0.3 mm
11:10 AM 59.8°F15.4°C 54.6°F12.6°C 83% 9.0 mph SE14.5 kmh SE 11.0 mph17.7 kmh 30.09 in1019.0 mb 0.00 in0.0 mm 0.00 in0.0 mm 0.01 in0.3 mm
11:09 AM 59.8°F15.4°C 55.0°F12.8°C 84% 7.2 mph SE11.6 kmh SE 10.0 mph16.1 kmh 30.09 in1019.0 mb 0.00 in0.0 mm 0.00 in0.0 mm 0.01 in0.3 mm
11:08 AM 59.8°F15.4°C 54.6°F12.6°C 83% 8.0 mph SE12.9 kmh SE 11.0 mph17.7 kmh 30.09 in1019.0 mb 0.00 in0.0 mm 0.00 in0.0 mm 0.01 in0.3 mm
11:07 AM 59.8°F15.4°C 55.3°F12.9°C 85% 8.9 mph SE14.3 kmh SE 11.0 mph17.7 kmh 30.09 in1019.0 mb 0.00 in0.0 mm 0.00 in0.0 mm 0.01 in0.3 mm
11:06 AM 59.7°F15.4°C 55.2°F12.9°C 85% 4.0 mph SE6.4 kmh SE 9.0 mph14.5 kmh 30.09 in1019.0 mb 0.00 in0.0 mm 0.00 in0.0 mm 0.01 in0.3 mm
11:05 AM 59.6°F15.3°C 54.8°F12.7°C 84% 6.7 mph SE10.8 kmh SE 9.0 mph14.5 kmh 30.09 in1019.0 mb 0.00 in0.0 mm 0.00 in0.0 mm 0.01 in0.3 mm
11:04 AM 59.6°F15.3°C 54.8°F12.7°C 84% 6.7 mph SE10.8 kmh SE 9.0 mph14.5 kmh 30.09 in1019.0 mb 0.00 in0.0 mm 0.00 in0.0 mm 0.01 in0.3 mm
11:03 AM 59.6°F15.3°C 55.4°F13.0°C 86% 7.4 mph ESE11.9 kmh ESE 9.0 mph14.5 kmh 30.09 in1019.0 mb 0.00 in0.0 mm 0.00 in0.0 mm 0.01 in0.3 mm
11:02 AM 59.5°F15.3°C 55.0°F12.8°C 85% 3.5 mph SE5.6 kmh SE 8.0 mph12.9 kmh 30.09 in1019.0 mb 0.00 in0.0 mm 0.00 in0.0 mm 0.01 in0.3 mm
11:01 AM 59.5°F15.3°C 54.7°F12.6°C 84% 5.4 mph ESE8.7 kmh ESE 10.0 mph16.1 kmh 30.09 in1019.0 mb 0.00 in0.0 mm 0.00 in0.0 mm 0.01 in0.3 mm
11:00 AM 59.5°F15.3°C 54.7°F12.6°C 84% 7.6 mph ESE12.2 kmh ESE 12.0 mph19.3 kmh 30.09 in1019.0 mb 0.00 in0.0 mm 0.00 in0.0 mm 0.01 in0.3 mm
10:59 AM 59.5°F15.3°C 54.7°F12.6°C 84% 9.7 mph SE15.6 kmh SE 12.0 mph19.3 kmh 30.09 in1019.0 mb 0.00 in0.0 mm 0.00 in0.0 mm 0.01 in0.3 mm
10:58 AM 59.5°F15.3°C 54.7°F12.6°C 84% 8.2 mph SE13.2 kmh SE 11.0 mph17.7 kmh 30.09 in1019.0 mb 0.00 in0.0 mm 0.00 in0.0 mm 0.01 in0.3 mm
10:57 AM 59.4°F15.2°C 54.6°F12.6°C 84% 8.1 mph SSE13.0 kmh SSE 11.0 mph17.7 kmh 30.09 in1019.0 mb 0.00 in0.0 mm 0.00 in0.0 mm 0.01 in0.3 mm
10:56 AM 59.4°F15.2°C 54.9°F12.7°C 85% 7.5 mph SE12.1 kmh SE 9.0 mph14.5 kmh 30.09 in1019.0 mb 0.00 in0.0 mm 0.00 in0.0 mm 0.01 in0.3 mm
10:55 AM 59.4°F15.2°C 54.9°F12.7°C 85% 6.8 mph SE10.9 kmh SE 9.0 mph14.5 kmh 30.09 in1019.0 mb 0.00 in0.0 mm 0.00 in0.0 mm 0.01 in0.3 mm
10:54 AM 59.2°F15.1°C 55.0°F12.8°C 86% 5.8 mph ESE9.3 kmh ESE 8.0 mph12.9 kmh 30.09 in1019.0 mb 0.00 in0.0 mm 0.00 in0.0 mm 0.01 in0.3 mm
10:53 AM 59.1°F15.1°C 55.2°F12.9°C 87% 5.9 mph E9.5 kmh E 8.0 mph12.9 kmh 30.09 in1019.0 mb 0.00 in0.0 mm 0.00 in0.0 mm 0.01 in0.3 mm
10:52 AM 59.0°F15.0°C 55.1°F12.8°C 87% 3.4 mph SE5.5 kmh SE 8.0 mph12.9 kmh 30.09 in1019.0 mb 0.00 in0.0 mm 0.00 in0.0 mm 0.01 in0.3 mm
10:51 AM 58.9°F14.9°C 54.7°F12.6°C 86% 4.7 mph SE7.6 kmh SE 8.0 mph12.9 kmh 30.09 in1019.0 mb 0.00 in0.0 mm 0.00 in0.0 mm 0.01 in0.3 mm
10:50 AM 58.8°F14.9°C 54.6°F12.6°C 86% 4.1 mph ESE6.6 kmh ESE 7.0 mph11.3 kmh 30.09 in1019.0 mb 0.00 in0.0 mm 0.00 in0.0 mm 0.01 in0.3 mm
10:49 AM 58.8°F14.9°C 54.6°F12.6°C 86% 5.5 mph ESE8.9 kmh ESE 8.0 mph12.9 kmh 30.09 in1019.0 mb 0.00 in0.0 mm 0.00 in0.0 mm 0.01 in0.3 mm
10:48 AM 58.7°F14.8°C 54.8°F12.7°C 87% 3.7 mph ESE6.0 kmh ESE 8.0 mph12.9 kmh 30.09 in1019.0 mb 0.00 in0.0 mm 0.00 in0.0 mm 0.01 in0.3 mm
10:47 AM 58.7°F14.8°C 54.8°F12.7°C 87% 3.5 mph ESE5.6 kmh ESE 7.0 mph11.3 kmh 30.09 in1019.0 mb 0.00 in0.0 mm 0.00 in0.0 mm 0.01 in0.3 mm
10:46 AM 58.6°F14.8°C 54.7°F12.6°C 87% 5.1 mph SE8.2 kmh SE 7.0 mph11.3 kmh 30.09 in1019.0 mb 0.00 in0.0 mm 0.00 in0.0 mm 0.01 in0.3 mm
10:45 AM 58.6°F14.8°C 54.4°F12.4°C 86% 4.8 mph ESE7.7 kmh ESE 9.0 mph14.5 kmh 30.09 in1019.0 mb 0.00 in0.0 mm 0.00 in0.0 mm 0.01 in0.3 mm
10:44 AM 58.5°F14.7°C 54.3°F12.4°C 86% 7.5 mph SE12.1 kmh SE 9.0 mph14.5 kmh 30.09 in1019.0 mb 0.00 in0.0 mm 0.00 in0.0 mm 0.01 in0.3 mm
10:43 AM 58.5°F14.7°C 54.3°F12.4°C 86% 6.6 mph SE10.6 kmh SE 11.0 mph17.7 kmh 30.09 in1019.0 mb 0.00 in0.0 mm 0.00 in0.0 mm 0.01 in0.3 mm
10:42 AM 58.4°F14.7°C 54.2°F12.3°C 86% 8.5 mph SE13.7 kmh SE 11.0 mph17.7 kmh 30.09 in1019.0 mb 0.00 in0.0 mm 0.00 in0.0 mm 0.01 in0.3 mm
10:41 AM 58.5°F14.7°C 54.3°F12.4°C 86% 7.5 mph SE12.1 kmh SE 11.0 mph17.7 kmh 30.09 in1019.0 mb 0.00 in0.0 mm 0.00 in0.0 mm 0.01 in0.3 mm
10:40 AM 58.5°F14.7°C 54.6°F12.6°C 87% 6.3 mph SE10.1 kmh SE 11.0 mph17.7 kmh 30.09 in1019.0 mb 0.00 in0.0 mm 0.00 in0.0 mm 0.01 in0.3 mm
10:39 AM 58.4°F14.7°C 54.5°F12.5°C 87% 5.7 mph SE9.2 kmh SE 8.0 mph12.9 kmh 30.09 in1019.0 mb 0.00 in0.0 mm 0.00 in0.0 mm 0.01 in0.3 mm
10:38 AM 58.4°F14.7°C 54.5°F12.5°C 87% 6.2 mph SE10.0 kmh SE 10.0 mph16.1 kmh 30.09 in1019.0 mb 0.00 in0.0 mm 0.00 in0.0 mm 0.01 in0.3 mm
10:37 AM 58.4°F14.7°C 54.5°F12.5°C 87% 7.3 mph SE11.7 kmh SE 10.0 mph16.1 kmh 30.09 in1019.0 mb 0.00 in0.0 mm 0.00 in0.0 mm 0.01 in0.3 mm
10:36 AM 58.4°F14.7°C 54.5°F12.5°C 87% 6.0 mph SE9.7 kmh SE 8.0 mph12.9 kmh 30.09 in1019.0 mb 0.00 in0.0 mm 0.00 in0.0 mm 0.01 in0.3 mm
10:35 AM 58.4°F14.7°C 54.5°F12.5°C 87% 6.9 mph ESE11.1 kmh ESE 9.0 mph14.5 kmh 30.09 in1019.0 mb 0.00 in0.0 mm 0.00 in0.0 mm 0.01 in0.3 mm
10:34 AM 58.4°F14.7°C 54.5°F12.5°C 87% 7.7 mph SE12.4 kmh SE 10.0 mph16.1 kmh 30.09 in1019.0 mb 0.00 in0.0 mm 0.00 in0.0 mm 0.01 in0.3 mm
10:33 AM 58.4°F14.7°C 54.5°F12.5°C 87% 7.4 mph SE11.9 kmh SE 10.0 mph16.1 kmh 30.09 in1019.0 mb 0.00 in0.0 mm 0.00 in0.0 mm 0.01 in0.3 mm
10:32 AM 58.4°F14.7°C 54.5°F12.5°C 87% 6.0 mph SE9.7 kmh SE 9.0 mph14.5 kmh 30.09 in1019.0 mb 0.00 in0.0 mm 0.00 in0.0 mm 0.01 in0.3 mm
10:31 AM 58.4°F14.7°C 54.5°F12.5°C 87% 4.8 mph SE7.7 kmh SE 8.0 mph12.9 kmh 30.09 in1019.0 mb 0.00 in0.0 mm 0.00 in0.0 mm 0.01 in0.3 mm
10:30 AM 58.3°F14.6°C 54.4°F12.4°C 87% 4.7 mph SE7.6 kmh SE 7.0 mph11.3 kmh 30.09 in1019.0 mb 0.00 in0.0 mm 0.00 in0.0 mm 0.01 in0.3 mm
10:29 AM 58.3°F14.6°C 54.4°F12.4°C 87% 3.8 mph SE6.1 kmh SE 8.0 mph12.9 kmh 30.09 in1019.0 mb 0.00 in0.0 mm 0.00 in0.0 mm 0.01 in0.3 mm
10:28 AM 58.3°F14.6°C 54.4°F12.4°C 87% 6.3 mph SE10.1 kmh SE 9.0 mph14.5 kmh 30.09 in1019.0 mb 0.00 in0.0 mm 0.00 in0.0 mm 0.01 in0.3 mm
10:27 AM 58.3°F14.6°C 54.4°F12.4°C 87% 6.8 mph SE10.9 kmh SE 9.0 mph14.5 kmh 30.09 in1019.0 mb 0.00 in0.0 mm 0.00 in0.0 mm 0.01 in0.3 mm
10:26 AM 58.2°F14.6°C 54.3°F12.4°C 87% 7.0 mph SE11.3 kmh SE 8.0 mph12.9 kmh 30.09 in1019.0 mb 0.00 in0.0 mm 0.00 in0.0 mm 0.01 in0.3 mm
10:25 AM 58.2°F14.6°C 54.3°F12.4°C 87% 4.9 mph SE7.9 kmh SE 9.0 mph14.5 kmh 30.09 in1019.0 mb 0.00 in0.0 mm 0.00 in0.0 mm 0.01 in0.3 mm
10:24 AM 58.2°F14.6°C 54.0°F12.2°C 86% 6.4 mph SE10.3 kmh SE 10.0 mph16.1 kmh 30.09 in1019.0 mb 0.00 in0.0 mm 0.00 in0.0 mm 0.01 in0.3 mm
10:23 AM 58.2°F14.6°C 54.3°F12.4°C 87% 7.9 mph SE12.7 kmh SE 10.0 mph16.1 kmh 30.09 in1019.0 mb 0.00 in0.0 mm 0.00 in0.0 mm 0.01 in0.3 mm
10:22 AM 58.1°F14.5°C 54.2°F12.3°C 87% 6.9 mph ESE11.1 kmh ESE 9.0 mph14.5 kmh 30.09 in1019.0 mb 0.00 in0.0 mm 0.00 in0.0 mm 0.01 in0.3 mm
10:21 AM 58.1°F14.5°C 54.6°F12.6°C 88% 4.7 mph ESE7.6 kmh ESE 7.0 mph11.3 kmh 30.09 in1019.0 mb 0.00 in0.0 mm 0.00 in0.0 mm 0.01 in0.3 mm
10:20 AM 58.1°F14.5°C 54.6°F12.6°C 88% 5.3 mph SE8.5 kmh SE 7.0 mph11.3 kmh 30.09 in1019.0 mb 0.00 in0.0 mm 0.00 in0.0 mm 0.01 in0.3 mm
10:19 AM 58.0°F14.4°C 54.5°F12.5°C 88% 4.3 mph SE6.9 kmh SE 7.0 mph11.3 kmh 30.09 in1019.0 mb 0.00 in0.0 mm 0.00 in0.0 mm 0.01 in0.3 mm
10:18 AM 58.0°F14.4°C 54.5°F12.5°C 88% 4.7 mph SE7.6 kmh SE 7.0 mph11.3 kmh 30.09 in1019.0 mb 0.00 in0.0 mm 0.00 in0.0 mm 0.01 in0.3 mm
10:17 AM 57.9°F14.4°C 54.4°F12.4°C 88% 4.8 mph SE7.7 kmh SE 7.0 mph11.3 kmh 30.09 in1019.0 mb 0.00 in0.0 mm 0.00 in0.0 mm 0.01 in0.3 mm
10:16 AM 57.9°F14.4°C 54.4°F12.4°C 88% 5.1 mph SE8.2 kmh SE 7.0 mph11.3 kmh 30.09 in1019.0 mb 0.00 in0.0 mm 0.00 in0.0 mm 0.01 in0.3 mm
10:15 AM 57.8°F14.3°C 54.3°F12.4°C 88% 5.4 mph ESE8.7 kmh ESE 8.0 mph12.9 kmh 30.09 in1019.0 mb 0.00 in0.0 mm 0.00 in0.0 mm 0.01 in0.3 mm
10:14 AM 57.8°F14.3°C 54.3°F12.4°C 88% 6.9 mph ESE11.1 kmh ESE 8.0 mph12.9 kmh 30.09 in1019.0 mb 0.00 in0.0 mm 0.00 in0.0 mm 0.01 in0.3 mm
10:13 AM 57.8°F14.3°C 54.3°F12.4°C 88% 6.9 mph ESE11.1 kmh ESE 9.0 mph14.5 kmh 30.09 in1019.0 mb 0.00 in0.0 mm 0.00 in0.0 mm 0.01 in0.3 mm
10:12 AM 57.8°F14.3°C 54.3°F12.4°C 88% 7.7 mph ESE12.4 kmh ESE 9.0 mph14.5 kmh 30.09 in1019.0 mb 0.00 in0.0 mm 0.00 in0.0 mm 0.01 in0.3 mm
10:11 AM 57.8°F14.3°C 54.3°F12.4°C 88% 7.2 mph ESE11.6 kmh ESE 9.0 mph14.5 kmh 30.09 in1019.0 mb 0.00 in0.0 mm 0.00 in0.0 mm 0.01 in0.3 mm
10:10 AM 57.7°F14.3°C 54.2°F12.3°C 88% 6.4 mph ESE10.3 kmh ESE 8.0 mph12.9 kmh 30.09 in1019.0 mb 0.00 in0.0 mm 0.00 in0.0 mm 0.01 in0.3 mm
10:09 AM 57.7°F14.3°C 54.2°F12.3°C 88% 5.0 mph SE8.0 kmh SE 8.0 mph12.9 kmh 30.09 in1019.0 mb 0.00 in0.0 mm 0.00 in0.0 mm 0.01 in0.3 mm
10:08 AM 57.7°F14.3°C 54.5°F12.5°C 89% 3.8 mph ESE6.1 kmh ESE 6.0 mph9.7 kmh 30.09 in1019.0 mb 0.00 in0.0 mm 0.00 in0.0 mm 0.01 in0.3 mm
10:07 AM 57.6°F14.2°C 54.4°F12.4°C 89% 3.2 mph SE5.1 kmh SE 6.0 mph9.7 kmh 30.09 in1019.0 mb 0.00 in0.0 mm 0.00 in0.0 mm 0.01 in0.3 mm
10:06 AM 57.6°F14.2°C 54.1°F12.3°C 88% 3.7 mph SE6.0 kmh SE 9.0 mph14.5 kmh 30.09 in1019.0 mb 0.00 in0.0 mm 0.00 in0.0 mm 0.01 in0.3 mm
10:05 AM 57.6°F14.2°C 54.1°F12.3°C 88% 5.9 mph SE9.5 kmh SE 9.0 mph14.5 kmh 30.09 in1019.0 mb 0.00 in0.0 mm 0.00 in0.0 mm 0.01 in0.3 mm
10:04 AM 57.5°F14.2°C 54.0°F12.2°C 88% 6.2 mph SE10.0 kmh SE 8.0 mph12.9 kmh 30.09 in1019.0 mb 0.00 in0.0 mm 0.00 in0.0 mm 0.01 in0.3 mm
10:03 AM 57.5°F14.2°C 54.0°F12.2°C 88% 6.2 mph SE10.0 kmh SE 8.0 mph12.9 kmh 30.09 in1019.0 mb 0.00 in0.0 mm 0.00 in0.0 mm 0.01 in0.3 mm
10:02 AM 57.5°F14.2°C 54.0°F12.2°C 88% 7.6 mph SE12.2 kmh SE 8.0 mph12.9 kmh 30.09 in1019.0 mb 0.00 in0.0 mm 0.00 in0.0 mm 0.01 in0.3 mm
10:01 AM 57.4°F14.1°C 53.9°F12.2°C 88% 6.3 mph SE10.1 kmh SE 8.0 mph12.9 kmh 30.09 in1019.0 mb 0.00 in0.0 mm 0.00 in0.0 mm 0.01 in0.3 mm
10:00 AM 57.4°F14.1°C 53.9°F12.2°C 88% 3.8 mph ESE6.1 kmh ESE 7.0 mph11.3 kmh 30.09 in1019.0 mb 0.00 in0.0 mm 0.00 in0.0 mm 0.01 in0.3 mm
09:59 AM 57.3°F14.1°C 53.8°F12.1°C 88% 5.0 mph SE8.0 kmh SE 8.0 mph12.9 kmh 30.09 in1019.0 mb 0.00 in0.0 mm 0.00 in0.0 mm 0.01 in0.3 mm
09:58 AM 57.3°F14.1°C 54.1°F12.3°C 89% 6.7 mph SE10.8 kmh SE 8.0 mph12.9 kmh 30.09 in1019.0 mb 0.00 in0.0 mm 0.00 in0.0 mm 0.01 in0.3 mm
09:57 AM 57.3°F14.1°C 53.8°F12.1°C 88% 5.1 mph ESE8.2 kmh ESE 7.0 mph11.3 kmh 30.09 in1019.0 mb 0.00 in0.0 mm 0.00 in0.0 mm 0.01 in0.3 mm
09:56 AM 57.3°F14.1°C 53.8°F12.1°C 88% 6.0 mph ESE9.7 kmh ESE 8.0 mph12.9 kmh 30.09 in1019.0 mb 0.00 in0.0 mm 0.00 in0.0 mm 0.01 in0.3 mm
09:55 AM 57.3°F14.1°C 53.8°F12.1°C 88% 6.6 mph ESE10.6 kmh ESE 8.0 mph12.9 kmh 30.09 in1019.0 mb 0.00 in0.0 mm 0.00 in0.0 mm 0.01 in0.3 mm
09:54 AM 57.3°F14.1°C 53.8°F12.1°C 88% 5.6 mph ESE9.0 kmh ESE 8.0 mph12.9 kmh 30.09 in1019.0 mb 0.00 in0.0 mm 0.00 in0.0 mm 0.01 in0.3 mm
09:53 AM 57.2°F14.0°C 53.7°F12.1°C 88% 4.3 mph SE6.9 kmh SE 7.0 mph11.3 kmh 30.09 in1019.0 mb 0.00 in0.0 mm 0.00 in0.0 mm 0.01 in0.3 mm
09:52 AM 57.3°F14.1°C 54.1°F12.3°C 89% 5.3 mph SE8.5 kmh SE 7.0 mph11.3 kmh 30.09 in1019.0 mb 0.00 in0.0 mm 0.00 in0.0 mm 0.01 in0.3 mm
09:51 AM 57.2°F14.0°C 54.0°F12.2°C 89% 4.7 mph SE7.6 kmh SE 9.0 mph14.5 kmh 30.09 in1019.0 mb 0.00 in0.0 mm 0.00 in0.0 mm 0.01 in0.3 mm
09:50 AM 57.2°F14.0°C 54.0°F12.2°C 89% 5.3 mph SE8.5 kmh SE 9.0 mph14.5 kmh 30.09 in1019.0 mb 0.00 in0.0 mm 0.00 in0.0 mm 0.01 in0.3 mm
09:49 AM 57.1°F13.9°C 53.9°F12.2°C 89% 3.8 mph SE6.1 kmh SE 6.0 mph9.7 kmh 30.09 in1019.0 mb 0.00 in0.0 mm 0.00 in0.0 mm 0.01 in0.3 mm
09:48 AM 57.1°F13.9°C 53.9°F12.2°C 89% 3.8 mph SE6.1 kmh SE 7.0 mph11.3 kmh 30.09 in1019.0 mb 0.00 in0.0 mm 0.00 in0.0 mm 0.01 in0.3 mm
09:47 AM 57.1°F13.9°C 53.9°F12.2°C 89% 4.3 mph SE6.9 kmh SE 8.0 mph12.9 kmh 30.09 in1019.0 mb 0.00 in0.0 mm 0.00 in0.0 mm 0.01 in0.3 mm
09:46 AM 57.1°F13.9°C 53.6°F12.0°C 88% 5.6 mph SE9.0 kmh SE 8.0 mph12.9 kmh 30.09 in1019.0 mb 0.00 in0.0 mm 0.00 in0.0 mm 0.01 in0.3 mm
09:45 AM 57.1°F13.9°C 54.2°F12.3°C 90% 6.0 mph SE9.7 kmh SE 8.0 mph12.9 kmh 30.09 in1019.0 mb 0.00 in0.0 mm 0.00 in0.0 mm 0.01 in0.3 mm
09:44 AM 57.1°F13.9°C 54.2°F12.3°C 90% 3.2 mph SE5.1 kmh SE 5.0 mph8.0 kmh 30.09 in1019.0 mb 0.00 in0.0 mm 0.00 in0.0 mm 0.01 in0.3 mm
09:43 AM 57.0°F13.9°C 54.1°F12.3°C 90% 2.5 mph SE4.0 kmh SE 4.0 mph6.4 kmh 30.09 in1019.0 mb 0.00 in0.0 mm 0.00 in0.0 mm 0.01 in0.3 mm
09:42 AM 56.9°F13.8°C 54.0°F12.2°C 90% 2.3 mph ESE3.7 kmh ESE 6.0 mph9.7 kmh 30.09 in1019.0 mb 0.00 in0.0 mm 0.00 in0.0 mm 0.01 in0.3 mm
09:41 AM 57.0°F13.9°C 53.8°F12.1°C 89% 4.0 mph E6.4 kmh E 6.0 mph9.7 kmh 30.09 in1019.0 mb 0.00 in0.0 mm 0.00 in0.0 mm 0.01 in0.3 mm
09:40 AM 56.9°F13.8°C 53.7°F12.1°C 89% 4.3 mph SE6.9 kmh SE 6.0 mph9.7 kmh 30.09 in1019.0 mb 0.00 in0.0 mm 0.00 in0.0 mm 0.01 in0.3 mm
09:39 AM 57.0°F13.9°C 53.8°F12.1°C 89% 4.2 mph SE6.8 kmh SE 6.0 mph9.7 kmh 30.09 in1019.0 mb 0.00 in0.0 mm 0.00 in0.0 mm 0.01 in0.3 mm
09:38 AM 56.9°F13.8°C 53.7°F12.1°C 89% 4.0 mph SE6.4 kmh SE 5.0 mph8.0 kmh 30.09 in1019.0 mb 0.00 in0.0 mm 0.00 in0.0 mm 0.01 in0.3 mm
09:37 AM 57.0°F13.9°C 53.8°F12.1°C 89% 3.9 mph ESE6.3 kmh ESE 5.0 mph8.0 kmh 30.09 in1019.0 mb 0.00 in0.0 mm 0.00 in0.0 mm 0.01 in0.3 mm
09:36 AM 57.0°F13.9°C 53.8°F12.1°C 89% 3.5 mph ESE5.6 kmh ESE 6.0 mph9.7 kmh 30.09 in1019.0 mb 0.00 in0.0 mm 0.00 in0.0 mm 0.01 in0.3 mm
09:35 AM 57.0°F13.9°C 53.8°F12.1°C 89% 4.4 mph ESE7.1 kmh ESE 7.0 mph11.3 kmh 30.09 in1019.0 mb 0.00 in0.0 mm 0.00 in0.0 mm 0.01 in0.3 mm
09:34 AM 57.0°F13.9°C 53.5°F11.9°C 88% 5.6 mph ESE9.0 kmh ESE 7.0 mph11.3 kmh 30.09 in1019.0 mb 0.00 in0.0 mm 0.00 in0.0 mm 0.01 in0.3 mm
09:33 AM 57.0°F13.9°C 53.5°F11.9°C 88% 4.5 mph ESE7.2 kmh ESE 7.0 mph11.3 kmh 30.09 in1019.0 mb 0.00 in0.0 mm 0.00 in0.0 mm 0.01 in0.3 mm
09:32 AM 57.1°F13.9°C 53.6°F12.0°C 88% 5.1 mph ESE8.2 kmh ESE 7.0 mph11.3 kmh 30.09 in1019.0 mb 0.00 in0.0 mm 0.00 in0.0 mm 0.01 in0.3 mm
09:31 AM 57.1°F13.9°C 53.9°F12.2°C 89% 5.4 mph ESE8.7 kmh ESE 7.0 mph11.3 kmh 30.09 in1019.0 mb 0.00 in0.0 mm 0.00 in0.0 mm 0.01 in0.3 mm
09:30 AM 57.0°F13.9°C 53.8°F12.1°C 89% 3.3 mph ESE5.3 kmh ESE 5.0 mph8.0 kmh 30.09 in1019.0 mb 0.00 in0.0 mm 0.00 in0.0 mm 0.01 in0.3 mm
09:29 AM 57.0°F13.9°C 54.1°F12.3°C 90% 3.5 mph ESE5.6 kmh ESE 4.0 mph6.4 kmh 30.09 in1019.0 mb 0.00 in0.0 mm 0.00 in0.0 mm 0.01 in0.3 mm
09:28 AM 57.0°F13.9°C 53.8°F12.1°C 89% 3.5 mph SE5.6 kmh SE 6.0 mph9.7 kmh 30.09 in1019.0 mb 0.00 in0.0 mm 0.00 in0.0 mm 0.01 in0.3 mm
09:27 AM 56.9°F13.8°C 53.7°F12.1°C 89% 4.3 mph SE6.9 kmh SE 7.0 mph11.3 kmh 30.09 in1019.0 mb 0.00 in0.0 mm 0.00 in0.0 mm 0.01 in0.3 mm
09:26 AM 56.8°F13.8°C 53.6°F12.0°C 89% 4.5 mph SE7.2 kmh SE 7.0 mph11.3 kmh 30.09 in1019.0 mb 0.00 in0.0 mm 0.00 in0.0 mm 0.01 in0.3 mm
09:25 AM 56.8°F13.8°C 53.6°F12.0°C 89% 4.5 mph SSE7.2 kmh SSE 7.0 mph11.3 kmh 30.09 in1019.0 mb 0.00 in0.0 mm 0.00 in0.0 mm 0.01 in0.3 mm
09:24 AM 56.7°F13.7°C 53.5°F11.9°C 89% 3.7 mph SE6.0 kmh SE 8.0 mph12.9 kmh 30.09 in1019.0 mb 0.00 in0.0 mm 0.00 in0.0 mm 0.01 in0.3 mm
09:23 AM 56.7°F13.7°C 53.5°F11.9°C 89% 5.3 mph SE8.5 kmh SE 8.0 mph12.9 kmh 30.09 in1019.0 mb 0.00 in0.0 mm 0.00 in0.0 mm 0.01 in0.3 mm
09:22 AM 56.7°F13.7°C 53.2°F11.8°C 88% 5.9 mph SE9.5 kmh SE 8.0 mph12.9 kmh 30.09 in1019.0 mb 0.00 in0.0 mm 0.00 in0.0 mm 0.01 in0.3 mm
09:21 AM 56.8°F13.8°C 53.6°F12.0°C 89% 7.0 mph SE11.3 kmh SE 8.0 mph12.9 kmh 30.09 in1019.0 mb 0.00 in0.0 mm 0.00 in0.0 mm 0.01 in0.3 mm
09:20 AM 56.8°F13.8°C 53.9°F12.2°C 90% 4.7 mph SE7.6 kmh SE 8.0 mph12.9 kmh 30.09 in1019.0 mb 0.00 in0.0 mm 0.00 in0.0 mm 0.01 in0.3 mm
09:19 AM 56.8°F13.8°C 53.6°F12.0°C 89% 4.0 mph SE6.4 kmh SE 6.0 mph9.7 kmh 30.09 in1019.0 mb 0.00 in0.0 mm 0.00 in0.0 mm 0.01 in0.3 mm
09:18 AM 56.7°F13.7°C 53.8°F12.1°C 90% 4.4 mph SE7.1 kmh SE 6.0 mph9.7 kmh 30.09 in1019.0 mb 0.00 in0.0 mm 0.00 in0.0 mm 0.01 in0.3 mm
09:17 AM 56.7°F13.7°C 53.8°F12.1°C 90% 3.6 mph SE5.8 kmh SE 4.0 mph6.4 kmh 30.09 in1019.0 mb 0.00 in0.0 mm 0.00 in0.0 mm 0.01 in0.3 mm
09:16 AM 56.7°F13.7°C 53.8°F12.1°C 90% 1.9 mph SE3.1 kmh SE 5.0 mph8.0 kmh 30.09 in1019.0 mb 0.00 in0.0 mm 0.00 in0.0 mm 0.01 in0.3 mm
09:15 AM 56.6°F13.7°C 53.7°F12.1°C 90% 4.2 mph SE6.8 kmh SE 8.0 mph12.9 kmh 30.09 in1019.0 mb 0.00 in0.0 mm 0.00 in0.0 mm 0.01 in0.3 mm
09:14 AM 56.6°F13.7°C 53.4°F11.9°C 89% 4.9 mph SE7.9 kmh SE 8.0 mph12.9 kmh 30.09 in1019.0 mb 0.00 in0.0 mm 0.00 in0.0 mm 0.01 in0.3 mm
09:13 AM 56.6°F13.7°C 53.4°F11.9°C 89% 3.5 mph SE5.6 kmh SE 6.0 mph9.7 kmh 30.09 in1019.0 mb 0.00 in0.0 mm 0.00 in0.0 mm 0.01 in0.3 mm
09:12 AM 56.6°F13.7°C 53.4°F11.9°C 89% 4.4 mph SE7.1 kmh SE 8.0 mph12.9 kmh 30.09 in1019.0 mb 0.00 in0.0 mm 0.00 in0.0 mm 0.01 in0.3 mm
09:11 AM 56.5°F13.6°C 53.6°F12.0°C 90% 5.5 mph SE8.9 kmh SE 8.0 mph12.9 kmh 30.09 in1019.0 mb 0.00 in0.0 mm 0.00 in0.0 mm 0.01 in0.3 mm
09:10 AM 56.5°F13.6°C 53.6°F12.0°C 90% 4.9 mph SE7.9 kmh SE 8.0 mph12.9 kmh 30.09 in1019.0 mb 0.00 in0.0 mm 0.00 in0.0 mm 0.01 in0.3 mm
09:09 AM 56.5°F13.6°C 53.6°F12.0°C 90% 5.6 mph SE9.0 kmh SE 8.0 mph12.9 kmh 30.09 in1019.0 mb 0.00 in0.0 mm 0.00 in0.0 mm 0.01 in0.3 mm
09:08 AM 56.5°F13.6°C 53.6°F12.0°C 90% 5.2 mph SE8.4 kmh SE 8.0 mph12.9 kmh 30.09 in1019.0 mb 0.00 in0.0 mm 0.00 in0.0 mm 0.01 in0.3 mm
09:07 AM 56.4°F13.6°C 53.5°F11.9°C 90% 5.0 mph SE8.0 kmh SE 8.0 mph12.9 kmh 30.09 in1019.0 mb 0.00 in0.0 mm 0.00 in0.0 mm 0.01 in0.3 mm
09:06 AM 56.5°F13.6°C 53.6°F12.0°C 90% 6.4 mph SE10.3 kmh SE 8.0 mph12.9 kmh 30.09 in1019.0 mb 0.00 in0.0 mm 0.00 in0.0 mm 0.01 in0.3 mm
09:05 AM 56.5°F13.6°C 53.6°F12.0°C 90% 4.6 mph SE7.4 kmh SE 7.0 mph11.3 kmh 30.09 in1019.0 mb 0.00 in0.0 mm 0.00 in0.0 mm 0.01 in0.3 mm
09:04 AM 56.5°F13.6°C 53.3°F11.8°C 89% 3.5 mph SE5.6 kmh SE 7.0 mph11.3 kmh 30.09 in1019.0 mb 0.00 in0.0 mm 0.00 in0.0 mm 0.01 in0.3 mm
09:03 AM 56.5°F13.6°C 53.3°F11.8°C 89% 5.5 mph SE8.9 kmh SE 8.0 mph12.9 kmh 30.09 in1019.0 mb 0.00 in0.0 mm 0.00 in0.0 mm 0.01 in0.3 mm
09:02 AM 56.5°F13.6°C 53.6°F12.0°C 90% 6.4 mph SE10.3 kmh SE 8.0 mph12.9 kmh 30.09 in1019.0 mb 0.00 in0.0 mm 0.00 in0.0 mm 0.01 in0.3 mm
09:01 AM 56.6°F13.7°C 53.7°F12.1°C 90% 4.6 mph SE7.4 kmh SE 8.0 mph12.9 kmh 30.09 in1019.0 mb 0.00 in0.0 mm 0.00 in0.0 mm 0.01 in0.3 mm
09:00 AM 56.5°F13.6°C 53.6°F12.0°C 90% 6.5 mph SE10.5 kmh SE 8.0 mph12.9 kmh 30.09 in1019.0 mb 0.00 in0.0 mm 0.00 in0.0 mm 0.01 in0.3 mm
08:59 AM 56.5°F13.6°C 53.6°F12.0°C 90% 5.9 mph SE9.5 kmh SE 8.0 mph12.9 kmh 30.09 in1019.0 mb 0.00 in0.0 mm 0.00 in0.0 mm 0.01 in0.3 mm
08:58 AM 56.5°F13.6°C 53.6°F12.0°C 90% 4.5 mph SE7.2 kmh SE 8.0 mph12.9 kmh 30.09 in1019.0 mb 0.00 in0.0 mm 0.00 in0.0 mm 0.01 in0.3 mm
08:57 AM 56.4°F13.6°C 53.5°F11.9°C 90% 5.5 mph SE8.9 kmh SE 8.0 mph12.9 kmh 30.09 in1019.0 mb 0.00 in0.0 mm 0.00 in0.0 mm 0.01 in0.3 mm
08:56 AM 56.4°F13.6°C 53.5°F11.9°C 90% 5.7 mph SE9.2 kmh SE 8.0 mph12.9 kmh 30.09 in1019.0 mb 0.00 in0.0 mm 0.00 in0.0 mm 0.01 in0.3 mm
08:55 AM 56.4°F13.6°C 53.5°F11.9°C 90% 5.7 mph SE9.2 kmh SE 8.0 mph12.9 kmh 30.09 in1019.0 mb 0.00 in0.0 mm 0.00 in0.0 mm 0.01 in0.3 mm
08:54 AM 56.3°F13.5°C 53.4°F11.9°C 90% 6.0 mph SE9.7 kmh SE 8.0 mph12.9 kmh 30.09 in1019.0 mb 0.00 in0.0 mm 0.00 in0.0 mm 0.01 in0.3 mm
08:53 AM 56.3°F13.5°C 53.4°F11.9°C 90% 6.5 mph SE10.5 kmh SE 8.0 mph12.9 kmh 30.09 in1019.0 mb 0.00 in0.0 mm 0.00 in0.0 mm 0.01 in0.3 mm
08:52 AM 56.3°F13.5°C 53.4°F11.9°C 90% 7.0 mph SE11.3 kmh SE 8.0 mph12.9 kmh 30.09 in1019.0 mb 0.00 in0.0 mm 0.00 in0.0 mm 0.01 in0.3 mm
08:51 AM 56.4°F13.6°C 53.5°F11.9°C 90% 4.3 mph SE6.9 kmh SE 6.0 mph9.7 kmh 30.09 in1019.0 mb 0.00 in0.0 mm 0.00 in0.0 mm 0.01 in0.3 mm
08:50 AM 56.3°F13.5°C 53.4°F11.9°C 90% 4.0 mph SE6.4 kmh SE 7.0 mph11.3 kmh 30.09 in1019.0 mb 0.00 in0.0 mm 0.00 in0.0 mm 0.01 in0.3 mm
08:49 AM 56.4°F13.6°C 53.5°F11.9°C 90% 4.7 mph ESE7.6 kmh ESE 8.0 mph12.9 kmh 30.09 in1019.0 mb 0.00 in0.0 mm 0.00 in0.0 mm 0.01 in0.3 mm
08:48 AM 56.4°F13.6°C 53.5°F11.9°C 90% 7.0 mph SE11.3 kmh SE 9.0 mph14.5 kmh 30.08 in1018.6 mb 0.00 in0.0 mm 0.00 in0.0 mm 0.01 in0.3 mm
08:47 AM 56.4°F13.6°C 53.5°F11.9°C 90% 6.1 mph SE9.8 kmh SE 9.0 mph14.5 kmh 30.08 in1018.6 mb 0.00 in0.0 mm 0.00 in0.0 mm 0.01 in0.3 mm
08:46 AM 56.5°F13.6°C 53.6°F12.0°C 90% 5.4 mph SE8.7 kmh SE 9.0 mph14.5 kmh 30.08 in1018.6 mb 0.00 in0.0 mm 0.00 in0.0 mm 0.01 in0.3 mm
08:45 AM 56.5°F13.6°C 53.6°F12.0°C 90% 7.9 mph ESE12.7 kmh ESE 9.0 mph14.5 kmh 30.08 in1018.6 mb 0.00 in0.0 mm 0.00 in0.0 mm 0.01 in0.3 mm
08:44 AM 56.5°F13.6°C 53.6°F12.0°C 90% 7.3 mph SE11.7 kmh SE 8.0 mph12.9 kmh 30.08 in1018.6 mb 0.00 in0.0 mm 0.00 in0.0 mm 0.01 in0.3 mm
08:43 AM 56.6°F13.7°C 53.7°F12.1°C 90% 5.7 mph SE9.2 kmh SE 8.0 mph12.9 kmh 30.08 in1018.6 mb 0.00 in0.0 mm 0.00 in0.0 mm 0.01 in0.3 mm
08:42 AM 56.5°F13.6°C 53.6°F12.0°C 90% 3.5 mph SE5.6 kmh SE 7.0 mph11.3 kmh 30.08 in1018.6 mb 0.00 in0.0 mm 0.00 in0.0 mm 0.01 in0.3 mm
08:41 AM 56.4°F13.6°C 53.5°F11.9°C 90% 5.4 mph SE8.7 kmh SE 9.0 mph14.5 kmh 30.08 in1018.6 mb 0.00 in0.0 mm 0.00 in0.0 mm 0.01 in0.3 mm
08:40 AM 56.4°F13.6°C 53.5°F11.9°C 90% 7.0 mph SE11.3 kmh SE 9.0 mph14.5 kmh 30.08 in1018.6 mb 0.00 in0.0 mm 0.00 in0.0 mm 0.01 in0.3 mm
08:39 AM 56.3°F13.5°C 53.4°F11.9°C 90% 7.6 mph SE12.2 kmh SE 9.0 mph14.5 kmh 30.08 in1018.6 mb 0.00 in0.0 mm 0.00 in0.0 mm 0.01 in0.3 mm
08:38 AM 56.3°F13.5°C 53.4°F11.9°C 90% 7.4 mph SE11.9 kmh SE 10.0 mph16.1 kmh 30.08 in1018.6 mb 0.00 in0.0 mm 0.00 in0.0 mm 0.01 in0.3 mm
08:37 AM 56.3°F13.5°C 53.4°F11.9°C 90% 7.8 mph SE12.6 kmh SE 10.0 mph16.1 kmh 30.08 in1018.6 mb 0.00 in0.0 mm 0.00 in0.0 mm 0.01 in0.3 mm
08:36 AM 56.3°F13.5°C 53.4°F11.9°C 90% 7.8 mph SE12.6 kmh SE 10.0 mph16.1 kmh 30.08 in1018.6 mb 0.00 in0.0 mm 0.00 in0.0 mm 0.01 in0.3 mm
08:35 AM 56.3°F13.5°C 53.7°F12.1°C 91% 7.9 mph SE12.7 kmh SE 10.0 mph16.1 kmh 30.08 in1018.6 mb 0.00 in0.0 mm 0.00 in0.0 mm 0.01 in0.3 mm
08:34 AM 56.3°F13.5°C 53.7°F12.1°C 91% 4.5 mph SE7.2 kmh SE 7.0 mph11.3 kmh 30.08 in1018.6 mb 0.00 in0.0 mm 0.00 in0.0 mm 0.01 in0.3 mm
08:33 AM 56.2°F13.4°C 53.6°F12.0°C 91% 3.7 mph SE6.0 kmh SE 7.0 mph11.3 kmh 30.08 in1018.6 mb 0.00 in0.0 mm 0.00 in0.0 mm 0.01 in0.3 mm
08:32 AM 56.2°F13.4°C 53.6°F12.0°C 91% 5.7 mph SE9.2 kmh SE 9.0 mph14.5 kmh 30.08 in1018.6 mb 0.00 in0.0 mm 0.00 in0.0 mm 0.01 in0.3 mm
08:31 AM 56.1°F13.4°C 53.5°F11.9°C 91% 6.3 mph SE10.1 kmh SE 9.0 mph14.5 kmh 30.08 in1018.6 mb 0.00 in0.0 mm 0.00 in0.0 mm 0.01 in0.3 mm
08:30 AM 56.0°F13.3°C 53.4°F11.9°C 91% 7.2 mph SE11.6 kmh SE 8.0 mph12.9 kmh 30.08 in1018.6 mb 0.00 in0.0 mm 0.00 in0.0 mm 0.01 in0.3 mm
08:29 AM 56.0°F13.3°C 53.7°F12.1°C 92% 5.0 mph SE8.0 kmh SE 7.0 mph11.3 kmh 30.08 in1018.6 mb 0.00 in0.0 mm 0.00 in0.0 mm 0.01 in0.3 mm
08:28 AM 55.9°F13.3°C 53.6°F12.0°C 92% 3.0 mph SE4.8 kmh SE 7.0 mph11.3 kmh 30.08 in1018.6 mb 0.00 in0.0 mm 0.00 in0.0 mm 0.01 in0.3 mm
08:27 AM 55.7°F13.2°C 53.4°F11.9°C 92% 4.1 mph SE6.6 kmh SE 7.0 mph11.3 kmh 30.08 in1018.6 mb 0.00 in0.0 mm 0.00 in0.0 mm 0.01 in0.3 mm
08:26 AM 55.6°F13.1°C 53.3°F11.8°C 92% 4.3 mph ESE6.9 kmh ESE 7.0 mph11.3 kmh 30.08 in1018.6 mb 0.00 in0.0 mm 0.00 in0.0 mm 0.01 in0.3 mm
08:25 AM 55.5°F13.1°C 53.2°F11.8°C 92% 2.9 mph ESE4.7 kmh ESE 7.0 mph11.3 kmh 30.08 in1018.6 mb 0.00 in0.0 mm 0.00 in0.0 mm 0.01 in0.3 mm
08:24 AM 55.5°F13.1°C 53.2°F11.8°C 92% 5.0 mph SE8.0 kmh SE 7.0 mph11.3 kmh 30.08 in1018.6 mb 0.00 in0.0 mm 0.00 in0.0 mm 0.01 in0.3 mm
08:23 AM 55.4°F13.0°C 53.1°F11.7°C 92% 5.4 mph SE8.7 kmh SE 10.0 mph16.1 kmh 30.08 in1018.6 mb 0.00 in0.0 mm 0.00 in0.0 mm 0.01 in0.3 mm
08:22 AM 55.4°F13.0°C 53.1°F11.7°C 92% 7.6 mph SE12.2 kmh SE 10.0 mph16.1 kmh 30.08 in1018.6 mb 0.00 in0.0 mm 0.00 in0.0 mm 0.01 in0.3 mm
08:21 AM 55.3°F12.9°C 53.3°F11.8°C 93% 5.1 mph SE8.2 kmh SE 8.0 mph12.9 kmh 30.08 in1018.6 mb 0.00 in0.0 mm 0.00 in0.0 mm 0.01 in0.3 mm
08:20 AM 55.2°F12.9°C 53.2°F11.8°C 93% 3.1 mph SE5.0 kmh SE 6.0 mph9.7 kmh 30.08 in1018.6 mb 0.00 in0.0 mm 0.00 in0.0 mm 0.01 in0.3 mm
08:19 AM 55.1°F12.8°C 53.1°F11.7°C 93% 4.3 mph ESE6.9 kmh ESE 6.0 mph9.7 kmh 30.08 in1018.6 mb 0.00 in0.0 mm 0.00 in0.0 mm 0.01 in0.3 mm
08:18 AM 55.0°F12.8°C 53.0°F11.7°C 93% 4.0 mph SE6.4 kmh SE 6.0 mph9.7 kmh 30.08 in1018.6 mb 0.00 in0.0 mm 0.00 in0.0 mm 0.01 in0.3 mm
08:17 AM 54.9°F12.7°C 52.9°F11.6°C 93% 4.6 mph ESE7.4 kmh ESE 6.0 mph9.7 kmh 30.08 in1018.6 mb 0.00 in0.0 mm 0.00 in0.0 mm 0.01 in0.3 mm
08:16 AM 54.9°F12.7°C 52.9°F11.6°C 93% 3.6 mph SE5.8 kmh SE 6.0 mph9.7 kmh 30.08 in1018.6 mb 0.00 in0.0 mm 0.00 in0.0 mm 0.01 in0.3 mm
08:15 AM 54.8°F12.7°C 52.8°F11.6°C 93% 3.1 mph ESE5.0 kmh ESE 6.0 mph9.7 kmh 30.08 in1018.6 mb 0.00 in0.0 mm 0.00 in0.0 mm 0.01 in0.3 mm
08:14 AM 54.8°F12.7°C 52.8°F11.6°C 93% 3.9 mph ESE6.3 kmh ESE 7.0 mph11.3 kmh 30.08 in1018.6 mb 0.00 in0.0 mm 0.00 in0.0 mm 0.01 in0.3 mm
08:13 AM 54.8°F12.7°C 53.1°F11.7°C 94% 5.0 mph SE8.0 kmh SE 7.0 mph11.3 kmh 30.08 in1018.6 mb 0.00 in0.0 mm 0.00 in0.0 mm 0.01 in0.3 mm
08:12 AM 54.7°F12.6°C 53.0°F11.7°C 94% 3.4 mph SE5.5 kmh SE 5.0 mph8.0 kmh 30.08 in1018.6 mb 0.00 in0.0 mm 0.00 in0.0 mm 0.01 in0.3 mm
08:11 AM 54.6°F12.6°C 52.6°F11.4°C 93% 3.7 mph SE6.0 kmh SE 6.0 mph9.7 kmh 30.08 in1018.6 mb 0.00 in0.0 mm 0.00 in0.0 mm 0.01 in0.3 mm
08:10 AM 54.5°F12.5°C 52.8°F11.6°C 94% 4.2 mph ESE6.8 kmh ESE 6.0 mph9.7 kmh 30.08 in1018.6 mb 0.00 in0.0 mm 0.00 in0.0 mm 0.01 in0.3 mm
08:09 AM 54.4°F12.4°C 52.7°F11.5°C 94% 3.1 mph SE5.0 kmh SE 6.0 mph9.7 kmh 30.08 in1018.6 mb 0.00 in0.0 mm 0.00 in0.0 mm 0.01 in0.3 mm
08:08 AM 54.3°F12.4°C 52.6°F11.4°C 94% 3.6 mph SE5.8 kmh SE 6.0 mph9.7 kmh 30.08 in1018.6 mb 0.00 in0.0 mm 0.00 in0.0 mm 0.01 in0.3 mm
08:07 AM 54.2°F12.3°C 52.5°F11.4°C 94% 3.9 mph SE6.3 kmh SE 6.0 mph9.7 kmh 30.07 in1018.3 mb 0.00 in0.0 mm 0.00 in0.0 mm 0.01 in0.3 mm
08:06 AM 54.1°F12.3°C 52.4°F11.3°C 94% 4.5 mph ESE7.2 kmh ESE 8.0 mph12.9 kmh 30.08 in1018.6 mb 0.00 in0.0 mm 0.00 in0.0 mm 0.01 in0.3 mm
08:05 AM 54.0°F12.2°C 52.3°F11.3°C 94% 5.2 mph SE8.4 kmh SE 8.0 mph12.9 kmh 30.08 in1018.6 mb 0.00 in0.0 mm 0.00 in0.0 mm 0.01 in0.3 mm
08:04 AM 54.0°F12.2°C 52.3°F11.3°C 94% 5.7 mph SE9.2 kmh SE 8.0 mph12.9 kmh 30.07 in1018.3 mb 0.00 in0.0 mm 0.00 in0.0 mm 0.01 in0.3 mm
08:03 AM 53.9°F12.2°C 52.2°F11.2°C 94% 4.5 mph SE7.2 kmh SE 7.0 mph11.3 kmh 30.07 in1018.3 mb 0.00 in0.0 mm 0.00 in0.0 mm 0.01 in0.3 mm
08:02 AM 53.9°F12.2°C 52.2°F11.2°C 94% 4.6 mph SE7.4 kmh SE 7.0 mph11.3 kmh 30.07 in1018.3 mb 0.00 in0.0 mm 0.00 in0.0 mm 0.01 in0.3 mm
08:01 AM 53.8°F12.1°C 52.1°F11.2°C 94% 3.5 mph SE5.6 kmh SE 7.0 mph11.3 kmh 30.07 in1018.3 mb 0.00 in0.0 mm 0.00 in0.0 mm 0.01 in0.3 mm
08:00 AM 53.8°F12.1°C 52.1°F11.2°C 94% 4.0 mph SE6.4 kmh SE 7.0 mph11.3 kmh 30.07 in1018.3 mb 0.00 in0.0 mm 0.00 in0.0 mm 0.01 in0.3 mm
07:59 AM 53.8°F12.1°C 52.1°F11.2°C 94% 5.1 mph SE8.2 kmh SE 8.0 mph12.9 kmh 30.07 in1018.3 mb 0.00 in0.0 mm 0.00 in0.0 mm 0.01 in0.3 mm
07:58 AM 53.8°F12.1°C 52.1°F11.2°C 94% 4.8 mph SE7.7 kmh SE 8.0 mph12.9 kmh 30.07 in1018.3 mb 0.00 in0.0 mm 0.00 in0.0 mm 0.01 in0.3 mm
07:57 AM 53.7°F12.1°C 52.0°F11.1°C 94% 4.5 mph SE7.2 kmh SE 6.0 mph9.7 kmh 30.07 in1018.3 mb 0.00 in0.0 mm 0.00 in0.0 mm 0.01 in0.3 mm
07:56 AM 53.8°F12.1°C 52.1°F11.2°C 94% 4.4 mph SE7.1 kmh SE 6.0 mph9.7 kmh 30.07 in1018.3 mb 0.00 in0.0 mm 0.00 in0.0 mm 0.01 in0.3 mm
07:55 AM 53.8°F12.1°C 52.1°F11.2°C 94% 4.0 mph ESE6.4 kmh ESE 6.0 mph9.7 kmh 30.07 in1018.3 mb 0.00 in0.0 mm 0.00 in0.0 mm 0.01 in0.3 mm
07:54 AM 53.7°F12.1°C 52.0°F11.1°C 94% 3.6 mph SE5.8 kmh SE 5.0 mph8.0 kmh 30.07 in1018.3 mb 0.00 in0.0 mm 0.00 in0.0 mm 0.01 in0.3 mm
07:53 AM 53.7°F12.1°C 52.0°F11.1°C 94% 3.2 mph SE5.1 kmh SE 6.0 mph9.7 kmh 30.08 in1018.6 mb 0.00 in0.0 mm 0.00 in0.0 mm 0.01 in0.3 mm
07:52 AM 53.7°F12.1°C 52.0°F11.1°C 94% 3.3 mph SE5.3 kmh SE 6.0 mph9.7 kmh 30.07 in1018.3 mb 0.00 in0.0 mm 0.00 in0.0 mm 0.01 in0.3 mm
07:51 AM 53.7°F12.1°C 52.0°F11.1°C 94% 2.9 mph SE4.7 kmh SE 5.0 mph8.0 kmh 30.07 in1018.3 mb 0.00 in0.0 mm 0.00 in0.0 mm 0.01 in0.3 mm
07:50 AM 53.7°F12.1°C 52.0°F11.1°C 94% 3.8 mph SE6.1 kmh SE 5.0 mph8.0 kmh 30.07 in1018.3 mb 0.00 in0.0 mm 0.00 in0.0 mm 0.01 in0.3 mm
07:49 AM 53.7°F12.1°C 52.0°F11.1°C 94% 3.0 mph SE4.8 kmh SE 6.0 mph9.7 kmh 30.08 in1018.6 mb 0.00 in0.0 mm 0.00 in0.0 mm 0.01 in0.3 mm
07:48 AM 53.6°F12.0°C 51.9°F11.1°C 94% 3.8 mph ESE6.1 kmh ESE 6.0 mph9.7 kmh 30.07 in1018.3 mb 0.00 in0.0 mm 0.00 in0.0 mm 0.01 in0.3 mm
07:47 AM 53.6°F12.0°C 51.9°F11.1°C 94% 3.8 mph ESE6.1 kmh ESE 7.0 mph11.3 kmh 30.07 in1018.3 mb 0.00 in0.0 mm 0.00 in0.0 mm 0.01 in0.3 mm
07:46 AM 53.6°F12.0°C 51.9°F11.1°C 94% 4.2 mph ESE6.8 kmh ESE 7.0 mph11.3 kmh 30.07 in1018.3 mb 0.00 in0.0 mm 0.00 in0.0 mm 0.01 in0.3 mm
07:45 AM 53.6°F12.0°C 51.9°F11.1°C 94% 4.5 mph SE7.2 kmh SE 6.0 mph9.7 kmh 30.07 in1018.3 mb 0.00 in0.0 mm 0.00 in0.0 mm 0.01 in0.3 mm
07:44 AM 53.6°F12.0°C 51.9°F11.1°C 94% 3.7 mph ESE6.0 kmh ESE 6.0 mph9.7 kmh 30.08 in1018.6 mb 0.00 in0.0 mm 0.00 in0.0 mm 0.01 in0.3 mm
07:43 AM 53.6°F12.0°C 51.9°F11.1°C 94% 4.7 mph SE7.6 kmh SE 7.0 mph11.3 kmh 30.07 in1018.3 mb 0.00 in0.0 mm 0.00 in0.0 mm 0.01 in0.3 mm
07:42 AM 53.6°F12.0°C 51.9°F11.1°C 94% 4.4 mph ESE7.1 kmh ESE 7.0 mph11.3 kmh 30.08 in1018.6 mb 0.00 in0.0 mm 0.00 in0.0 mm 0.01 in0.3 mm
07:41 AM 53.6°F12.0°C 51.9°F11.1°C 94% 3.2 mph SE5.1 kmh SE 6.0 mph9.7 kmh 30.08 in1018.6 mb 0.00 in0.0 mm 0.00 in0.0 mm 0.01 in0.3 mm
07:40 AM 53.6°F12.0°C 51.9°F11.1°C 94% 2.7 mph SE4.3 kmh SE 5.0 mph8.0 kmh 30.08 in1018.6 mb 0.00 in0.0 mm 0.00 in0.0 mm 0.01 in0.3 mm
07:39 AM 53.5°F11.9°C 51.8°F11.0°C 94% 2.9 mph SE4.7 kmh SE 5.0 mph8.0 kmh 30.08 in1018.6 mb 0.00 in0.0 mm 0.00 in0.0 mm 0.01 in0.3 mm
07:38 AM 53.5°F11.9°C 51.8°F11.0°C 94% 2.2 mph E3.5 kmh E 3.0 mph4.8 kmh 30.08 in1018.6 mb 0.00 in0.0 mm 0.00 in0.0 mm 0.01 in0.3 mm
07:37 AM 53.5°F11.9°C 51.8°F11.0°C 94% 1.6 mph ESE2.6 kmh ESE 2.0 mph3.2 kmh 30.07 in1018.3 mb 0.00 in0.0 mm 0.00 in0.0 mm 0.01 in0.3 mm
07:36 AM 53.5°F11.9°C 51.8°F11.0°C 94% 0.9 mph ESE1.4 kmh ESE 3.0 mph4.8 kmh 30.07 in1018.3 mb 0.00 in0.0 mm 0.00 in0.0 mm 0.01 in0.3 mm
07:35 AM 53.5°F11.9°C 51.8°F11.0°C 94% 1.6 mph ESE2.6 kmh ESE 4.0 mph6.4 kmh 30.07 in1018.3 mb 0.00 in0.0 mm 0.00 in0.0 mm 0.01 in0.3 mm
07:34 AM 53.4°F11.9°C 51.7°F10.9°C 94% 3.0 mph E4.8 kmh E 4.0 mph6.4 kmh 30.07 in1018.3 mb 0.00 in0.0 mm 0.00 in0.0 mm 0.01 in0.3 mm
07:33 AM 53.5°F11.9°C 51.8°F11.0°C 94% 3.3 mph E5.3 kmh E 4.0 mph6.4 kmh 30.07 in1018.3 mb 0.00 in0.0 mm 0.00 in0.0 mm 0.01 in0.3 mm
07:32 AM 53.5°F11.9°C 51.8°F11.0°C 94% 3.5 mph E5.6 kmh E 4.0 mph6.4 kmh 30.07 in1018.3 mb 0.00 in0.0 mm 0.00 in0.0 mm 0.01 in0.3 mm
07:31 AM 53.5°F11.9°C 51.8°F11.0°C 94% 3.1 mph E5.0 kmh E 4.0 mph6.4 kmh 30.07 in1018.3 mb 0.00 in0.0 mm 0.00 in0.0 mm 0.01 in0.3 mm
07:30 AM 53.5°F11.9°C 51.8°F11.0°C 94% 3.6 mph ESE5.8 kmh ESE 4.0 mph6.4 kmh 30.07 in1018.3 mb 0.00 in0.0 mm 0.00 in0.0 mm 0.01 in0.3 mm
07:29 AM 53.5°F11.9°C 51.8°F11.0°C 94% 2.5 mph ESE4.0 kmh ESE 4.0 mph6.4 kmh 30.07 in1018.3 mb 0.00 in0.0 mm 0.00 in0.0 mm 0.01 in0.3 mm
07:28 AM 53.4°F11.9°C 51.7°F10.9°C 94% 2.5 mph ESE4.0 kmh ESE 4.0 mph6.4 kmh 30.07 in1018.3 mb 0.00 in0.0 mm 0.00 in0.0 mm 0.01 in0.3 mm
07:27 AM 53.5°F11.9°C 51.8°F11.0°C 94% 3.0 mph ESE4.8 kmh ESE 4.0 mph6.4 kmh 30.07 in1018.3 mb 0.00 in0.0 mm 0.00 in0.0 mm 0.01 in0.3 mm
07:26 AM 53.5°F11.9°C 51.8°F11.0°C 94% 2.0 mph ESE3.2 kmh ESE 4.0 mph6.4 kmh 30.07 in1018.3 mb 0.00 in0.0 mm 0.00 in0.0 mm 0.01 in0.3 mm
07:25 AM 53.5°F11.9°C 51.8°F11.0°C 94% 2.6 mph ESE4.2 kmh ESE 4.0 mph6.4 kmh 30.07 in1018.3 mb 0.00 in0.0 mm 0.00 in0.0 mm 0.01 in0.3 mm
07:24 AM 53.4°F11.9°C 51.7°F10.9°C 94% 2.9 mph ESE4.7 kmh ESE 4.0 mph6.4 kmh 30.07 in1018.3 mb 0.00 in0.0 mm 0.00 in0.0 mm 0.01 in0.3 mm
07:23 AM 53.4°F11.9°C 51.7°F10.9°C 94% 3.4 mph SE5.5 kmh SE 6.0 mph9.7 kmh 30.07 in1018.3 mb 0.00 in0.0 mm 0.00 in0.0 mm 0.01 in0.3 mm
07:22 AM 53.4°F11.9°C 51.7°F10.9°C 94% 3.9 mph ESE6.3 kmh ESE 6.0 mph9.7 kmh 30.07 in1018.3 mb 0.00 in0.0 mm 0.00 in0.0 mm 0.01 in0.3 mm
07:21 AM 53.4°F11.9°C 51.7°F10.9°C 94% 4.2 mph SE6.8 kmh SE 7.0 mph11.3 kmh 30.07 in1018.3 mb 0.00 in0.0 mm 0.00 in0.0 mm 0.01 in0.3 mm
07:20 AM 53.4°F11.9°C 51.7°F10.9°C 94% 4.8 mph SE7.7 kmh SE 7.0 mph11.3 kmh 30.07 in1018.3 mb 0.00 in0.0 mm 0.00 in0.0 mm 0.01 in0.3 mm
07:19 AM 53.4°F11.9°C 51.7°F10.9°C 94% 4.3 mph SE6.9 kmh SE 6.0 mph9.7 kmh 30.07 in1018.3 mb 0.00 in0.0 mm 0.00 in0.0 mm 0.01 in0.3 mm
07:18 AM 53.4°F11.9°C 51.7°F10.9°C 94% 3.8 mph SE6.1 kmh SE 6.0 mph9.7 kmh 30.07 in1018.3 mb 0.00 in0.0 mm 0.00 in0.0 mm 0.01 in0.3 mm
07:17 AM 53.4°F11.9°C 51.7°F10.9°C 94% 4.4 mph SE7.1 kmh SE 7.0 mph11.3 kmh 30.07 in1018.3 mb 0.00 in0.0 mm 0.00 in0.0 mm 0.01 in0.3 mm
07:16 AM 53.4°F11.9°C 52.0°F11.1°C 95% 3.7 mph SE6.0 kmh SE 7.0 mph11.3 kmh 30.07 in1018.3 mb 0.00 in0.0 mm 0.00 in0.0 mm 0.01 in0.3 mm
07:15 AM 53.4°F11.9°C 52.0°F11.1°C 95% 4.2 mph SE6.8 kmh SE 7.0 mph11.3 kmh 30.07 in1018.3 mb 0.00 in0.0 mm 0.00 in0.0 mm 0.01 in0.3 mm
07:14 AM 53.4°F11.9°C 51.7°F10.9°C 94% 4.8 mph SE7.7 kmh SE 7.0 mph11.3 kmh 30.07 in1018.3 mb 0.00 in0.0 mm 0.00 in0.0 mm 0.01 in0.3 mm
07:13 AM 53.4°F11.9°C 52.0°F11.1°C 95% 4.6 mph SE7.4 kmh SE 5.0 mph8.0 kmh 30.07 in1018.3 mb 0.00 in0.0 mm 0.00 in0.0 mm 0.01 in0.3 mm
07:12 AM 53.4°F11.9°C 52.0°F11.1°C 95% 4.3 mph SE6.9 kmh SE 8.0 mph12.9 kmh 30.07 in1018.3 mb 0.00 in0.0 mm 0.00 in0.0 mm 0.01 in0.3 mm
07:11 AM 53.3°F11.8°C 51.9°F11.1°C 95% 5.4 mph SE8.7 kmh SE 8.0 mph12.9 kmh 30.07 in1018.3 mb 0.00 in0.0 mm 0.00 in0.0 mm 0.01 in0.3 mm
07:10 AM 53.3°F11.8°C 51.9°F11.1°C 95% 5.7 mph SE9.2 kmh SE 8.0 mph12.9 kmh 30.07 in1018.3 mb 0.00 in0.0 mm 0.00 in0.0 mm 0.01 in0.3 mm
07:09 AM 53.2°F11.8°C 51.8°F11.0°C 95% 6.1 mph SE9.8 kmh SE 8.0 mph12.9 kmh 30.07 in1018.3 mb 0.00 in0.0 mm 0.00 in0.0 mm 0.01 in0.3 mm
07:08 AM 53.2°F11.8°C 51.8°F11.0°C 95% 5.6 mph SE9.0 kmh SE 8.0 mph12.9 kmh 30.07 in1018.3 mb 0.00 in0.0 mm 0.00 in0.0 mm 0.01 in0.3 mm
07:07 AM 53.2°F11.8°C 51.8°F11.0°C 95% 4.5 mph SE7.2 kmh SE 6.0 mph9.7 kmh 30.07 in1018.3 mb 0.00 in0.0 mm 0.00 in0.0 mm 0.01 in0.3 mm
07:06 AM 53.2°F11.8°C 51.8°F11.0°C 95% 4.1 mph SE6.6 kmh SE 7.0 mph11.3 kmh 30.07 in1018.3 mb 0.00 in0.0 mm 0.00 in0.0 mm 0.01 in0.3 mm
07:05 AM 53.2°F11.8°C 51.8°F11.0°C 95% 4.6 mph SE7.4 kmh SE 7.0 mph11.3 kmh 30.07 in1018.3 mb 0.00 in0.0 mm 0.00 in0.0 mm 0.01 in0.3 mm
07:04 AM 53.2°F11.8°C 51.8°F11.0°C 95% 5.0 mph SE8.0 kmh SE 7.0 mph11.3 kmh 30.07 in1018.3 mb 0.00 in0.0 mm 0.00 in0.0 mm 0.01 in0.3 mm
07:03 AM 53.1°F11.7°C 51.7°F10.9°C 95% 4.7 mph SE7.6 kmh SE 7.0 mph11.3 kmh 30.07 in1018.3 mb 0.00 in0.0 mm 0.00 in0.0 mm 0.01 in0.3 mm
07:02 AM 53.2°F11.8°C 51.8°F11.0°C 95% 4.8 mph SE7.7 kmh SE 7.0 mph11.3 kmh 30.07 in1018.3 mb 0.00 in0.0 mm 0.00 in0.0 mm 0.01 in0.3 mm
07:01 AM 53.2°F11.8°C 51.8°F11.0°C 95% 4.7 mph SE7.6 kmh SE 8.0 mph12.9 kmh 30.07 in1018.3 mb 0.00 in0.0 mm 0.00 in0.0 mm 0.01 in0.3 mm
07:00 AM 53.2°F11.8°C 51.8°F11.0°C 95% 5.4 mph SE8.7 kmh SE 8.0 mph12.9 kmh 30.06 in1017.9 mb 0.00 in0.0 mm 0.00 in0.0 mm 0.01 in0.3 mm
06:59 AM 53.1°F11.7°C 51.7°F10.9°C 95% 5.3 mph SE8.5 kmh SE 8.0 mph12.9 kmh 30.06 in1017.9 mb 0.00 in0.0 mm 0.00 in0.0 mm 0.01 in0.3 mm
06:58 AM 53.1°F11.7°C 51.7°F10.9°C 95% 5.9 mph SE9.5 kmh SE 8.0 mph12.9 kmh 30.06 in1017.9 mb 0.00 in0.0 mm 0.00 in0.0 mm 0.01 in0.3 mm
06:57 AM 53.0°F11.7°C 51.6°F10.9°C 95% 4.4 mph SE7.1 kmh SE 7.0 mph11.3 kmh 30.06 in1017.9 mb 0.00 in0.0 mm 0.00 in0.0 mm 0.01 in0.3 mm
06:56 AM 53.0°F11.7°C 51.6°F10.9°C 95% 4.6 mph SE7.4 kmh SE 8.0 mph12.9 kmh 30.06 in1017.9 mb 0.00 in0.0 mm 0.00 in0.0 mm 0.01 in0.3 mm
06:55 AM 53.0°F11.7°C 51.6°F10.9°C 95% 5.5 mph SE8.9 kmh SE 8.0 mph12.9 kmh 30.06 in1017.9 mb 0.00 in0.0 mm 0.00 in0.0 mm 0.01 in0.3 mm
06:54 AM 53.0°F11.7°C 51.6°F10.9°C 95% 4.9 mph SE7.9 kmh SE 8.0 mph12.9 kmh 30.06 in1017.9 mb 0.00 in0.0 mm 0.00 in0.0 mm 0.01 in0.3 mm
06:53 AM 53.0°F11.7°C 51.6°F10.9°C 95% 6.1 mph SE9.8 kmh SE 8.0 mph12.9 kmh 30.06 in1017.9 mb 0.00 in0.0 mm 0.00 in0.0 mm 0.01 in0.3 mm
06:52 AM 53.0°F11.7°C 51.6°F10.9°C 95% 5.1 mph SE8.2 kmh SE 8.0 mph12.9 kmh 30.06 in1017.9 mb 0.00 in0.0 mm 0.00 in0.0 mm 0.01 in0.3 mm
06:51 AM 52.9°F11.6°C 51.5°F10.8°C 95% 5.0 mph SE8.0 kmh SE 8.0 mph12.9 kmh 30.06 in1017.9 mb 0.00 in0.0 mm 0.00 in0.0 mm 0.01 in0.3 mm
06:50 AM 52.9°F11.6°C 51.5°F10.8°C 95% 5.1 mph SE8.2 kmh SE 8.0 mph12.9 kmh 30.06 in1017.9 mb 0.00 in0.0 mm 0.00 in0.0 mm 0.01 in0.3 mm
06:49 AM 52.8°F11.6°C 51.1°F10.6°C 94% 4.4 mph SE7.1 kmh SE 7.0 mph11.3 kmh 30.06 in1017.9 mb 0.00 in0.0 mm 0.00 in0.0 mm 0.01 in0.3 mm
06:48 AM 52.8°F11.6°C 51.1°F10.6°C 94% 4.6 mph SE7.4 kmh SE 7.0 mph11.3 kmh 30.06 in1017.9 mb 0.00 in0.0 mm 0.00 in0.0 mm 0.01 in0.3 mm
06:47 AM 52.8°F11.6°C 51.1°F10.6°C 94% 5.4 mph SE8.7 kmh SE 8.0 mph12.9 kmh 30.06 in1017.9 mb 0.00 in0.0 mm 0.00 in0.0 mm 0.01 in0.3 mm
06:46 AM 52.8°F11.6°C 51.1°F10.6°C 94% 5.0 mph SE8.0 kmh SE 8.0 mph12.9 kmh 30.06 in1017.9 mb 0.00 in0.0 mm 0.00 in0.0 mm 0.01 in0.3 mm
06:45 AM 52.8°F11.6°C 51.1°F10.6°C 94% 4.2 mph SE6.8 kmh SE 7.0 mph11.3 kmh 30.06 in1017.9 mb 0.00 in0.0 mm 0.00 in0.0 mm 0.01 in0.3 mm
06:44 AM 52.8°F11.6°C 51.1°F10.6°C 94% 4.6 mph SE7.4 kmh SE 7.0 mph11.3 kmh 30.06 in1017.9 mb 0.00 in0.0 mm 0.00 in0.0 mm 0.01 in0.3 mm
06:43 AM 52.8°F11.6°C 51.1°F10.6°C 94% 4.5 mph SE7.2 kmh SE 7.0 mph11.3 kmh 30.06 in1017.9 mb 0.00 in0.0 mm 0.00 in0.0 mm 0.01 in0.3 mm
06:42 AM 52.8°F11.6°C 51.1°F10.6°C 94% 4.9 mph SE7.9 kmh SE 7.0 mph11.3 kmh 30.06 in1017.9 mb 0.00 in0.0 mm 0.00 in0.0 mm 0.01 in0.3 mm
06:41 AM 52.8°F11.6°C 51.1°F10.6°C 94% 5.4 mph SE8.7 kmh SE 7.0 mph11.3 kmh 30.06 in1017.9 mb 0.00 in0.0 mm 0.00 in0.0 mm 0.01 in0.3 mm
06:40 AM 52.8°F11.6°C 51.1°F10.6°C 94% 5.1 mph SE8.2 kmh SE 7.0 mph11.3 kmh 30.06 in1017.9 mb 0.00 in0.0 mm 0.00 in0.0 mm 0.01 in0.3 mm
06:39 AM 52.8°F11.6°C 51.1°F10.6°C 94% 4.3 mph SE6.9 kmh SE 7.0 mph11.3 kmh 30.06 in1017.9 mb 0.00 in0.0 mm 0.00 in0.0 mm 0.01 in0.3 mm
06:38 AM 52.8°F11.6°C 51.1°F10.6°C 94% 4.7 mph SE7.6 kmh SE 8.0 mph12.9 kmh 30.06 in1017.9 mb 0.00 in0.0 mm 0.00 in0.0 mm 0.01 in0.3 mm
06:37 AM 52.8°F11.6°C 51.1°F10.6°C 94% 5.5 mph SE8.9 kmh SE 8.0 mph12.9 kmh 30.06 in1017.9 mb 0.00 in0.0 mm 0.00 in0.0 mm 0.01 in0.3 mm
06:36 AM 52.8°F11.6°C 51.1°F10.6°C 94% 6.6 mph SE10.6 kmh SE 8.0 mph12.9 kmh 30.06 in1017.9 mb 0.00 in0.0 mm 0.00 in0.0 mm 0.01 in0.3 mm
06:35 AM 52.8°F11.6°C 51.1°F10.6°C 94% 5.5 mph SE8.9 kmh SE 8.0 mph12.9 kmh 30.06 in1017.9 mb 0.00 in0.0 mm 0.00 in0.0 mm 0.01 in0.3 mm
06:34 AM 52.8°F11.6°C 51.1°F10.6°C 94% 3.9 mph SE6.3 kmh SE 5.0 mph8.0 kmh 30.06 in1017.9 mb 0.00 in0.0 mm 0.00 in0.0 mm 0.01 in0.3 mm
06:33 AM 52.8°F11.6°C 51.1°F10.6°C 94% 4.2 mph SE6.8 kmh SE 7.0 mph11.3 kmh 30.06 in1017.9 mb 0.00 in0.0 mm 0.00 in0.0 mm 0.01 in0.3 mm
06:32 AM 52.7°F11.5°C 51.0°F10.6°C 94% 4.7 mph SE7.6 kmh SE 7.0 mph11.3 kmh 30.06 in1017.9 mb 0.00 in0.0 mm 0.00 in0.0 mm 0.01 in0.3 mm
06:31 AM 52.8°F11.6°C 51.1°F10.6°C 94% 5.2 mph SE8.4 kmh SE 7.0 mph11.3 kmh 30.06 in1017.9 mb 0.00 in0.0 mm 0.00 in0.0 mm 0.01 in0.3 mm
06:30 AM 52.8°F11.6°C 51.1°F10.6°C 94% 5.3 mph SE8.5 kmh SE 7.0 mph11.3 kmh 30.06 in1017.9 mb 0.00 in0.0 mm 0.00 in0.0 mm 0.01 in0.3 mm
06:29 AM 52.7°F11.5°C 51.0°F10.6°C 94% 4.5 mph SE7.2 kmh SE 7.0 mph11.3 kmh 30.06 in1017.9 mb 0.00 in0.0 mm 0.00 in0.0 mm 0.01 in0.3 mm
06:28 AM 52.8°F11.6°C 51.1°F10.6°C 94% 4.4 mph SE7.1 kmh SE 7.0 mph11.3 kmh 30.06 in1017.9 mb 0.00 in0.0 mm 0.00 in0.0 mm 0.01 in0.3 mm
06:27 AM 52.7°F11.5°C 51.3°F10.7°C 95% 4.6 mph SE7.4 kmh SE 7.0 mph11.3 kmh 30.06 in1017.9 mb 0.00 in0.0 mm 0.00 in0.0 mm 0.01 in0.3 mm
06:26 AM 52.7°F11.5°C 51.0°F10.6°C 94% 4.6 mph SE7.4 kmh SE 7.0 mph11.3 kmh 30.06 in1017.9 mb 0.00 in0.0 mm 0.00 in0.0 mm 0.01 in0.3 mm
06:25 AM 52.7°F11.5°C 51.3°F10.7°C 95% 4.0 mph SE6.4 kmh SE 6.0 mph9.7 kmh 30.06 in1017.9 mb 0.00 in0.0 mm 0.00 in0.0 mm 0.01 in0.3 mm
06:24 AM 52.7°F11.5°C 51.3°F10.7°C 95% 4.1 mph ESE6.6 kmh ESE 6.0 mph9.7 kmh 30.06 in1017.9 mb 0.00 in0.0 mm 0.00 in0.0 mm 0.01 in0.3 mm
06:23 AM 52.7°F11.5°C 51.0°F10.6°C 94% 4.5 mph SE7.2 kmh SE 6.0 mph9.7 kmh 30.06 in1017.9 mb 0.00 in0.0 mm 0.00 in0.0 mm 0.01 in0.3 mm
06:22 AM 52.7°F11.5°C 51.3°F10.7°C 95% 4.6 mph ESE7.4 kmh ESE 6.0 mph9.7 kmh 30.06 in1017.9 mb 0.00 in0.0 mm 0.00 in0.0 mm 0.01 in0.3 mm
06:21 AM 52.7°F11.5°C 51.3°F10.7°C 95% 4.7 mph ESE7.6 kmh ESE 7.0 mph11.3 kmh 30.06 in1017.9 mb 0.00 in0.0 mm 0.00 in0.0 mm 0.01 in0.3 mm
06:20 AM 52.7°F11.5°C 51.3°F10.7°C 95% 5.1 mph SE8.2 kmh SE 7.0 mph11.3 kmh 30.06 in1017.9 mb 0.00 in0.0 mm 0.00 in0.0 mm 0.01 in0.3 mm
06:19 AM 52.7°F11.5°C 51.0°F10.6°C 94% 6.0 mph ESE9.7 kmh ESE 7.0 mph11.3 kmh 30.06 in1017.9 mb 0.00 in0.0 mm 0.00 in0.0 mm 0.01 in0.3 mm
06:18 AM 52.7°F11.5°C 51.0°F10.6°C 94% 4.6 mph ESE7.4 kmh ESE 7.0 mph11.3 kmh 30.06 in1017.9 mb 0.00 in0.0 mm 0.00 in0.0 mm 0.01 in0.3 mm
06:17 AM 52.7°F11.5°C 51.0°F10.6°C 94% 4.3 mph ESE6.9 kmh ESE 8.0 mph12.9 kmh 30.06 in1017.9 mb 0.00 in0.0 mm 0.00 in0.0 mm 0.01 in0.3 mm
06:16 AM 52.7°F11.5°C 51.0°F10.6°C 94% 6.9 mph ESE11.1 kmh ESE 8.0 mph12.9 kmh 30.06 in1017.9 mb 0.00 in0.0 mm 0.00 in0.0 mm 0.01 in0.3 mm
06:15 AM 52.7°F11.5°C 51.0°F10.6°C 94% 5.5 mph ESE8.9 kmh ESE 7.0 mph11.3 kmh 30.06 in1017.9 mb 0.00 in0.0 mm 0.00 in0.0 mm 0.01 in0.3 mm
06:14 AM 52.8°F11.6°C 51.1°F10.6°C 94% 5.8 mph ESE9.3 kmh ESE 7.0 mph11.3 kmh 30.06 in1017.9 mb 0.00 in0.0 mm 0.00 in0.0 mm 0.01 in0.3 mm
06:13 AM 52.8°F11.6°C 51.1°F10.6°C 94% 5.6 mph ESE9.0 kmh ESE 7.0 mph11.3 kmh 30.06 in1017.9 mb 0.00 in0.0 mm 0.00 in0.0 mm 0.01 in0.3 mm
06:12 AM 52.8°F11.6°C 51.1°F10.6°C 94% 5.3 mph ESE8.5 kmh ESE 7.0 mph11.3 kmh 30.06 in1017.9 mb 0.00 in0.0 mm 0.00 in0.0 mm 0.01 in0.3 mm
06:11 AM 52.8°F11.6°C 51.1°F10.6°C 94% 4.4 mph ESE7.1 kmh ESE 7.0 mph11.3 kmh 30.06 in1017.9 mb 0.00 in0.0 mm 0.00 in0.0 mm 0.01 in0.3 mm
06:10 AM 52.8°F11.6°C 51.1°F10.6°C 94% 4.4 mph ESE7.1 kmh ESE 6.0 mph9.7 kmh 30.05 in1017.6 mb 0.00 in0.0 mm 0.00 in0.0 mm 0.01 in0.3 mm
06:09 AM 52.8°F11.6°C 51.1°F10.6°C 94% 4.2 mph ESE6.8 kmh ESE 6.0 mph9.7 kmh 30.05 in1017.6 mb 0.00 in0.0 mm 0.00 in0.0 mm 0.01 in0.3 mm
06:08 AM 52.8°F11.6°C 51.1°F10.6°C 94% 4.4 mph ESE7.1 kmh ESE 6.0 mph9.7 kmh 30.05 in1017.6 mb 0.00 in0.0 mm 0.00 in0.0 mm 0.01 in0.3 mm
06:07 AM 52.8°F11.6°C 51.1°F10.6°C 94% 4.1 mph ESE6.6 kmh ESE 6.0 mph9.7 kmh 30.05 in1017.6 mb 0.00 in0.0 mm 0.00 in0.0 mm 0.01 in0.3 mm
06:06 AM 52.9°F11.6°C 51.2°F10.7°C 94% 4.8 mph ESE7.7 kmh ESE 7.0 mph11.3 kmh 30.05 in1017.6 mb 0.00 in0.0 mm 0.00 in0.0 mm 0.01 in0.3 mm
06:05 AM 52.8°F11.6°C 51.1°F10.6°C 94% 5.3 mph ESE8.5 kmh ESE 7.0 mph11.3 kmh 30.05 in1017.6 mb 0.00 in0.0 mm 0.00 in0.0 mm 0.01 in0.3 mm
06:04 AM 52.9°F11.6°C 51.2°F10.7°C 94% 4.9 mph ESE7.9 kmh ESE 6.0 mph9.7 kmh 30.05 in1017.6 mb 0.00 in0.0 mm 0.00 in0.0 mm 0.01 in0.3 mm
06:03 AM 53.0°F11.7°C 51.3°F10.7°C 94% 3.6 mph ESE5.8 kmh ESE 6.0 mph9.7 kmh 30.05 in1017.6 mb 0.00 in0.0 mm 0.00 in0.0 mm 0.01 in0.3 mm
06:02 AM 53.0°F11.7°C 51.6°F10.9°C 95% 4.0 mph ESE6.4 kmh ESE 6.0 mph9.7 kmh 30.05 in1017.6 mb 0.00 in0.0 mm 0.00 in0.0 mm 0.01 in0.3 mm
06:01 AM 53.0°F11.7°C 51.6°F10.9°C 95% 3.2 mph ESE5.1 kmh ESE 4.0 mph6.4 kmh 30.05 in1017.6 mb 0.00 in0.0 mm 0.00 in0.0 mm 0.01 in0.3 mm
06:00 AM 53.0°F11.7°C 51.6°F10.9°C 95% 3.4 mph ESE5.5 kmh ESE 4.0 mph6.4 kmh 30.05 in1017.6 mb 0.00 in0.0 mm 0.00 in0.0 mm 0.01 in0.3 mm
05:59 AM 53.0°F11.7°C 51.6°F10.9°C 95% 3.3 mph SE5.3 kmh SE 5.0 mph8.0 kmh 30.05 in1017.6 mb 0.00 in0.0 mm 0.00 in0.0 mm 0.01 in0.3 mm
05:58 AM 53.0°F11.7°C 51.6°F10.9°C 95% 3.6 mph SE5.8 kmh SE 6.0 mph9.7 kmh 30.05 in1017.6 mb 0.00 in0.0 mm 0.00 in0.0 mm 0.01 in0.3 mm
05:57 AM 53.0°F11.7°C 51.6°F10.9°C 95% 3.9 mph ESE6.3 kmh ESE 6.0 mph9.7 kmh 30.05 in1017.6 mb 0.00 in0.0 mm 0.00 in0.0 mm 0.01 in0.3 mm
05:56 AM 53.0°F11.7°C 51.6°F10.9°C 95% 3.4 mph ESE5.5 kmh ESE 5.0 mph8.0 kmh 30.05 in1017.6 mb 0.00 in0.0 mm 0.00 in0.0 mm 0.01 in0.3 mm
05:55 AM 53.0°F11.7°C 51.6°F10.9°C 95% 3.8 mph ESE6.1 kmh ESE 5.0 mph8.0 kmh 30.05 in1017.6 mb 0.00 in0.0 mm 0.00 in0.0 mm 0.01 in0.3 mm
05:54 AM 52.9°F11.6°C 51.5°F10.8°C 95% 3.2 mph ESE5.1 kmh ESE 6.0 mph9.7 kmh 30.05 in1017.6 mb 0.00 in0.0 mm 0.00 in0.0 mm 0.01 in0.3 mm
05:53 AM 52.9°F11.6°C 51.5°F10.8°C 95% 4.2 mph ESE6.8 kmh ESE 6.0 mph9.7 kmh 30.05 in1017.6 mb 0.00 in0.0 mm 0.00 in0.0 mm 0.01 in0.3 mm
05:52 AM 52.9°F11.6°C 51.2°F10.7°C 94% 3.1 mph SE5.0 kmh SE 4.0 mph6.4 kmh 30.05 in1017.6 mb 0.00 in0.0 mm 0.00 in0.0 mm 0.01 in0.3 mm
05:51 AM 52.9°F11.6°C 51.2°F10.7°C 94% 2.7 mph ESE4.3 kmh ESE 4.0 mph6.4 kmh 30.05 in1017.6 mb 0.00 in0.0 mm 0.00 in0.0 mm 0.01 in0.3 mm
05:50 AM 52.9°F11.6°C 51.2°F10.7°C 94% 3.2 mph ESE5.1 kmh ESE 4.0 mph6.4 kmh 30.05 in1017.6 mb 0.00 in0.0 mm 0.00 in0.0 mm 0.01 in0.3 mm
05:49 AM 52.9°F11.6°C 51.2°F10.7°C 94% 3.0 mph ESE4.8 kmh ESE 4.0 mph6.4 kmh 30.05 in1017.6 mb 0.00 in0.0 mm 0.00 in0.0 mm 0.01 in0.3 mm
05:48 AM 52.9°F11.6°C 51.2°F10.7°C 94% 2.7 mph ESE4.3 kmh ESE 4.0 mph6.4 kmh 30.05 in1017.6 mb 0.00 in0.0 mm 0.00 in0.0 mm 0.01 in0.3 mm
05:47 AM 52.9°F11.6°C 51.2°F10.7°C 94% 3.0 mph E4.8 kmh E 4.0 mph6.4 kmh 30.06 in1017.9 mb 0.00 in0.0 mm 0.00 in0.0 mm 0.01 in0.3 mm
05:46 AM 52.9°F11.6°C 51.2°F10.7°C 94% 2.8 mph E4.5 kmh E 3.0 mph4.8 kmh 30.06 in1017.9 mb 0.00 in0.0 mm 0.00 in0.0 mm 0.01 in0.3 mm
05:45 AM 52.9°F11.6°C 51.2°F10.7°C 94% 2.9 mph E4.7 kmh E 3.0 mph4.8 kmh 30.06 in1017.9 mb 0.00 in0.0 mm 0.00 in0.0 mm 0.01 in0.3 mm
05:44 AM 53.0°F11.7°C 51.3°F10.7°C 94% 2.6 mph ESE4.2 kmh ESE 3.0 mph4.8 kmh 30.05 in1017.6 mb 0.00 in0.0 mm 0.00 in0.0 mm 0.01 in0.3 mm
05:43 AM 53.0°F11.7°C 51.3°F10.7°C 94% 2.3 mph SE3.7 kmh SE 3.0 mph4.8 kmh 30.06 in1017.9 mb 0.00 in0.0 mm 0.00 in0.0 mm 0.01 in0.3 mm
05:42 AM 53.1°F11.7°C 51.4°F10.8°C 94% 2.5 mph SE4.0 kmh SE 3.0 mph4.8 kmh 30.06 in1017.9 mb 0.00 in0.0 mm 0.00 in0.0 mm 0.01 in0.3 mm
05:41 AM 53.0°F11.7°C 51.3°F10.7°C 94% 1.7 mph SE2.7 kmh SE 3.0 mph4.8 kmh 30.06 in1017.9 mb 0.00 in0.0 mm 0.00 in0.0 mm 0.01 in0.3 mm
05:40 AM 53.1°F11.7°C 51.4°F10.8°C 94% 1.8 mph SE2.9 kmh SE 3.0 mph4.8 kmh 30.06 in1017.9 mb 0.00 in0.0 mm 0.00 in0.0 mm 0.01 in0.3 mm
05:39 AM 53.1°F11.7°C 51.4°F10.8°C 94% 1.9 mph SE3.1 kmh SE 3.0 mph4.8 kmh 30.06 in1017.9 mb 0.00 in0.0 mm 0.00 in0.0 mm 0.01 in0.3 mm
05:38 AM 53.2°F11.8°C 51.5°F10.8°C 94% 1.5 mph SE2.4 kmh SE 2.0 mph3.2 kmh 30.06 in1017.9 mb 0.00 in0.0 mm 0.00 in0.0 mm 0.01 in0.3 mm
05:37 AM 53.1°F11.7°C 51.4°F10.8°C 94% 1.9 mph SE3.1 kmh SE 3.0 mph4.8 kmh 30.06 in1017.9 mb 0.00 in0.0 mm 0.00 in0.0 mm 0.01 in0.3 mm
05:36 AM 53.2°F11.8°C 51.5°F10.8°C 94% 1.8 mph SE2.9 kmh SE 3.0 mph4.8 kmh 30.06 in1017.9 mb 0.00 in0.0 mm 0.00 in0.0 mm 0.01 in0.3 mm
05:35 AM 53.2°F11.8°C 51.5°F10.8°C 94% 1.8 mph SE2.9 kmh SE 3.0 mph4.8 kmh 30.05 in1017.6 mb 0.00 in0.0 mm 0.00 in0.0 mm 0.01 in0.3 mm
05:34 AM 53.2°F11.8°C 51.5°F10.8°C 94% 2.0 mph SE3.2 kmh SE 3.0 mph4.8 kmh 30.06 in1017.9 mb 0.00 in0.0 mm 0.00 in0.0 mm 0.01 in0.3 mm
05:33 AM 53.3°F11.8°C 51.6°F10.9°C 94% 2.1 mph SE3.4 kmh SE 3.0 mph4.8 kmh 30.06 in1017.9 mb 0.00 in0.0 mm 0.00 in0.0 mm 0.01 in0.3 mm
05:32 AM 53.3°F11.8°C 51.6°F10.9°C 94% 2.2 mph SE3.5 kmh SE 3.0 mph4.8 kmh 30.06 in1017.9 mb 0.00 in0.0 mm 0.00 in0.0 mm 0.01 in0.3 mm
05:31 AM 53.2°F11.8°C 51.5°F10.8°C 94% 1.6 mph SE2.6 kmh SE 2.0 mph3.2 kmh 30.06 in1017.9 mb 0.00 in0.0 mm 0.00 in0.0 mm 0.01 in0.3 mm
05:30 AM 53.3°F11.8°C 51.6°F10.9°C 94% 1.8 mph SE2.9 kmh SE 3.0 mph4.8 kmh 30.06 in1017.9 mb 0.00 in0.0 mm 0.00 in0.0 mm 0.01 in0.3 mm
05:29 AM 53.3°F11.8°C 51.6°F10.9°C 94% 1.7 mph SE2.7 kmh SE 3.0 mph4.8 kmh 30.05 in1017.6 mb 0.00 in0.0 mm 0.00 in0.0 mm 0.01 in0.3 mm
05:28 AM 53.3°F11.8°C 51.6°F10.9°C 94% 1.8 mph SE2.9 kmh SE 3.0 mph4.8 kmh 30.05 in1017.6 mb 0.00 in0.0 mm 0.00 in0.0 mm 0.01 in0.3 mm
05:27 AM 53.3°F11.8°C 51.6°F10.9°C 94% 1.3 mph SE2.1 kmh SE 2.0 mph3.2 kmh 30.05 in1017.6 mb 0.00 in0.0 mm 0.00 in0.0 mm 0.01 in0.3 mm
05:26 AM 53.3°F11.8°C 51.6°F10.9°C 94% 1.2 mph SE1.9 kmh SE 2.0 mph3.2 kmh 30.05 in1017.6 mb 0.00 in0.0 mm 0.00 in0.0 mm 0.01 in0.3 mm
05:25 AM 53.3°F11.8°C 51.6°F10.9°C 94% Calm Calm -- 30.05 in1017.6 mb 0.00 in0.0 mm 0.00 in0.0 mm 0.01 in0.3 mm
05:24 AM 53.4°F11.9°C 51.7°F10.9°C 94% Calm Calm -- 30.05 in1017.6 mb 0.00 in0.0 mm 0.00 in0.0 mm 0.01 in0.3 mm
05:23 AM 53.3°F11.8°C 51.6°F10.9°C 94% Calm Calm -- 30.05 in1017.6 mb 0.00 in0.0 mm 0.00 in0.0 mm 0.01 in0.3 mm
05:22 AM 53.3°F11.8°C 51.6°F10.9°C 94% Calm Calm -- 30.05 in1017.6 mb 0.00 in0.0 mm 0.00 in0.0 mm 0.01 in0.3 mm
05:21 AM 53.3°F11.8°C 51.6°F10.9°C 94% Calm Calm -- 30.05 in1017.6 mb 0.00 in0.0 mm 0.00 in0.0 mm 0.01 in0.3 mm
05:20 AM 53.4°F11.9°C 51.7°F10.9°C 94% Calm Calm -- 30.05 in1017.6 mb 0.00 in0.0 mm 0.00 in0.0 mm 0.01 in0.3 mm
05:19 AM 53.4°F11.9°C 51.7°F10.9°C 94% Calm Calm -- 30.05 in1017.6 mb 0.00 in0.0 mm 0.00 in0.0 mm 0.01 in0.3 mm
05:18 AM 53.4°F11.9°C 51.7°F10.9°C 94% Calm Calm -- 30.05 in1017.6 mb 0.00 in0.0 mm 0.00 in0.0 mm 0.01 in0.3 mm
05:17 AM 53.4°F11.9°C 51.7°F10.9°C 94% Calm Calm -- 30.05 in1017.6 mb 0.00 in0.0 mm 0.00 in0.0 mm 0.01 in0.3 mm
05:16 AM 53.4°F11.9°C 51.7°F10.9°C 94% Calm Calm -- 30.05 in1017.6 mb 0.00 in0.0 mm 0.00 in0.0 mm 0.01 in0.3 mm
05:15 AM 53.4°F11.9°C 51.7°F10.9°C 94% Calm Calm -- 30.05 in1017.6 mb 0.00 in0.0 mm 0.00 in0.0 mm 0.01 in0.3 mm
05:14 AM 53.4°F11.9°C 51.7°F10.9°C 94% Calm Calm -- 30.05 in1017.6 mb 0.00 in0.0 mm 0.00 in0.0 mm 0.01 in0.3 mm
05:13 AM 53.4°F11.9°C 51.7°F10.9°C 94% Calm Calm -- 30.05 in1017.6 mb 0.00 in0.0 mm 0.00 in0.0 mm 0.01 in0.3 mm
05:12 AM 53.5°F11.9°C 51.8°F11.0°C 94% Calm Calm -- 30.05 in1017.6 mb 0.00 in0.0 mm 0.00 in0.0 mm 0.01 in0.3 mm
05:11 AM 53.4°F11.9°C 51.7°F10.9°C 94% Calm Calm -- 30.05 in1017.6 mb 0.00 in0.0 mm 0.00 in0.0 mm 0.01 in0.3 mm
05:10 AM 53.4°F11.9°C 51.7°F10.9°C 94% Calm Calm -- 30.05 in1017.6 mb 0.00 in0.0 mm 0.00 in0.0 mm 0.01 in0.3 mm
05:09 AM 53.5°F11.9°C 51.8°F11.0°C 94% Calm Calm -- 30.05 in1017.6 mb 0.00 in0.0 mm 0.00 in0.0 mm 0.01 in0.3 mm
05:08 AM 53.5°F11.9°C 51.8°F11.0°C 94% Calm Calm -- 30.05 in1017.6 mb 0.00 in0.0 mm 0.00 in0.0 mm 0.01 in0.3 mm
05:07 AM 53.4°F11.9°C 51.7°F10.9°C 94% Calm Calm -- 30.05 in1017.6 mb 0.00 in0.0 mm 0.00 in0.0 mm 0.01 in0.3 mm
05:06 AM 53.5°F11.9°C 51.8°F11.0°C 94% Calm Calm -- 30.05 in1017.6 mb 0.00 in0.0 mm 0.00 in0.0 mm 0.01 in0.3 mm
05:05 AM 53.4°F11.9°C 51.7°F10.9°C 94% Calm Calm -- 30.05 in1017.6 mb 0.00 in0.0 mm 0.00 in0.0 mm 0.01 in0.3 mm
05:04 AM 53.5°F11.9°C 51.8°F11.0°C 94% Calm Calm -- 30.05 in1017.6 mb 0.00 in0.0 mm 0.00 in0.0 mm 0.01 in0.3 mm
05:03 AM 53.5°F11.9°C 51.8°F11.0°C 94% Calm Calm 1.0 mph1.6 kmh 30.05 in1017.6 mb 0.00 in0.0 mm 0.00 in0.0 mm 0.01 in0.3 mm
05:02 AM 53.5°F11.9°C 51.8°F11.0°C 94% 0.1 mph SE0.2 kmh SE 1.0 mph1.6 kmh 30.05 in1017.6 mb 0.00 in0.0 mm 0.00 in0.0 mm 0.01 in0.3 mm
05:01 AM 53.5°F11.9°C 51.8°F11.0°C 94% Calm Calm -- 30.05 in1017.6 mb 0.00 in0.0 mm 0.00 in0.0 mm 0.01 in0.3 mm
05:00 AM 53.5°F11.9°C 51.8°F11.0°C 94% Calm Calm -- 30.05 in1017.6 mb 0.00 in0.0 mm 0.00 in0.0 mm 0.01 in0.3 mm
04:59 AM 53.5°F11.9°C 51.8°F11.0°C 94% Calm Calm 1.0 mph1.6 kmh 30.05 in1017.6 mb 0.00 in0.0 mm 0.00 in0.0 mm 0.01 in0.3 mm
04:58 AM 53.6°F12.0°C 51.9°F11.1°C 94% 0.1 mph SE0.2 kmh SE 1.0 mph1.6 kmh 30.05 in1017.6 mb 0.00 in0.0 mm 0.00 in0.0 mm 0.01 in0.3 mm
04:57 AM 53.5°F11.9°C 51.8°F11.0°C 94% 0.7 mph SE1.1 kmh SE 1.0 mph1.6 kmh 30.05 in1017.6 mb 0.00 in0.0 mm 0.00 in0.0 mm 0.01 in0.3 mm
04:56 AM 53.6°F12.0°C 51.9°F11.1°C 94% 0.5 mph SE0.8 kmh SE 1.0 mph1.6 kmh 30.05 in1017.6 mb 0.00 in0.0 mm 0.00 in0.0 mm 0.01 in0.3 mm
04:55 AM 53.5°F11.9°C 51.8°F11.0°C 94% 0.5 mph SE0.8 kmh SE 1.0 mph1.6 kmh 30.05 in1017.6 mb 0.00 in0.0 mm 0.00 in0.0 mm 0.01 in0.3 mm
04:54 AM 53.6°F12.0°C 51.9°F11.1°C 94% 0.2 mph SE0.3 kmh SE 2.0 mph3.2 kmh 30.05 in1017.6 mb 0.00 in0.0 mm 0.00 in0.0 mm 0.01 in0.3 mm
04:53 AM 53.6°F12.0°C 51.9°F11.1°C 94% 0.9 mph SE1.4 kmh SE 2.0 mph3.2 kmh 30.05 in1017.6 mb 0.00 in0.0 mm 0.00 in0.0 mm 0.01 in0.3 mm
04:52 AM 53.6°F12.0°C 51.9°F11.1°C 94% 0.7 mph SE1.1 kmh SE 1.0 mph1.6 kmh 30.05 in1017.6 mb 0.00 in0.0 mm 0.00 in0.0 mm 0.01 in0.3 mm
04:51 AM 53.5°F11.9°C 51.8°F11.0°C 94% 0.8 mph SE1.3 kmh SE 1.0 mph1.6 kmh 30.05 in1017.6 mb 0.00 in0.0 mm 0.00 in0.0 mm 0.01 in0.3 mm
04:50 AM 53.6°F12.0°C 51.9°F11.1°C 94% 0.7 mph SE1.1 kmh SE 2.0 mph3.2 kmh 30.05 in1017.6 mb 0.00 in0.0 mm 0.00 in0.0 mm 0.01 in0.3 mm
04:49 AM 53.5°F11.9°C 51.8°F11.0°C 94% 1.1 mph SE1.8 kmh SE 2.0 mph3.2 kmh 30.05 in1017.6 mb 0.00 in0.0 mm 0.00 in0.0 mm 0.01 in0.3 mm
04:48 AM 53.6°F12.0°C 51.9°F11.1°C 94% 0.8 mph SE1.3 kmh SE 2.0 mph3.2 kmh 30.05 in1017.6 mb 0.00 in0.0 mm 0.00 in0.0 mm 0.01 in0.3 mm
04:47 AM 53.6°F12.0°C 51.9°F11.1°C 94% 0.9 mph SE1.4 kmh SE 2.0 mph3.2 kmh 30.05 in1017.6 mb 0.00 in0.0 mm 0.00 in0.0 mm 0.01 in0.3 mm
04:46 AM 53.6°F12.0°C 51.9°F11.1°C 94% 0.4 mph SE0.6 kmh SE 1.0 mph1.6 kmh 30.05 in1017.6 mb 0.00 in0.0 mm 0.00 in0.0 mm 0.01 in0.3 mm
04:45 AM 53.6°F12.0°C 51.9°F11.1°C 94% Calm Calm 1.0 mph1.6 kmh 30.05 in1017.6 mb 0.00 in0.0 mm 0.00 in0.0 mm 0.01 in0.3 mm
04:44 AM 53.6°F12.0°C 51.9°F11.1°C 94% 0.2 mph SE0.3 kmh SE 1.0 mph1.6 kmh 30.05 in1017.6 mb 0.00 in0.0 mm 0.00 in0.0 mm 0.01 in0.3 mm
04:43 AM 53.6°F12.0°C 51.9°F11.1°C 94% 0.2 mph SE0.3 kmh SE 1.0 mph1.6 kmh 30.05 in1017.6 mb 0.00 in0.0 mm 0.00 in0.0 mm 0.01 in0.3 mm
04:42 AM 53.6°F12.0°C 51.9°F11.1°C 94% 0.1 mph SE0.2 kmh SE 1.0 mph1.6 kmh 30.05 in1017.6 mb 0.00 in0.0 mm 0.00 in0.0 mm 0.01 in0.3 mm
04:41 AM 53.6°F12.0°C 51.9°F11.1°C 94% 0.4 mph SE0.6 kmh SE 1.0 mph1.6 kmh 30.05 in1017.6 mb 0.00 in0.0 mm 0.00 in0.0 mm 0.01 in0.3 mm
04:40 AM 53.6°F12.0°C 51.9°F11.1°C 94% 0.8 mph SE1.3 kmh SE 1.0 mph1.6 kmh 30.04 in1017.3 mb 0.00 in0.0 mm 0.00 in0.0 mm 0.01 in0.3 mm
04:39 AM 53.7°F12.1°C 52.0°F11.1°C 94% 0.6 mph SE1.0 kmh SE 2.0 mph3.2 kmh 30.04 in1017.3 mb 0.00 in0.0 mm 0.00 in0.0 mm 0.01 in0.3 mm
04:38 AM 53.6°F12.0°C 51.9°F11.1°C 94% 1.2 mph SE1.9 kmh SE 2.0 mph3.2 kmh 30.04 in1017.3 mb 0.00 in0.0 mm 0.00 in0.0 mm 0.01 in0.3 mm
04:37 AM 53.7°F12.1°C 52.0°F11.1°C 94% 1.2 mph SE1.9 kmh SE 2.0 mph3.2 kmh 30.04 in1017.3 mb 0.00 in0.0 mm 0.00 in0.0 mm 0.01 in0.3 mm
04:36 AM 53.7°F12.1°C 52.0°F11.1°C 94% 0.8 mph SE1.3 kmh SE 2.0 mph3.2 kmh 30.04 in1017.3 mb 0.00 in0.0 mm 0.00 in0.0 mm 0.01 in0.3 mm
04:35 AM 53.7°F12.1°C 52.0°F11.1°C 94% 0.7 mph SE1.1 kmh SE 1.0 mph1.6 kmh 30.05 in1017.6 mb 0.00 in0.0 mm 0.00 in0.0 mm 0.01 in0.3 mm
04:34 AM 53.7°F12.1°C 52.0°F11.1°C 94% 0.5 mph SE0.8 kmh SE 1.0 mph1.6 kmh 30.05 in1017.6 mb 0.00 in0.0 mm 0.00 in0.0 mm 0.01 in0.3 mm
04:33 AM 53.7°F12.1°C 52.0°F11.1°C 94% Calm Calm 1.0 mph1.6 kmh 30.05 in1017.6 mb 0.00 in0.0 mm 0.00 in0.0 mm 0.01 in0.3 mm
04:32 AM 53.7°F12.1°C 52.0°F11.1°C 94% 0.1 mph SE0.2 kmh SE 1.0 mph1.6 kmh 30.05 in1017.6 mb 0.00 in0.0 mm 0.00 in0.0 mm 0.01 in0.3 mm
04:31 AM 53.7°F12.1°C 52.0°F11.1°C 94% 0.4 mph SE0.6 kmh SE 2.0 mph3.2 kmh 30.05 in1017.6 mb 0.00 in0.0 mm 0.00 in0.0 mm 0.01 in0.3 mm
04:30 AM 53.7°F12.1°C 52.0°F11.1°C 94% 0.9 mph SE1.4 kmh SE 2.0 mph3.2 kmh 30.04 in1017.3 mb 0.00 in0.0 mm 0.00 in0.0 mm 0.01 in0.3 mm
04:29 AM 53.7°F12.1°C 52.0°F11.1°C 94% 0.3 mph SE0.5 kmh SE 1.0 mph1.6 kmh 30.05 in1017.6 mb 0.00 in0.0 mm 0.00 in0.0 mm 0.01 in0.3 mm
04:28 AM 53.8°F12.1°C 52.1°F11.2°C 94% 0.1 mph SE0.2 kmh SE 1.0 mph1.6 kmh 30.05 in1017.6 mb 0.00 in0.0 mm 0.00 in0.0 mm 0.01 in0.3 mm
04:27 AM 53.7°F12.1°C 52.0°F11.1°C 94% 0.2 mph SE0.3 kmh SE 1.0 mph1.6 kmh 30.04 in1017.3 mb 0.00 in0.0 mm 0.00 in0.0 mm 0.01 in0.3 mm
04:26 AM 53.8°F12.1°C 52.1°F11.2°C 94% Calm Calm -- 30.05 in1017.6 mb 0.00 in0.0 mm 0.00 in0.0 mm 0.01 in0.3 mm
04:25 AM 53.8°F12.1°C 52.1°F11.2°C 94% Calm Calm 1.0 mph1.6 kmh 30.05 in1017.6 mb 0.00 in0.0 mm 0.00 in0.0 mm 0.01 in0.3 mm
04:24 AM 53.8°F12.1°C 52.1°F11.2°C 94% 0.1 mph SE0.2 kmh SE 2.0 mph3.2 kmh 30.05 in1017.6 mb 0.00 in0.0 mm 0.00 in0.0 mm 0.01 in0.3 mm
04:23 AM 53.8°F12.1°C 52.1°F11.2°C 94% 1.0 mph SE1.6 kmh SE 2.0 mph3.2 kmh 30.04 in1017.3 mb 0.00 in0.0 mm 0.00 in0.0 mm 0.01 in0.3 mm
04:22 AM 53.8°F12.1°C 52.1°F11.2°C 94% 0.4 mph SE0.6 kmh SE 1.0 mph1.6 kmh 30.05 in1017.6 mb 0.00 in0.0 mm 0.00 in0.0 mm 0.01 in0.3 mm
04:21 AM 53.8°F12.1°C 52.1°F11.2°C 94% 0.6 mph SE1.0 kmh SE 1.0 mph1.6 kmh 30.05 in1017.6 mb 0.00 in0.0 mm 0.00 in0.0 mm 0.01 in0.3 mm
04:20 AM 53.8°F12.1°C 52.1°F11.2°C 94% 0.5 mph SE0.8 kmh SE 2.0 mph3.2 kmh 30.05 in1017.6 mb 0.00 in0.0 mm 0.00 in0.0 mm 0.01 in0.3 mm
04:19 AM 53.8°F12.1°C 52.1°F11.2°C 94% 1.0 mph SE1.6 kmh SE 2.0 mph3.2 kmh 30.05 in1017.6 mb 0.00 in0.0 mm 0.00 in0.0 mm 0.01 in0.3 mm
04:18 AM 53.8°F12.1°C 52.1°F11.2°C 94% 1.0 mph SE1.6 kmh SE 2.0 mph3.2 kmh 30.04 in1017.3 mb 0.00 in0.0 mm 0.00 in0.0 mm 0.01 in0.3 mm
04:17 AM 53.8°F12.1°C 52.1°F11.2°C 94% 1.4 mph SE2.3 kmh SE 2.0 mph3.2 kmh 30.04 in1017.3 mb 0.00 in0.0 mm 0.00 in0.0 mm 0.01 in0.3 mm
04:16 AM 53.8°F12.1°C 52.1°F11.2°C 94% 0.8 mph SE1.3 kmh SE 2.0 mph3.2 kmh 30.05 in1017.6 mb 0.00 in0.0 mm 0.00 in0.0 mm 0.01 in0.3 mm
04:15 AM 53.8°F12.1°C 52.1°F11.2°C 94% 1.2 mph SE1.9 kmh SE 2.0 mph3.2 kmh 30.04 in1017.3 mb 0.00 in0.0 mm 0.00 in0.0 mm 0.01 in0.3 mm
04:14 AM 53.8°F12.1°C 52.1°F11.2°C 94% 0.5 mph SE0.8 kmh SE 3.0 mph4.8 kmh 30.04 in1017.3 mb 0.00 in0.0 mm 0.00 in0.0 mm 0.01 in0.3 mm
04:13 AM 53.8°F12.1°C 52.1°F11.2°C 94% 1.6 mph SE2.6 kmh SE 3.0 mph4.8 kmh 30.04 in1017.3 mb 0.00 in0.0 mm 0.00 in0.0 mm 0.01 in0.3 mm
04:12 AM 53.8°F12.1°C 52.1°F11.2°C 94% 0.8 mph SE1.3 kmh SE 2.0 mph3.2 kmh 30.04 in1017.3 mb 0.00 in0.0 mm 0.00 in0.0 mm 0.01 in0.3 mm
04:11 AM 53.8°F12.1°C 52.1°F11.2°C 94% 0.1 mph SE0.2 kmh SE 1.0 mph1.6 kmh 30.04 in1017.3 mb 0.00 in0.0 mm 0.00 in0.0 mm 0.01 in0.3 mm
04:10 AM 53.8°F12.1°C 52.1°F11.2°C 94% 0.8 mph SE1.3 kmh SE 2.0 mph3.2 kmh 30.04 in1017.3 mb 0.00 in0.0 mm 0.00 in0.0 mm 0.01 in0.3 mm
04:09 AM 53.8°F12.1°C 52.1°F11.2°C 94% 1.1 mph SE1.8 kmh SE 2.0 mph3.2 kmh 30.04 in1017.3 mb 0.00 in0.0 mm 0.00 in0.0 mm 0.01 in0.3 mm
04:08 AM 53.8°F12.1°C 52.1°F11.2°C 94% 1.3 mph SE2.1 kmh SE 2.0 mph3.2 kmh 30.04 in1017.3 mb 0.00 in0.0 mm 0.00 in0.0 mm 0.01 in0.3 mm
04:07 AM 53.8°F12.1°C 52.1°F11.2°C 94% 0.5 mph SE0.8 kmh SE 2.0 mph3.2 kmh 30.04 in1017.3 mb 0.00 in0.0 mm 0.00 in0.0 mm 0.01 in0.3 mm
04:06 AM 53.8°F12.1°C 52.1°F11.2°C 94% Calm Calm 1.0 mph1.6 kmh 30.04 in1017.3 mb 0.00 in0.0 mm 0.00 in0.0 mm 0.01 in0.3 mm
04:05 AM 53.8°F12.1°C 52.1°F11.2°C 94% Calm Calm -- 30.04 in1017.3 mb 0.00 in0.0 mm 0.00 in0.0 mm 0.01 in0.3 mm
04:04 AM 53.8°F12.1°C 52.1°F11.2°C 94% Calm Calm -- 30.04 in1017.3 mb 0.00 in0.0 mm 0.00 in0.0 mm 0.01 in0.3 mm
04:03 AM 53.8°F12.1°C 52.1°F11.2°C 94% Calm Calm -- 30.04 in1017.3 mb 0.00 in0.0 mm 0.00 in0.0 mm 0.01 in0.3 mm
04:02 AM 53.9°F12.2°C 52.2°F11.2°C 94% Calm Calm -- 30.04 in1017.3 mb 0.00 in0.0 mm 0.00 in0.0 mm 0.01 in0.3 mm
04:01 AM 53.8°F12.1°C 52.1°F11.2°C 94% Calm Calm 1.0 mph1.6 kmh 30.04 in1017.3 mb 0.00 in0.0 mm 0.00 in0.0 mm 0.01 in0.3 mm
04:00 AM 53.9°F12.2°C 52.2°F11.2°C 94% 0.3 mph SE0.5 kmh SE 1.0 mph1.6 kmh 30.04 in1017.3 mb 0.00 in0.0 mm 0.00 in0.0 mm 0.01 in0.3 mm
03:59 AM 53.9°F12.2°C 52.2°F11.2°C 94% 0.3 mph SE0.5 kmh SE 1.0 mph1.6 kmh 30.04 in1017.3 mb 0.00 in0.0 mm 0.00 in0.0 mm 0.01 in0.3 mm
03:58 AM 53.9°F12.2°C 52.2°F11.2°C 94% 0.5 mph SE0.8 kmh SE 1.0 mph1.6 kmh 30.04 in1017.3 mb 0.00 in0.0 mm 0.00 in0.0 mm 0.01 in0.3 mm
03:57 AM 53.9°F12.2°C 52.2°F11.2°C 94% 0.4 mph SE0.6 kmh SE 1.0 mph1.6 kmh 30.04 in1017.3 mb 0.00 in0.0 mm 0.00 in0.0 mm 0.01 in0.3 mm
03:56 AM 53.9°F12.2°C 52.2°F11.2°C 94% 0.1 mph SE0.2 kmh SE 1.0 mph1.6 kmh 30.04 in1017.3 mb 0.00 in0.0 mm 0.00 in0.0 mm 0.01 in0.3 mm
03:55 AM 53.9°F12.2°C 52.2°F11.2°C 94% 0.1 mph SE0.2 kmh SE 1.0 mph1.6 kmh 30.04 in1017.3 mb 0.00 in0.0 mm 0.00 in0.0 mm 0.01 in0.3 mm
03:54 AM 53.9°F12.2°C 52.2°F11.2°C 94% 0.7 mph SE1.1 kmh SE 2.0 mph3.2 kmh 30.04 in1017.3 mb 0.00 in0.0 mm 0.00 in0.0 mm 0.01 in0.3 mm
03:53 AM 53.9°F12.2°C 52.2°F11.2°C 94% 1.1 mph SE1.8 kmh SE 2.0 mph3.2 kmh 30.04 in1017.3 mb 0.00 in0.0 mm 0.00 in0.0 mm 0.01 in0.3 mm
03:52 AM 53.9°F12.2°C 52.2°F11.2°C 94% 1.2 mph SE1.9 kmh SE 2.0 mph3.2 kmh 30.04 in1017.3 mb 0.00 in0.0 mm 0.00 in0.0 mm 0.01 in0.3 mm
03:51 AM 54.0°F12.2°C 52.0°F11.1°C 93% 0.2 mph SE0.3 kmh SE 1.0 mph1.6 kmh 30.04 in1017.3 mb 0.00 in0.0 mm 0.00 in0.0 mm 0.01 in0.3 mm
03:50 AM 53.9°F12.2°C 52.2°F11.2°C 94% 0.2 mph SE0.3 kmh SE 1.0 mph1.6 kmh 30.04 in1017.3 mb 0.00 in0.0 mm 0.00 in0.0 mm 0.01 in0.3 mm
03:49 AM 54.0°F12.2°C 52.3°F11.3°C 94% Calm Calm 1.0 mph1.6 kmh 30.04 in1017.3 mb 0.00 in0.0 mm 0.00 in0.0 mm 0.01 in0.3 mm
03:48 AM 54.0°F12.2°C 52.3°F11.3°C 94% 0.3 mph SE0.5 kmh SE 2.0 mph3.2 kmh 30.04 in1017.3 mb 0.00 in0.0 mm 0.00 in0.0 mm 0.01 in0.3 mm
03:47 AM 54.0°F12.2°C 52.3°F11.3°C 94% 1.4 mph SE2.3 kmh SE 2.0 mph3.2 kmh 30.04 in1017.3 mb 0.00 in0.0 mm 0.00 in0.0 mm 0.01 in0.3 mm
03:46 AM 54.0°F12.2°C 52.3°F11.3°C 94% 1.3 mph SE2.1 kmh SE 2.0 mph3.2 kmh 30.04 in1017.3 mb 0.00 in0.0 mm 0.00 in0.0 mm 0.01 in0.3 mm
03:45 AM 54.0°F12.2°C 52.3°F11.3°C 94% 1.0 mph SE1.6 kmh SE 2.0 mph3.2 kmh 30.04 in1017.3 mb 0.00 in0.0 mm 0.00 in0.0 mm 0.01 in0.3 mm
03:44 AM 54.0°F12.2°C 52.0°F11.1°C 93% 1.0 mph SE1.6 kmh SE 2.0 mph3.2 kmh 30.04 in1017.3 mb 0.00 in0.0 mm 0.00 in0.0 mm 0.01 in0.3 mm
03:43 AM 54.0°F12.2°C 52.0°F11.1°C 93% 1.5 mph SE2.4 kmh SE 2.0 mph3.2 kmh 30.04 in1017.3 mb 0.00 in0.0 mm 0.00 in0.0 mm 0.01 in0.3 mm
03:42 AM 54.0°F12.2°C 52.3°F11.3°C 94% 1.3 mph SE2.1 kmh SE 2.0 mph3.2 kmh 30.04 in1017.3 mb 0.00 in0.0 mm 0.00 in0.0 mm 0.01 in0.3 mm
03:41 AM 54.0°F12.2°C 52.0°F11.1°C 93% 1.0 mph SE1.6 kmh SE 2.0 mph3.2 kmh 30.04 in1017.3 mb 0.00 in0.0 mm 0.00 in0.0 mm 0.01 in0.3 mm
03:40 AM 53.9°F12.2°C 52.2°F11.2°C 94% 1.4 mph SE2.3 kmh SE 3.0 mph4.8 kmh 30.04 in1017.3 mb 0.00 in0.0 mm 0.00 in0.0 mm 0.01 in0.3 mm
03:39 AM 54.0°F12.2°C 52.0°F11.1°C 93% 1.7 mph SE2.7 kmh SE 3.0 mph4.8 kmh 30.04 in1017.3 mb 0.00 in0.0 mm 0.00 in0.0 mm 0.01 in0.3 mm
03:38 AM 54.0°F12.2°C 52.3°F11.3°C 94% 2.3 mph SE3.7 kmh SE 3.0 mph4.8 kmh 30.04 in1017.3 mb 0.00 in0.0 mm 0.00 in0.0 mm 0.01 in0.3 mm
03:37 AM 54.0°F12.2°C 52.0°F11.1°C 93% 2.2 mph SE3.5 kmh SE 3.0 mph4.8 kmh 30.04 in1017.3 mb 0.00 in0.0 mm 0.00 in0.0 mm 0.01 in0.3 mm
03:36 AM 54.0°F12.2°C 52.3°F11.3°C 94% 2.4 mph SE3.9 kmh SE 3.0 mph4.8 kmh 30.04 in1017.3 mb 0.00 in0.0 mm 0.00 in0.0 mm 0.01 in0.3 mm
03:35 AM 54.0°F12.2°C 52.3°F11.3°C 94% 2.1 mph SE3.4 kmh SE 3.0 mph4.8 kmh 30.04 in1017.3 mb 0.00 in0.0 mm 0.00 in0.0 mm 0.01 in0.3 mm
03:34 AM 54.0°F12.2°C 52.3°F11.3°C 94% 2.3 mph SE3.7 kmh SE 3.0 mph4.8 kmh 30.04 in1017.3 mb 0.00 in0.0 mm 0.00 in0.0 mm 0.01 in0.3 mm
03:33 AM 54.0°F12.2°C 52.0°F11.1°C 93% 2.5 mph SSE4.0 kmh SSE 4.0 mph6.4 kmh 30.04 in1017.3 mb 0.00 in0.0 mm 0.00 in0.0 mm 0.01 in0.3 mm
03:32 AM 54.0°F12.2°C 52.3°F11.3°C 94% 3.4 mph SE5.5 kmh SE 4.0 mph6.4 kmh 30.04 in1017.3 mb 0.00 in0.0 mm 0.00 in0.0 mm 0.01 in0.3 mm
03:31 AM 54.0°F12.2°C 52.3°F11.3°C 94% 3.6 mph SE5.8 kmh SE 4.0 mph6.4 kmh 30.04 in1017.3 mb 0.00 in0.0 mm 0.00 in0.0 mm 0.01 in0.3 mm
03:30 AM 54.0°F12.2°C 52.3°F11.3°C 94% 2.7 mph SE4.3 kmh SE 4.0 mph6.4 kmh 30.04 in1017.3 mb 0.00 in0.0 mm 0.00 in0.0 mm 0.01 in0.3 mm
03:29 AM 54.0°F12.2°C 52.3°F11.3°C 94% 3.1 mph SSE5.0 kmh SSE 5.0 mph8.0 kmh 30.04 in1017.3 mb 0.00 in0.0 mm 0.00 in0.0 mm 0.01 in0.3 mm
03:28 AM 54.0°F12.2°C 52.0°F11.1°C 93% 3.9 mph SE6.3 kmh SE 5.0 mph8.0 kmh 30.04 in1017.3 mb 0.00 in0.0 mm 0.00 in0.0 mm 0.01 in0.3 mm
03:27 AM 54.0°F12.2°C 52.0°F11.1°C 93% 3.4 mph SSE5.5 kmh SSE 5.0 mph8.0 kmh 30.04 in1017.3 mb 0.00 in0.0 mm 0.00 in0.0 mm 0.01 in0.3 mm
03:26 AM 54.0°F12.2°C 52.0°F11.1°C 93% 3.4 mph SSE5.5 kmh SSE 5.0 mph8.0 kmh 30.04 in1017.3 mb 0.00 in0.0 mm 0.00 in0.0 mm 0.01 in0.3 mm
03:25 AM 54.0°F12.2°C 52.0°F11.1°C 93% 2.8 mph SSE4.5 kmh SSE 5.0 mph8.0 kmh 30.04 in1017.3 mb 0.00 in0.0 mm 0.00 in0.0 mm 0.01 in0.3 mm
03:24 AM 54.1°F12.3°C 52.1°F11.2°C 93% 3.5 mph SSE5.6 kmh SSE 5.0 mph8.0 kmh 30.04 in1017.3 mb 0.00 in0.0 mm 0.00 in0.0 mm 0.01 in0.3 mm
03:23 AM 54.0°F12.2°C 52.0°F11.1°C 93% 2.6 mph SSE4.2 kmh SSE 5.0 mph8.0 kmh 30.04 in1017.3 mb 0.00 in0.0 mm 0.00 in0.0 mm 0.01 in0.3 mm
03:22 AM 54.0°F12.2°C 52.0°F11.1°C 93% 2.9 mph SSE4.7 kmh SSE 5.0 mph8.0 kmh 30.04 in1017.3 mb 0.00 in0.0 mm 0.00 in0.0 mm 0.01 in0.3 mm
03:21 AM 54.1°F12.3°C 52.1°F11.2°C 93% 2.2 mph S3.5 kmh S 5.0 mph8.0 kmh 30.04 in1017.3 mb 0.00 in0.0 mm 0.00 in0.0 mm 0.01 in0.3 mm
03:20 AM 54.1°F12.3°C 52.1°F11.2°C 93% 2.1 mph S3.4 kmh S 5.0 mph8.0 kmh 30.04 in1017.3 mb 0.00 in0.0 mm 0.00 in0.0 mm 0.01 in0.3 mm
03:19 AM 54.1°F12.3°C 52.4°F11.3°C 94% 2.3 mph S3.7 kmh S 4.0 mph6.4 kmh 30.04 in1017.3 mb 0.00 in0.0 mm 0.00 in0.0 mm 0.01 in0.3 mm
03:18 AM 54.1°F12.3°C 52.4°F11.3°C 94% 1.3 mph S2.1 kmh S 4.0 mph6.4 kmh 30.04 in1017.3 mb 0.00 in0.0 mm 0.00 in0.0 mm 0.01 in0.3 mm
03:17 AM 54.1°F12.3°C 52.1°F11.2°C 93% 1.9 mph S3.1 kmh S 4.0 mph6.4 kmh 30.04 in1017.3 mb 0.00 in0.0 mm 0.00 in0.0 mm 0.01 in0.3 mm
03:16 AM 54.1°F12.3°C 52.4°F11.3°C 94% 3.0 mph S4.8 kmh S 5.0 mph8.0 kmh 30.04 in1017.3 mb 0.00 in0.0 mm 0.00 in0.0 mm 0.01 in0.3 mm
03:15 AM 54.0°F12.2°C 52.0°F11.1°C 93% 3.4 mph S5.5 kmh S 5.0 mph8.0 kmh 30.04 in1017.3 mb 0.00 in0.0 mm 0.00 in0.0 mm 0.01 in0.3 mm
03:14 AM 54.1°F12.3°C 52.4°F11.3°C 94% 3.1 mph S5.0 kmh S 5.0 mph8.0 kmh 30.04 in1017.3 mb 0.00 in0.0 mm 0.00 in0.0 mm 0.01 in0.3 mm
03:13 AM 54.0°F12.2°C 52.3°F11.3°C 94% 3.5 mph S5.6 kmh S 5.0 mph8.0 kmh 30.04 in1017.3 mb 0.00 in0.0 mm 0.00 in0.0 mm 0.01 in0.3 mm
03:12 AM 54.1°F12.3°C 52.1°F11.2°C 93% 3.5 mph S5.6 kmh S 6.0 mph9.7 kmh 30.04 in1017.3 mb 0.00 in0.0 mm 0.00 in0.0 mm 0.01 in0.3 mm
03:11 AM 54.0°F12.2°C 52.0°F11.1°C 93% 4.4 mph S7.1 kmh S 6.0 mph9.7 kmh 30.04 in1017.3 mb 0.00 in0.0 mm 0.00 in0.0 mm 0.01 in0.3 mm
03:10 AM 54.0°F12.2°C 52.0°F11.1°C 93% 4.5 mph S7.2 kmh S 7.0 mph11.3 kmh 30.04 in1017.3 mb 0.00 in0.0 mm 0.00 in0.0 mm 0.01 in0.3 mm
03:09 AM 54.0°F12.2°C 52.0°F11.1°C 93% 5.1 mph S8.2 kmh S 7.0 mph11.3 kmh 30.04 in1017.3 mb 0.00 in0.0 mm 0.00 in0.0 mm 0.01 in0.3 mm
03:08 AM 54.0°F12.2°C 52.0°F11.1°C 93% 4.4 mph S7.1 kmh S 6.0 mph9.7 kmh 30.04 in1017.3 mb 0.00 in0.0 mm 0.00 in0.0 mm 0.01 in0.3 mm
03:07 AM 54.0°F12.2°C 52.0°F11.1°C 93% 3.5 mph S5.6 kmh S 6.0 mph9.7 kmh 30.04 in1017.3 mb 0.00 in0.0 mm 0.00 in0.0 mm 0.01 in0.3 mm
03:06 AM 54.0°F12.2°C 52.0°F11.1°C 93% 3.0 mph S4.8 kmh S 6.0 mph9.7 kmh 30.04 in1017.3 mb 0.00 in0.0 mm 0.00 in0.0 mm 0.01 in0.3 mm
03:05 AM 54.0°F12.2°C 52.0°F11.1°C 93% 4.0 mph S6.4 kmh S 6.0 mph9.7 kmh 30.04 in1017.3 mb 0.00 in0.0 mm 0.00 in0.0 mm 0.01 in0.3 mm
03:04 AM 54.0°F12.2°C 52.0°F11.1°C 93% 4.4 mph SSE7.1 kmh SSE 6.0 mph9.7 kmh 30.04 in1017.3 mb 0.00 in0.0 mm 0.00 in0.0 mm 0.01 in0.3 mm
03:03 AM 54.0°F12.2°C 52.0°F11.1°C 93% 3.6 mph SSE5.8 kmh SSE 6.0 mph9.7 kmh 30.04 in1017.3 mb 0.00 in0.0 mm 0.00 in0.0 mm 0.01 in0.3 mm
03:02 AM 54.0°F12.2°C 52.0°F11.1°C 93% 4.5 mph SSE7.2 kmh SSE 6.0 mph9.7 kmh 30.04 in1017.3 mb 0.00 in0.0 mm 0.00 in0.0 mm 0.01 in0.3 mm
03:01 AM 54.0°F12.2°C 52.0°F11.1°C 93% 4.3 mph SSE6.9 kmh SSE 6.0 mph9.7 kmh 30.04 in1017.3 mb 0.00 in0.0 mm 0.00 in0.0 mm 0.01 in0.3 mm
03:00 AM 54.0°F12.2°C 52.0°F11.1°C 93% 4.0 mph SSE6.4 kmh SSE 5.0 mph8.0 kmh 30.04 in1017.3 mb 0.00 in0.0 mm 0.00 in0.0 mm 0.01 in0.3 mm
02:59 AM 54.0°F12.2°C 52.0°F11.1°C 93% 3.1 mph SSE5.0 kmh SSE 5.0 mph8.0 kmh 30.04 in1017.3 mb 0.00 in0.0 mm 0.00 in0.0 mm 0.01 in0.3 mm
02:58 AM 54.0°F12.2°C 52.0°F11.1°C 93% 3.6 mph SSE5.8 kmh SSE 5.0 mph8.0 kmh 30.04 in1017.3 mb 0.00 in0.0 mm 0.00 in0.0 mm 0.01 in0.3 mm
02:57 AM 54.0°F12.2°C 52.0°F11.1°C 93% 3.5 mph SSE5.6 kmh SSE 5.0 mph8.0 kmh 30.04 in1017.3 mb 0.00 in0.0 mm 0.00 in0.0 mm 0.01 in0.3 mm
02:56 AM 54.0°F12.2°C 52.0°F11.1°C 93% 3.0 mph SSE4.8 kmh SSE 5.0 mph8.0 kmh 30.04 in1017.3 mb 0.00 in0.0 mm 0.00 in0.0 mm 0.01 in0.3 mm
02:55 AM 53.9°F12.2°C 52.2°F11.2°C 94% 3.5 mph SSE5.6 kmh SSE 5.0 mph8.0 kmh 30.04 in1017.3 mb 0.00 in0.0 mm 0.00 in0.0 mm 0.01 in0.3 mm
02:54 AM 54.1°F12.3°C 52.4°F11.3°C 94% 3.5 mph SSE5.6 kmh SSE 5.0 mph8.0 kmh 30.04 in1017.3 mb 0.00 in0.0 mm 0.00 in0.0 mm 0.01 in0.3 mm
02:53 AM 54.0°F12.2°C 52.3°F11.3°C 94% 3.5 mph SSE5.6 kmh SSE 5.0 mph8.0 kmh 30.04 in1017.3 mb 0.00 in0.0 mm 0.00 in0.0 mm 0.01 in0.3 mm
02:52 AM 54.0°F12.2°C 52.3°F11.3°C 94% 3.9 mph SSE6.3 kmh SSE 5.0 mph8.0 kmh 30.04 in1017.3 mb 0.00 in0.0 mm 0.00 in0.0 mm 0.01 in0.3 mm
02:51 AM 54.0°F12.2°C 52.3°F11.3°C 94% 3.6 mph SSE5.8 kmh SSE 5.0 mph8.0 kmh 30.04 in1017.3 mb 0.00 in0.0 mm 0.00 in0.0 mm 0.01 in0.3 mm
02:50 AM 54.1°F12.3°C 52.4°F11.3°C 94% 2.5 mph SSE4.0 kmh SSE 5.0 mph8.0 kmh 30.04 in1017.3 mb 0.00 in0.0 mm 0.00 in0.0 mm 0.01 in0.3 mm
02:49 AM 54.1°F12.3°C 52.4°F11.3°C 94% 3.2 mph SSE5.1 kmh SSE 5.0 mph8.0 kmh 30.03 in1016.9 mb 0.00 in0.0 mm 0.00 in0.0 mm 0.01 in0.3 mm
02:48 AM 54.1°F12.3°C 52.4°F11.3°C 94% 2.9 mph SSE4.7 kmh SSE 5.0 mph8.0 kmh 30.04 in1017.3 mb 0.00 in0.0 mm 0.00 in0.0 mm 0.01 in0.3 mm
02:47 AM 54.1°F12.3°C 52.4°F11.3°C 94% 2.8 mph SSE4.5 kmh SSE 4.0 mph6.4 kmh 30.04 in1017.3 mb 0.00 in0.0 mm 0.00 in0.0 mm 0.01 in0.3 mm
02:46 AM 54.1°F12.3°C 52.4°F11.3°C 94% 2.4 mph SSE3.9 kmh SSE 5.0 mph8.0 kmh 30.04 in1017.3 mb 0.00 in0.0 mm 0.00 in0.0 mm 0.01 in0.3 mm
02:45 AM 54.1°F12.3°C 52.4°F11.3°C 94% 3.2 mph SSE5.1 kmh SSE 5.0 mph8.0 kmh 30.04 in1017.3 mb 0.00 in0.0 mm 0.00 in0.0 mm 0.01 in0.3 mm
02:44 AM 54.1°F12.3°C 52.4°F11.3°C 94% 2.6 mph SSE4.2 kmh SSE 3.0 mph4.8 kmh 30.04 in1017.3 mb 0.00 in0.0 mm 0.00 in0.0 mm 0.01 in0.3 mm
02:43 AM 54.1°F12.3°C 52.4°F11.3°C 94% 2.3 mph SSE3.7 kmh SSE 3.0 mph4.8 kmh 30.04 in1017.3 mb 0.00 in0.0 mm 0.00 in0.0 mm 0.01 in0.3 mm
02:42 AM 54.1°F12.3°C 52.4°F11.3°C 94% 2.4 mph SSE3.9 kmh SSE 3.0 mph4.8 kmh 30.04 in1017.3 mb 0.00 in0.0 mm 0.00 in0.0 mm 0.01 in0.3 mm
02:41 AM 54.1°F12.3°C 52.4°F11.3°C 94% 2.6 mph SSE4.2 kmh SSE 3.0 mph4.8 kmh 30.04 in1017.3 mb 0.00 in0.0 mm 0.00 in0.0 mm 0.01 in0.3 mm
02:40 AM 54.1°F12.3°C 52.4°F11.3°C 94% 2.4 mph SSE3.9 kmh SSE 3.0 mph4.8 kmh 30.04 in1017.3 mb 0.00 in0.0 mm 0.00 in0.0 mm 0.01 in0.3 mm
02:39 AM 54.1°F12.3°C 52.4°F11.3°C 94% 2.6 mph SSE4.2 kmh SSE 3.0 mph4.8 kmh 30.04 in1017.3 mb 0.00 in0.0 mm 0.00 in0.0 mm 0.01 in0.3 mm
02:38 AM 54.1°F12.3°C 52.4°F11.3°C 94% 2.7 mph SSE4.3 kmh SSE 5.0 mph8.0 kmh 30.04 in1017.3 mb 0.00 in0.0 mm 0.00 in0.0 mm 0.01 in0.3 mm
02:37 AM 54.1°F12.3°C 52.4°F11.3°C 94% 3.3 mph SSE5.3 kmh SSE 5.0 mph8.0 kmh 30.04 in1017.3 mb 0.00 in0.0 mm 0.00 in0.0 mm 0.01 in0.3 mm
02:36 AM 54.1°F12.3°C 52.4°F11.3°C 94% 2.6 mph SSE4.2 kmh SSE 3.0 mph4.8 kmh 30.04 in1017.3 mb 0.00 in0.0 mm 0.00 in0.0 mm 0.01 in0.3 mm
02:35 AM 54.1°F12.3°C 52.4°F11.3°C 94% 3.0 mph SSE4.8 kmh SSE 4.0 mph6.4 kmh 30.04 in1017.3 mb 0.00 in